<?xml version="1.0" encoding="UTF-8" standalone="no" ?>
<gpx xmlns="http://www.topografix.com/GPX/1/1" xmlns:xsi="http://www.w3.org/2001/XMLSchema-instance" xsi:schemaLocation="http://www.topografix.com/GPX/1/1 http://www.topografix.com/GPX/1/1/gpx.xsd" version="1.1" creator="VisuGPX - https://www.visugpx.com">
  <metadata>
    <name>SOLLIES_SIOU BLANC</name>
  </metadata>
  <trk>
    <name><![CDATA[10109108-SIOU BLANC]]></name>
    <extensions>
      <line xmlns="http://www.topografix.com/GPX/gpx_style/0/2">
        <color>0000FF</color>
        <width>4</width>
      </line>
    </extensions>
    <trkseg>
      <trkpt lat="43.1217" lon="5.95538">
        <ele>11</ele>
        <time>2022-08-12T16:48:38Z</time>
      </trkpt>
      <trkpt lat="43.12177" lon="5.9556">
        <ele>11</ele>
        <time>2022-08-12T16:48:41Z</time>
      </trkpt>
      <trkpt lat="43.12188" lon="5.95557">
        <ele>11</ele>
        <time>2022-08-12T16:48:43Z</time>
      </trkpt>
      <trkpt lat="43.12192" lon="5.95556">
        <ele>11</ele>
        <time>2022-08-12T16:48:44Z</time>
      </trkpt>
      <trkpt lat="43.1222" lon="5.95553">
        <ele>11</ele>
        <time>2022-08-12T16:48:49Z</time>
      </trkpt>
      <trkpt lat="43.12224" lon="5.95555">
        <ele>11</ele>
        <time>2022-08-12T16:48:50Z</time>
      </trkpt>
      <trkpt lat="43.12282" lon="5.95531">
        <ele>15</ele>
        <time>2022-08-12T16:49:00Z</time>
      </trkpt>
      <trkpt lat="43.12396" lon="5.9548">
        <ele>20</ele>
        <time>2022-08-12T16:49:22Z</time>
      </trkpt>
      <trkpt lat="43.12417" lon="5.95466">
        <ele>19</ele>
        <time>2022-08-12T16:49:26Z</time>
      </trkpt>
      <trkpt lat="43.12676" lon="5.96103">
        <ele>28</ele>
        <time>2022-08-12T16:51:01Z</time>
      </trkpt>
      <trkpt lat="43.12708" lon="5.96185">
        <ele>29</ele>
        <time>2022-08-12T16:51:13Z</time>
      </trkpt>
      <trkpt lat="43.12759" lon="5.96309">
        <ele>34</ele>
        <time>2022-08-12T16:51:31Z</time>
      </trkpt>
      <trkpt lat="43.12797" lon="5.96416">
        <ele>35</ele>
        <time>2022-08-12T16:51:47Z</time>
      </trkpt>
      <trkpt lat="43.12914" lon="5.96779">
        <ele>40</ele>
        <time>2022-08-12T16:52:38Z</time>
      </trkpt>
      <trkpt lat="43.12924" lon="5.9681">
        <ele>42</ele>
        <time>2022-08-12T16:52:42Z</time>
      </trkpt>
      <trkpt lat="43.12977" lon="5.96968">
        <ele>46</ele>
        <time>2022-08-12T16:53:05Z</time>
      </trkpt>
      <trkpt lat="43.13111" lon="5.973">
        <ele>46</ele>
        <time>2022-08-12T16:53:54Z</time>
      </trkpt>
      <trkpt lat="43.13139" lon="5.97373">
        <ele>45</ele>
        <time>2022-08-12T16:54:05Z</time>
      </trkpt>
      <trkpt lat="43.13156" lon="5.9741">
        <ele>45</ele>
        <time>2022-08-12T16:54:11Z</time>
      </trkpt>
      <trkpt lat="43.13194" lon="5.97505">
        <ele>49</ele>
        <time>2022-08-12T16:54:25Z</time>
      </trkpt>
      <trkpt lat="43.13206" lon="5.97557">
        <ele>49</ele>
        <time>2022-08-12T16:54:32Z</time>
      </trkpt>
      <trkpt lat="43.13215" lon="5.97575">
        <ele>49</ele>
        <time>2022-08-12T16:54:35Z</time>
      </trkpt>
      <trkpt lat="43.13236" lon="5.97601">
        <ele>50</ele>
        <time>2022-08-12T16:54:40Z</time>
      </trkpt>
      <trkpt lat="43.13249" lon="5.97618">
        <ele>51</ele>
        <time>2022-08-12T16:54:43Z</time>
      </trkpt>
      <trkpt lat="43.13264" lon="5.97635">
        <ele>51</ele>
        <time>2022-08-12T16:54:46Z</time>
      </trkpt>
      <trkpt lat="43.13275" lon="5.97644">
        <ele>52</ele>
        <time>2022-08-12T16:54:49Z</time>
      </trkpt>
      <trkpt lat="43.13398" lon="5.97705">
        <ele>57</ele>
        <time>2022-08-12T16:55:12Z</time>
      </trkpt>
      <trkpt lat="43.1349" lon="5.97747">
        <ele>61</ele>
        <time>2022-08-12T16:55:29Z</time>
      </trkpt>
      <trkpt lat="43.13529" lon="5.97764">
        <ele>63</ele>
        <time>2022-08-12T16:55:36Z</time>
      </trkpt>
      <trkpt lat="43.13532" lon="5.97777">
        <ele>62</ele>
        <time>2022-08-12T16:55:38Z</time>
      </trkpt>
      <trkpt lat="43.13539" lon="5.97784">
        <ele>63</ele>
        <time>2022-08-12T16:55:40Z</time>
      </trkpt>
      <trkpt lat="43.13543" lon="5.97786">
        <ele>63</ele>
        <time>2022-08-12T16:55:41Z</time>
      </trkpt>
      <trkpt lat="43.13559" lon="5.9781">
        <ele>63</ele>
        <time>2022-08-12T16:55:45Z</time>
      </trkpt>
      <trkpt lat="43.13678" lon="5.98022">
        <ele>62</ele>
        <time>2022-08-12T16:56:20Z</time>
      </trkpt>
      <trkpt lat="43.13694" lon="5.98051">
        <ele>61</ele>
        <time>2022-08-12T16:56:24Z</time>
      </trkpt>
      <trkpt lat="43.13695" lon="5.98057">
        <ele>61</ele>
        <time>2022-08-12T16:56:25Z</time>
      </trkpt>
      <trkpt lat="43.13692" lon="5.98072">
        <ele>61</ele>
        <time>2022-08-12T16:56:27Z</time>
      </trkpt>
      <trkpt lat="43.13683" lon="5.98091">
        <ele>61</ele>
        <time>2022-08-12T16:56:30Z</time>
      </trkpt>
      <trkpt lat="43.13657" lon="5.9814">
        <ele>61</ele>
        <time>2022-08-12T16:56:38Z</time>
      </trkpt>
      <trkpt lat="43.13618" lon="5.98183">
        <ele>61</ele>
        <time>2022-08-12T16:56:47Z</time>
      </trkpt>
      <trkpt lat="43.13612" lon="5.98193">
        <ele>61</ele>
        <time>2022-08-12T16:56:48Z</time>
      </trkpt>
      <trkpt lat="43.13608" lon="5.98219">
        <ele>61</ele>
        <time>2022-08-12T16:56:52Z</time>
      </trkpt>
      <trkpt lat="43.13605" lon="5.98315">
        <ele>60</ele>
        <time>2022-08-12T16:57:04Z</time>
      </trkpt>
      <trkpt lat="43.13601" lon="5.98317">
        <ele>60</ele>
        <time>2022-08-12T16:57:05Z</time>
      </trkpt>
      <trkpt lat="43.13601" lon="5.98329">
        <ele>60</ele>
        <time>2022-08-12T16:57:07Z</time>
      </trkpt>
      <trkpt lat="43.13603" lon="5.98343">
        <ele>60</ele>
        <time>2022-08-12T16:57:09Z</time>
      </trkpt>
      <trkpt lat="43.13606" lon="5.98346">
        <ele>60</ele>
        <time>2022-08-12T16:57:09Z</time>
      </trkpt>
      <trkpt lat="43.13605" lon="5.98377">
        <ele>60</ele>
        <time>2022-08-12T16:57:13Z</time>
      </trkpt>
      <trkpt lat="43.13611" lon="5.98563">
        <ele>61</ele>
        <time>2022-08-12T16:57:37Z</time>
      </trkpt>
      <trkpt lat="43.13608" lon="5.98566">
        <ele>61</ele>
        <time>2022-08-12T16:57:38Z</time>
      </trkpt>
      <trkpt lat="43.13607" lon="5.98571">
        <ele>61</ele>
        <time>2022-08-12T16:57:39Z</time>
      </trkpt>
      <trkpt lat="43.13609" lon="5.98576">
        <ele>61</ele>
        <time>2022-08-12T16:57:39Z</time>
      </trkpt>
      <trkpt lat="43.13613" lon="5.98578">
        <ele>61</ele>
        <time>2022-08-12T16:57:40Z</time>
      </trkpt>
      <trkpt lat="43.13614" lon="5.986">
        <ele>62</ele>
        <time>2022-08-12T16:57:43Z</time>
      </trkpt>
      <trkpt lat="43.13627" lon="5.98694">
        <ele>63</ele>
        <time>2022-08-12T16:57:56Z</time>
      </trkpt>
      <trkpt lat="43.13629" lon="5.98738">
        <ele>63</ele>
        <time>2022-08-12T16:58:01Z</time>
      </trkpt>
      <trkpt lat="43.13627" lon="5.98748">
        <ele>63</ele>
        <time>2022-08-12T16:58:03Z</time>
      </trkpt>
      <trkpt lat="43.13632" lon="5.98755">
        <ele>63</ele>
        <time>2022-08-12T16:58:04Z</time>
      </trkpt>
      <trkpt lat="43.13634" lon="5.98776">
        <ele>63</ele>
        <time>2022-08-12T16:58:07Z</time>
      </trkpt>
      <trkpt lat="43.13636" lon="5.98803">
        <ele>63</ele>
        <time>2022-08-12T16:58:10Z</time>
      </trkpt>
      <trkpt lat="43.13641" lon="5.98845">
        <ele>63</ele>
        <time>2022-08-12T16:58:16Z</time>
      </trkpt>
      <trkpt lat="43.13648" lon="5.98879">
        <ele>63</ele>
        <time>2022-08-12T16:58:20Z</time>
      </trkpt>
      <trkpt lat="43.13653" lon="5.98883">
        <ele>63</ele>
        <time>2022-08-12T16:58:21Z</time>
      </trkpt>
      <trkpt lat="43.1365" lon="5.98885">
        <ele>63</ele>
        <time>2022-08-12T16:58:22Z</time>
      </trkpt>
      <trkpt lat="43.1365" lon="5.98887">
        <ele>63</ele>
        <time>2022-08-12T16:58:22Z</time>
      </trkpt>
      <trkpt lat="43.13665" lon="5.98944">
        <ele>63</ele>
        <time>2022-08-12T16:58:30Z</time>
      </trkpt>
      <trkpt lat="43.13678" lon="5.99038">
        <ele>63</ele>
        <time>2022-08-12T16:58:42Z</time>
      </trkpt>
      <trkpt lat="43.13702" lon="5.99149">
        <ele>61</ele>
        <time>2022-08-12T16:58:57Z</time>
      </trkpt>
      <trkpt lat="43.13706" lon="5.99159">
        <ele>61</ele>
        <time>2022-08-12T16:58:59Z</time>
      </trkpt>
      <trkpt lat="43.13719" lon="5.99176">
        <ele>61</ele>
        <time>2022-08-12T16:59:02Z</time>
      </trkpt>
      <trkpt lat="43.13773" lon="5.99219">
        <ele>63</ele>
        <time>2022-08-12T16:59:13Z</time>
      </trkpt>
      <trkpt lat="43.13785" lon="5.99231">
        <ele>63</ele>
        <time>2022-08-12T16:59:16Z</time>
      </trkpt>
      <trkpt lat="43.13799" lon="5.99249">
        <ele>63</ele>
        <time>2022-08-12T16:59:19Z</time>
      </trkpt>
      <trkpt lat="43.13801" lon="5.99259">
        <ele>63</ele>
        <time>2022-08-12T16:59:21Z</time>
      </trkpt>
      <trkpt lat="43.13806" lon="5.99264">
        <ele>63</ele>
        <time>2022-08-12T16:59:22Z</time>
      </trkpt>
      <trkpt lat="43.13814" lon="5.99265">
        <ele>63</ele>
        <time>2022-08-12T16:59:23Z</time>
      </trkpt>
      <trkpt lat="43.13824" lon="5.99284">
        <ele>64</ele>
        <time>2022-08-12T16:59:26Z</time>
      </trkpt>
      <trkpt lat="43.13919" lon="5.99561">
        <ele>63</ele>
        <time>2022-08-12T17:00:06Z</time>
      </trkpt>
      <trkpt lat="43.13927" lon="5.99578">
        <ele>63</ele>
        <time>2022-08-12T17:00:09Z</time>
      </trkpt>
      <trkpt lat="43.13933" lon="5.99597">
        <ele>63</ele>
        <time>2022-08-12T17:00:11Z</time>
      </trkpt>
      <trkpt lat="43.13933" lon="5.99603">
        <ele>62</ele>
        <time>2022-08-12T17:00:12Z</time>
      </trkpt>
      <trkpt lat="43.13936" lon="5.99607">
        <ele>62</ele>
        <time>2022-08-12T17:00:13Z</time>
      </trkpt>
      <trkpt lat="43.13938" lon="5.99618">
        <ele>62</ele>
        <time>2022-08-12T17:00:14Z</time>
      </trkpt>
      <trkpt lat="43.14002" lon="5.99793">
        <ele>61</ele>
        <time>2022-08-12T17:00:40Z</time>
      </trkpt>
      <trkpt lat="43.14055" lon="5.99959">
        <ele>61</ele>
        <time>2022-08-12T17:01:03Z</time>
      </trkpt>
      <trkpt lat="43.14073" lon="6.00026">
        <ele>61</ele>
        <time>2022-08-12T17:01:12Z</time>
      </trkpt>
      <trkpt lat="43.14087" lon="6.00051">
        <ele>61</ele>
        <time>2022-08-12T17:01:17Z</time>
      </trkpt>
      <trkpt lat="43.141" lon="6.00061">
        <ele>62</ele>
        <time>2022-08-12T17:01:19Z</time>
      </trkpt>
      <trkpt lat="43.14109" lon="6.00064">
        <ele>62</ele>
        <time>2022-08-12T17:01:21Z</time>
      </trkpt>
      <trkpt lat="43.14129" lon="6.00065">
        <ele>63</ele>
        <time>2022-08-12T17:01:24Z</time>
      </trkpt>
      <trkpt lat="43.1414" lon="6.00068">
        <ele>63</ele>
        <time>2022-08-12T17:01:26Z</time>
      </trkpt>
      <trkpt lat="43.14151" lon="6.0008">
        <ele>64</ele>
        <time>2022-08-12T17:01:29Z</time>
      </trkpt>
      <trkpt lat="43.1415" lon="6.0009">
        <ele>64</ele>
        <time>2022-08-12T17:01:30Z</time>
      </trkpt>
      <trkpt lat="43.14151" lon="6.00099">
        <ele>64</ele>
        <time>2022-08-12T17:01:31Z</time>
      </trkpt>
      <trkpt lat="43.14155" lon="6.00107">
        <ele>65</ele>
        <time>2022-08-12T17:01:33Z</time>
      </trkpt>
      <trkpt lat="43.14164" lon="6.00117">
        <ele>65</ele>
        <time>2022-08-12T17:01:35Z</time>
      </trkpt>
      <trkpt lat="43.14173" lon="6.0012">
        <ele>66</ele>
        <time>2022-08-12T17:01:36Z</time>
      </trkpt>
      <trkpt lat="43.14179" lon="6.00129">
        <ele>66</ele>
        <time>2022-08-12T17:01:38Z</time>
      </trkpt>
      <trkpt lat="43.14181" lon="6.00141">
        <ele>66</ele>
        <time>2022-08-12T17:01:40Z</time>
      </trkpt>
      <trkpt lat="43.14181" lon="6.00152">
        <ele>66</ele>
        <time>2022-08-12T17:01:41Z</time>
      </trkpt>
      <trkpt lat="43.14176" lon="6.00187">
        <ele>67</ele>
        <time>2022-08-12T17:01:46Z</time>
      </trkpt>
      <trkpt lat="43.14171" lon="6.00203">
        <ele>67</ele>
        <time>2022-08-12T17:01:48Z</time>
      </trkpt>
      <trkpt lat="43.14165" lon="6.00215">
        <ele>66</ele>
        <time>2022-08-12T17:01:50Z</time>
      </trkpt>
      <trkpt lat="43.14146" lon="6.00241">
        <ele>65</ele>
        <time>2022-08-12T17:01:55Z</time>
      </trkpt>
      <trkpt lat="43.1414" lon="6.00255">
        <ele>65</ele>
        <time>2022-08-12T17:01:57Z</time>
      </trkpt>
      <trkpt lat="43.14136" lon="6.00278">
        <ele>64</ele>
        <time>2022-08-12T17:02:00Z</time>
      </trkpt>
      <trkpt lat="43.14138" lon="6.00298">
        <ele>64</ele>
        <time>2022-08-12T17:02:02Z</time>
      </trkpt>
      <trkpt lat="43.14145" lon="6.00318">
        <ele>65</ele>
        <time>2022-08-12T17:02:05Z</time>
      </trkpt>
      <trkpt lat="43.14269" lon="6.00776">
        <ele>71</ele>
        <time>2022-08-12T17:03:09Z</time>
      </trkpt>
      <trkpt lat="43.1432" lon="6.00978">
        <ele>69</ele>
        <time>2022-08-12T17:03:36Z</time>
      </trkpt>
      <trkpt lat="43.14338" lon="6.01064">
        <ele>66</ele>
        <time>2022-08-12T17:03:48Z</time>
      </trkpt>
      <trkpt lat="43.14351" lon="6.01143">
        <ele>65</ele>
        <time>2022-08-12T17:03:59Z</time>
      </trkpt>
      <trkpt lat="43.14357" lon="6.01234">
        <ele>61</ele>
        <time>2022-08-12T17:04:10Z</time>
      </trkpt>
      <trkpt lat="43.14363" lon="6.01392">
        <ele>57</ele>
        <time>2022-08-12T17:04:31Z</time>
      </trkpt>
      <trkpt lat="43.14365" lon="6.01492">
        <ele>55</ele>
        <time>2022-08-12T17:04:44Z</time>
      </trkpt>
      <trkpt lat="43.1438" lon="6.01837">
        <ele>54</ele>
        <time>2022-08-12T17:05:29Z</time>
      </trkpt>
      <trkpt lat="43.14387" lon="6.01972">
        <ele>56</ele>
        <time>2022-08-12T17:05:46Z</time>
      </trkpt>
      <trkpt lat="43.14394" lon="6.02115">
        <ele>59</ele>
        <time>2022-08-12T17:06:05Z</time>
      </trkpt>
      <trkpt lat="43.14401" lon="6.02184">
        <ele>57</ele>
        <time>2022-08-12T17:06:14Z</time>
      </trkpt>
      <trkpt lat="43.14413" lon="6.02239">
        <ele>56</ele>
        <time>2022-08-12T17:06:21Z</time>
      </trkpt>
      <trkpt lat="43.14441" lon="6.02321">
        <ele>56</ele>
        <time>2022-08-12T17:06:33Z</time>
      </trkpt>
      <trkpt lat="43.14597" lon="6.02739">
        <ele>48</ele>
        <time>2022-08-12T17:07:34Z</time>
      </trkpt>
      <trkpt lat="43.14627" lon="6.02813">
        <ele>47</ele>
        <time>2022-08-12T17:07:45Z</time>
      </trkpt>
      <trkpt lat="43.14637" lon="6.02834">
        <ele>47</ele>
        <time>2022-08-12T17:07:48Z</time>
      </trkpt>
      <trkpt lat="43.14654" lon="6.02864">
        <ele>48</ele>
        <time>2022-08-12T17:07:53Z</time>
      </trkpt>
      <trkpt lat="43.14686" lon="6.02908">
        <ele>48</ele>
        <time>2022-08-12T17:08:01Z</time>
      </trkpt>
      <trkpt lat="43.14831" lon="6.03087">
        <ele>51</ele>
        <time>2022-08-12T17:08:36Z</time>
      </trkpt>
      <trkpt lat="43.1496" lon="6.03238">
        <ele>54</ele>
        <time>2022-08-12T17:09:06Z</time>
      </trkpt>
      <trkpt lat="43.15464" lon="6.03848">
        <ele>69</ele>
        <time>2022-08-12T17:11:06Z</time>
      </trkpt>
      <trkpt lat="43.1551" lon="6.0389">
        <ele>69</ele>
        <time>2022-08-12T17:11:16Z</time>
      </trkpt>
      <trkpt lat="43.15537" lon="6.03912">
        <ele>69</ele>
        <time>2022-08-12T17:11:21Z</time>
      </trkpt>
      <trkpt lat="43.15573" lon="6.03936">
        <ele>70</ele>
        <time>2022-08-12T17:11:28Z</time>
      </trkpt>
      <trkpt lat="43.15933" lon="6.04125">
        <ele>71</ele>
        <time>2022-08-12T17:12:37Z</time>
      </trkpt>
      <trkpt lat="43.15952" lon="6.0414">
        <ele>72</ele>
        <time>2022-08-12T17:12:41Z</time>
      </trkpt>
      <trkpt lat="43.15967" lon="6.04156">
        <ele>72</ele>
        <time>2022-08-12T17:12:44Z</time>
      </trkpt>
      <trkpt lat="43.15971" lon="6.0417">
        <ele>72</ele>
        <time>2022-08-12T17:12:46Z</time>
      </trkpt>
      <trkpt lat="43.15978" lon="6.04178">
        <ele>72</ele>
        <time>2022-08-12T17:12:48Z</time>
      </trkpt>
      <trkpt lat="43.15986" lon="6.04181">
        <ele>72</ele>
        <time>2022-08-12T17:12:49Z</time>
      </trkpt>
      <trkpt lat="43.15995" lon="6.04178">
        <ele>73</ele>
        <time>2022-08-12T17:12:51Z</time>
      </trkpt>
      <trkpt lat="43.15999" lon="6.04175">
        <ele>73</ele>
        <time>2022-08-12T17:12:52Z</time>
      </trkpt>
      <trkpt lat="43.1603" lon="6.04176">
        <ele>74</ele>
        <time>2022-08-12T17:12:57Z</time>
      </trkpt>
      <trkpt lat="43.16123" lon="6.04224">
        <ele>75</ele>
        <time>2022-08-12T17:13:15Z</time>
      </trkpt>
      <trkpt lat="43.16167" lon="6.04242">
        <ele>76</ele>
        <time>2022-08-12T17:13:23Z</time>
      </trkpt>
      <trkpt lat="43.16187" lon="6.04247">
        <ele>76</ele>
        <time>2022-08-12T17:13:27Z</time>
      </trkpt>
      <trkpt lat="43.16214" lon="6.0425">
        <ele>77</ele>
        <time>2022-08-12T17:13:32Z</time>
      </trkpt>
      <trkpt lat="43.16265" lon="6.04253">
        <ele>77</ele>
        <time>2022-08-12T17:13:41Z</time>
      </trkpt>
      <trkpt lat="43.16298" lon="6.04265">
        <ele>77</ele>
        <time>2022-08-12T17:13:47Z</time>
      </trkpt>
      <trkpt lat="43.16302" lon="6.0427">
        <ele>77</ele>
        <time>2022-08-12T17:13:48Z</time>
      </trkpt>
      <trkpt lat="43.16314" lon="6.04289">
        <ele>77</ele>
        <time>2022-08-12T17:13:51Z</time>
      </trkpt>
      <trkpt lat="43.16318" lon="6.04297">
        <ele>77</ele>
        <time>2022-08-12T17:13:52Z</time>
      </trkpt>
      <trkpt lat="43.16326" lon="6.04301">
        <ele>77</ele>
        <time>2022-08-12T17:13:54Z</time>
      </trkpt>
      <trkpt lat="43.16331" lon="6.04299">
        <ele>77</ele>
        <time>2022-08-12T17:13:55Z</time>
      </trkpt>
      <trkpt lat="43.16335" lon="6.04293">
        <ele>77</ele>
        <time>2022-08-12T17:13:56Z</time>
      </trkpt>
      <trkpt lat="43.16337" lon="6.04285">
        <ele>78</ele>
        <time>2022-08-12T17:13:57Z</time>
      </trkpt>
      <trkpt lat="43.16344" lon="6.04273">
        <ele>78</ele>
        <time>2022-08-12T17:13:59Z</time>
      </trkpt>
      <trkpt lat="43.16348" lon="6.04269">
        <ele>78</ele>
        <time>2022-08-12T17:14:00Z</time>
      </trkpt>
      <trkpt lat="43.16365" lon="6.0426">
        <ele>78</ele>
        <time>2022-08-12T17:14:03Z</time>
      </trkpt>
      <trkpt lat="43.16375" lon="6.04259">
        <ele>78</ele>
        <time>2022-08-12T17:14:05Z</time>
      </trkpt>
      <trkpt lat="43.16702" lon="6.04282">
        <ele>81</ele>
        <time>2022-08-12T17:15:03Z</time>
      </trkpt>
      <trkpt lat="43.1675" lon="6.04301">
        <ele>82</ele>
        <time>2022-08-12T17:15:12Z</time>
      </trkpt>
      <trkpt lat="43.16772" lon="6.04305">
        <ele>82</ele>
        <time>2022-08-12T17:15:16Z</time>
      </trkpt>
      <trkpt lat="43.16793" lon="6.04312">
        <ele>81</ele>
        <time>2022-08-12T17:15:20Z</time>
      </trkpt>
      <trkpt lat="43.16815" lon="6.04327">
        <ele>81</ele>
        <time>2022-08-12T17:15:24Z</time>
      </trkpt>
      <trkpt lat="43.16837" lon="6.04345">
        <ele>80</ele>
        <time>2022-08-12T17:15:29Z</time>
      </trkpt>
      <trkpt lat="43.17006" lon="6.04494">
        <ele>74</ele>
        <time>2022-08-12T17:16:04Z</time>
      </trkpt>
      <trkpt lat="43.17272" lon="6.04685">
        <ele>77</ele>
        <time>2022-08-12T17:16:58Z</time>
      </trkpt>
      <trkpt lat="43.17316" lon="6.04723">
        <ele>76</ele>
        <time>2022-08-12T17:17:07Z</time>
      </trkpt>
      <trkpt lat="43.1733" lon="6.04738">
        <ele>76</ele>
        <time>2022-08-12T17:17:10Z</time>
      </trkpt>
      <trkpt lat="43.1733" lon="6.04743">
        <ele>75</ele>
        <time>2022-08-12T17:17:11Z</time>
      </trkpt>
      <trkpt lat="43.17335" lon="6.0475">
        <ele>75</ele>
        <time>2022-08-12T17:17:12Z</time>
      </trkpt>
      <trkpt lat="43.17342" lon="6.04751">
        <ele>75</ele>
        <time>2022-08-12T17:17:13Z</time>
      </trkpt>
      <trkpt lat="43.17348" lon="6.04747">
        <ele>75</ele>
        <time>2022-08-12T17:17:15Z</time>
      </trkpt>
      <trkpt lat="43.17363" lon="6.04746">
        <ele>75</ele>
        <time>2022-08-12T17:17:17Z</time>
      </trkpt>
      <trkpt lat="43.17392" lon="6.04753">
        <ele>74</ele>
        <time>2022-08-12T17:17:23Z</time>
      </trkpt>
      <trkpt lat="43.17415" lon="6.04756">
        <ele>73</ele>
        <time>2022-08-12T17:17:27Z</time>
      </trkpt>
      <trkpt lat="43.17446" lon="6.04755">
        <ele>73</ele>
        <time>2022-08-12T17:17:32Z</time>
      </trkpt>
      <trkpt lat="43.17472" lon="6.0475">
        <ele>74</ele>
        <time>2022-08-12T17:17:37Z</time>
      </trkpt>
      <trkpt lat="43.17585" lon="6.04743">
        <ele>73</ele>
        <time>2022-08-12T17:17:57Z</time>
      </trkpt>
      <trkpt lat="43.17647" lon="6.04745">
        <ele>73</ele>
        <time>2022-08-12T17:18:08Z</time>
      </trkpt>
      <trkpt lat="43.17651" lon="6.04742">
        <ele>74</ele>
        <time>2022-08-12T17:18:09Z</time>
      </trkpt>
      <trkpt lat="43.17658" lon="6.04741">
        <ele>74</ele>
        <time>2022-08-12T17:18:10Z</time>
      </trkpt>
      <trkpt lat="43.1766" lon="6.04736">
        <ele>74</ele>
        <time>2022-08-12T17:18:11Z</time>
      </trkpt>
      <trkpt lat="43.17664" lon="6.04742">
        <ele>74</ele>
        <time>2022-08-12T17:18:12Z</time>
      </trkpt>
      <trkpt lat="43.17668" lon="6.04744">
        <ele>74</ele>
        <time>2022-08-12T17:18:13Z</time>
      </trkpt>
      <trkpt lat="43.17739" lon="6.04739">
        <ele>74</ele>
        <time>2022-08-12T17:18:25Z</time>
      </trkpt>
      <trkpt lat="43.17764" lon="6.04734">
        <ele>74</ele>
        <time>2022-08-12T17:18:30Z</time>
      </trkpt>
      <trkpt lat="43.17794" lon="6.04722">
        <ele>74</ele>
        <time>2022-08-12T17:18:35Z</time>
      </trkpt>
      <trkpt lat="43.17811" lon="6.04715">
        <ele>75</ele>
        <time>2022-08-12T17:18:38Z</time>
      </trkpt>
      <trkpt lat="43.17845" lon="6.04696">
        <ele>76</ele>
        <time>2022-08-12T17:18:45Z</time>
      </trkpt>
      <trkpt lat="43.18228" lon="6.04427">
        <ele>81</ele>
        <time>2022-08-12T17:20:02Z</time>
      </trkpt>
      <trkpt lat="43.18246" lon="6.04416">
        <ele>80</ele>
        <time>2022-08-12T17:20:05Z</time>
      </trkpt>
      <trkpt lat="43.1826" lon="6.04408">
        <ele>81</ele>
        <time>2022-08-12T17:20:08Z</time>
      </trkpt>
      <trkpt lat="43.1828" lon="6.04393">
        <ele>82</ele>
        <time>2022-08-12T17:20:12Z</time>
      </trkpt>
      <trkpt lat="43.18325" lon="6.04357">
        <ele>83</ele>
        <time>2022-08-12T17:20:21Z</time>
      </trkpt>
      <trkpt lat="43.18338" lon="6.04343">
        <ele>82</ele>
        <time>2022-08-12T17:20:24Z</time>
      </trkpt>
      <trkpt lat="43.18356" lon="6.04325">
        <ele>84</ele>
        <time>2022-08-12T17:20:28Z</time>
      </trkpt>
      <trkpt lat="43.18373" lon="6.04306">
        <ele>86</ele>
        <time>2022-08-12T17:20:32Z</time>
      </trkpt>
      <trkpt lat="43.18429" lon="6.04245">
        <ele>88</ele>
        <time>2022-08-12T17:20:45Z</time>
      </trkpt>
      <trkpt lat="43.18448" lon="6.0422">
        <ele>91</ele>
        <time>2022-08-12T17:20:49Z</time>
      </trkpt>
      <trkpt lat="43.18701" lon="6.03903">
        <ele>91</ele>
        <time>2022-08-12T17:21:50Z</time>
      </trkpt>
      <trkpt lat="43.18743" lon="6.03848">
        <ele>91</ele>
        <time>2022-08-12T17:22:01Z</time>
      </trkpt>
      <trkpt lat="43.1875" lon="6.03836">
        <ele>91</ele>
        <time>2022-08-12T17:22:03Z</time>
      </trkpt>
      <trkpt lat="43.18756" lon="6.0382">
        <ele>92</ele>
        <time>2022-08-12T17:22:05Z</time>
      </trkpt>
      <trkpt lat="43.18758" lon="6.03813">
        <ele>92</ele>
        <time>2022-08-12T17:22:06Z</time>
      </trkpt>
      <trkpt lat="43.18769" lon="6.03796">
        <ele>92</ele>
        <time>2022-08-12T17:22:09Z</time>
      </trkpt>
      <trkpt lat="43.18847" lon="6.03727">
        <ele>90</ele>
        <time>2022-08-12T17:22:25Z</time>
      </trkpt>
      <trkpt lat="43.18878" lon="6.03705">
        <ele>90</ele>
        <time>2022-08-12T17:22:32Z</time>
      </trkpt>
      <trkpt lat="43.18927" lon="6.03683">
        <ele>88</ele>
        <time>2022-08-12T17:22:41Z</time>
      </trkpt>
      <trkpt lat="43.18956" lon="6.03674">
        <ele>86</ele>
        <time>2022-08-12T17:22:46Z</time>
      </trkpt>
      <trkpt lat="43.18984" lon="6.0367">
        <ele>85</ele>
        <time>2022-08-12T17:22:51Z</time>
      </trkpt>
      <trkpt lat="43.19025" lon="6.03668">
        <ele>84</ele>
        <time>2022-08-12T17:22:58Z</time>
      </trkpt>
      <trkpt lat="43.19042" lon="6.03669">
        <ele>84</ele>
        <time>2022-08-12T17:23:01Z</time>
      </trkpt>
      <trkpt lat="43.19102" lon="6.03683">
        <ele>84</ele>
        <time>2022-08-12T17:23:12Z</time>
      </trkpt>
      <trkpt lat="43.19104" lon="6.03674">
        <ele>84</ele>
        <time>2022-08-12T17:23:13Z</time>
      </trkpt>
      <trkpt lat="43.1911" lon="6.03664">
        <ele>84</ele>
        <time>2022-08-12T17:23:15Z</time>
      </trkpt>
      <trkpt lat="43.19122" lon="6.03652">
        <ele>84</ele>
        <time>2022-08-12T17:23:18Z</time>
      </trkpt>
      <trkpt lat="43.19167" lon="6.03612">
        <ele>84</ele>
        <time>2022-08-12T17:23:27Z</time>
      </trkpt>
      <trkpt lat="43.19185" lon="6.03588">
        <ele>84</ele>
        <time>2022-08-12T17:23:32Z</time>
      </trkpt>
      <trkpt lat="43.19203" lon="6.03573">
        <ele>84</ele>
        <time>2022-08-12T17:23:36Z</time>
      </trkpt>
      <trkpt lat="43.19224" lon="6.03559">
        <ele>85</ele>
        <time>2022-08-12T17:23:40Z</time>
      </trkpt>
      <trkpt lat="43.19337" lon="6.03512">
        <ele>84</ele>
        <time>2022-08-12T17:24:01Z</time>
      </trkpt>
      <trkpt lat="43.19366" lon="6.03491">
        <ele>84</ele>
        <time>2022-08-12T17:24:07Z</time>
      </trkpt>
      <trkpt lat="43.19386" lon="6.03475">
        <ele>84</ele>
        <time>2022-08-12T17:24:11Z</time>
      </trkpt>
      <trkpt lat="43.19392" lon="6.03469">
        <ele>84</ele>
        <time>2022-08-12T17:24:12Z</time>
      </trkpt>
      <trkpt lat="43.19393" lon="6.03446">
        <ele>84</ele>
        <time>2022-08-12T17:24:15Z</time>
      </trkpt>
      <trkpt lat="43.19386" lon="6.03399">
        <ele>85</ele>
        <time>2022-08-12T17:24:21Z</time>
      </trkpt>
      <trkpt lat="43.19389" lon="6.03367">
        <ele>86</ele>
        <time>2022-08-12T17:24:25Z</time>
      </trkpt>
      <trkpt lat="43.19395" lon="6.03338">
        <ele>87</ele>
        <time>2022-08-12T17:24:29Z</time>
      </trkpt>
      <trkpt lat="43.19415" lon="6.03309">
        <ele>88</ele>
        <time>2022-08-12T17:24:34Z</time>
      </trkpt>
      <trkpt lat="43.19446" lon="6.03282">
        <ele>89</ele>
        <time>2022-08-12T17:24:41Z</time>
      </trkpt>
      <trkpt lat="43.19448" lon="6.03265">
        <ele>90</ele>
        <time>2022-08-12T17:24:43Z</time>
      </trkpt>
      <trkpt lat="43.19446" lon="6.03254">
        <ele>90</ele>
        <time>2022-08-12T17:24:45Z</time>
      </trkpt>
      <trkpt lat="43.19433" lon="6.03229">
        <ele>91</ele>
        <time>2022-08-12T17:24:49Z</time>
      </trkpt>
      <trkpt lat="43.19431" lon="6.03223">
        <ele>92</ele>
        <time>2022-08-12T17:24:50Z</time>
      </trkpt>
      <trkpt lat="43.19424" lon="6.03215">
        <ele>92</ele>
        <time>2022-08-12T17:24:51Z</time>
      </trkpt>
      <trkpt lat="43.19464" lon="6.03156">
        <ele>94</ele>
        <time>2022-08-12T17:25:02Z</time>
      </trkpt>
      <trkpt lat="43.19486" lon="6.03117">
        <ele>95</ele>
        <time>2022-08-12T17:25:08Z</time>
      </trkpt>
      <trkpt lat="43.19502" lon="6.03094">
        <ele>95</ele>
        <time>2022-08-12T17:25:12Z</time>
      </trkpt>
      <trkpt lat="43.19566" lon="6.03041">
        <ele>97</ele>
        <time>2022-08-12T17:25:25Z</time>
      </trkpt>
      <trkpt lat="43.19594" lon="6.03005">
        <ele>99</ele>
        <time>2022-08-12T17:25:32Z</time>
      </trkpt>
      <trkpt lat="43.196" lon="6.03001">
        <ele>99</ele>
        <time>2022-08-12T17:25:33Z</time>
      </trkpt>
      <trkpt lat="43.19671" lon="6.02973">
        <ele>103</ele>
        <time>2022-08-12T17:25:47Z</time>
      </trkpt>
      <trkpt lat="43.19746" lon="6.02966">
        <ele>100</ele>
        <time>2022-08-12T17:26:00Z</time>
      </trkpt>
      <trkpt lat="43.19765" lon="6.02959">
        <ele>100</ele>
        <time>2022-08-12T17:26:03Z</time>
      </trkpt>
      <trkpt lat="43.19771" lon="6.02954">
        <ele>100</ele>
        <time>2022-08-12T17:26:05Z</time>
      </trkpt>
      <trkpt lat="43.19799" lon="6.02923">
        <ele>100</ele>
        <time>2022-08-12T17:26:11Z</time>
      </trkpt>
      <trkpt lat="43.19816" lon="6.02902">
        <ele>101</ele>
        <time>2022-08-12T17:26:15Z</time>
      </trkpt>
      <trkpt lat="43.19844" lon="6.02849">
        <ele>105</ele>
        <time>2022-08-12T17:26:24Z</time>
      </trkpt>
      <trkpt lat="43.19872" lon="6.02822">
        <ele>105</ele>
        <time>2022-08-12T17:26:30Z</time>
      </trkpt>
      <trkpt lat="43.19887" lon="6.02802">
        <ele>106</ele>
        <time>2022-08-12T17:26:34Z</time>
      </trkpt>
      <trkpt lat="43.19904" lon="6.02791">
        <ele>103</ele>
        <time>2022-08-12T17:26:37Z</time>
      </trkpt>
      <trkpt lat="43.19963" lon="6.02766">
        <ele>98</ele>
        <time>2022-08-12T17:26:48Z</time>
      </trkpt>
      <trkpt lat="43.19988" lon="6.0275">
        <ele>96</ele>
        <time>2022-08-12T17:26:53Z</time>
      </trkpt>
      <trkpt lat="43.20015" lon="6.02725">
        <ele>97</ele>
        <time>2022-08-12T17:26:59Z</time>
      </trkpt>
      <trkpt lat="43.20024" lon="6.0272">
        <ele>97</ele>
        <time>2022-08-12T17:27:00Z</time>
      </trkpt>
      <trkpt lat="43.20024" lon="6.02723">
        <ele>97</ele>
        <time>2022-08-12T17:27:01Z</time>
      </trkpt>
      <trkpt lat="43.20024" lon="6.0272">
        <ele>97</ele>
        <time>2022-08-12T17:27:01Z</time>
      </trkpt>
      <trkpt lat="43.20026" lon="6.02713">
        <ele>98</ele>
        <time>2022-08-12T17:27:02Z</time>
      </trkpt>
      <trkpt lat="43.20072" lon="6.02676">
        <ele>98</ele>
        <time>2022-08-12T17:27:12Z</time>
      </trkpt>
      <trkpt lat="43.20091" lon="6.02664">
        <ele>98</ele>
        <time>2022-08-12T17:27:15Z</time>
      </trkpt>
      <trkpt lat="43.20114" lon="6.02655">
        <ele>100</ele>
        <time>2022-08-12T17:27:19Z</time>
      </trkpt>
      <trkpt lat="43.20131" lon="6.02642">
        <ele>101</ele>
        <time>2022-08-12T17:27:23Z</time>
      </trkpt>
      <trkpt lat="43.20179" lon="6.02599">
        <ele>104</ele>
        <time>2022-08-12T17:27:33Z</time>
      </trkpt>
      <trkpt lat="43.20189" lon="6.02589">
        <ele>105</ele>
        <time>2022-08-12T17:27:35Z</time>
      </trkpt>
      <trkpt lat="43.20215" lon="6.02549">
        <ele>106</ele>
        <time>2022-08-12T17:27:42Z</time>
      </trkpt>
      <trkpt lat="43.2025" lon="6.02471">
        <ele>105</ele>
        <time>2022-08-12T17:27:54Z</time>
      </trkpt>
      <trkpt lat="43.20252" lon="6.02462">
        <ele>105</ele>
        <time>2022-08-12T17:27:55Z</time>
      </trkpt>
      <trkpt lat="43.20254" lon="6.02414">
        <ele>108</ele>
        <time>2022-08-12T17:28:02Z</time>
      </trkpt>
      <trkpt lat="43.20269" lon="6.02321">
        <ele>115</ele>
        <time>2022-08-12T17:28:14Z</time>
      </trkpt>
      <trkpt lat="43.20268" lon="6.02251">
        <ele>117</ele>
        <time>2022-08-12T17:28:23Z</time>
      </trkpt>
      <trkpt lat="43.20267" lon="6.02204">
        <ele>116</ele>
        <time>2022-08-12T17:28:29Z</time>
      </trkpt>
      <trkpt lat="43.20262" lon="6.0218">
        <ele>116</ele>
        <time>2022-08-12T17:28:32Z</time>
      </trkpt>
      <trkpt lat="43.20245" lon="6.02151">
        <ele>117</ele>
        <time>2022-08-12T17:28:37Z</time>
      </trkpt>
      <trkpt lat="43.20196" lon="6.02041">
        <ele>115</ele>
        <time>2022-08-12T17:28:54Z</time>
      </trkpt>
      <trkpt lat="43.20187" lon="6.01954">
        <ele>110</ele>
        <time>2022-08-12T17:29:05Z</time>
      </trkpt>
      <trkpt lat="43.20196" lon="6.01946">
        <ele>110</ele>
        <time>2022-08-12T17:29:07Z</time>
      </trkpt>
      <trkpt lat="43.20244" lon="6.01924">
        <ele>110</ele>
        <time>2022-08-12T17:29:16Z</time>
      </trkpt>
      <trkpt lat="43.20265" lon="6.01934">
        <ele>113</ele>
        <time>2022-08-12T17:29:20Z</time>
      </trkpt>
      <trkpt lat="43.20278" lon="6.01942">
        <ele>116</ele>
        <time>2022-08-12T17:29:23Z</time>
      </trkpt>
      <trkpt lat="43.20279" lon="6.01891">
        <ele>118</ele>
        <time>2022-08-12T17:29:29Z</time>
      </trkpt>
      <trkpt lat="43.20287" lon="6.01825">
        <ele>122</ele>
        <time>2022-08-12T17:29:38Z</time>
      </trkpt>
      <trkpt lat="43.20297" lon="6.01779">
        <ele>125</ele>
        <time>2022-08-12T17:29:44Z</time>
      </trkpt>
      <trkpt lat="43.20308" lon="6.01737">
        <ele>127</ele>
        <time>2022-08-12T17:29:50Z</time>
      </trkpt>
      <trkpt lat="43.20326" lon="6.01676">
        <ele>126</ele>
        <time>2022-08-12T17:29:59Z</time>
      </trkpt>
      <trkpt lat="43.20314" lon="6.0166">
        <ele>129</ele>
        <time>2022-08-12T17:30:02Z</time>
      </trkpt>
      <trkpt lat="43.20323" lon="6.01639">
        <ele>129</ele>
        <time>2022-08-12T17:30:05Z</time>
      </trkpt>
      <trkpt lat="43.2033" lon="6.01617">
        <ele>129</ele>
        <time>2022-08-12T17:30:08Z</time>
      </trkpt>
      <trkpt lat="43.20341" lon="6.01528">
        <ele>135</ele>
        <time>2022-08-12T17:30:20Z</time>
      </trkpt>
      <trkpt lat="43.20352" lon="6.01477">
        <ele>138</ele>
        <time>2022-08-12T17:30:26Z</time>
      </trkpt>
      <trkpt lat="43.2035" lon="6.0143">
        <ele>141</ele>
        <time>2022-08-12T17:30:33Z</time>
      </trkpt>
      <trkpt lat="43.20342" lon="6.01393">
        <ele>145</ele>
        <time>2022-08-12T17:30:38Z</time>
      </trkpt>
      <trkpt lat="43.20331" lon="6.01315">
        <ele>152</ele>
        <time>2022-08-12T17:30:48Z</time>
      </trkpt>
      <trkpt lat="43.20335" lon="6.01235">
        <ele>155</ele>
        <time>2022-08-12T17:30:58Z</time>
      </trkpt>
      <trkpt lat="43.20361" lon="6.01166">
        <ele>163</ele>
        <time>2022-08-12T17:31:08Z</time>
      </trkpt>
      <trkpt lat="43.2043" lon="6.01051">
        <ele>165</ele>
        <time>2022-08-12T17:31:28Z</time>
      </trkpt>
      <trkpt lat="43.20446" lon="6.01004">
        <ele>173</ele>
        <time>2022-08-12T17:31:34Z</time>
      </trkpt>
      <trkpt lat="43.2045" lon="6.00955">
        <ele>177</ele>
        <time>2022-08-12T17:31:41Z</time>
      </trkpt>
      <trkpt lat="43.20436" lon="6.00875">
        <ele>181</ele>
        <time>2022-08-12T17:31:51Z</time>
      </trkpt>
      <trkpt lat="43.20444" lon="6.00825">
        <ele>181</ele>
        <time>2022-08-12T17:31:58Z</time>
      </trkpt>
      <trkpt lat="43.20441" lon="6.00788">
        <ele>182</ele>
        <time>2022-08-12T17:32:03Z</time>
      </trkpt>
      <trkpt lat="43.20425" lon="6.0077">
        <ele>181</ele>
        <time>2022-08-12T17:32:07Z</time>
      </trkpt>
      <trkpt lat="43.20412" lon="6.00729">
        <ele>183</ele>
        <time>2022-08-12T17:32:12Z</time>
      </trkpt>
      <trkpt lat="43.20389" lon="6.00635">
        <ele>187</ele>
        <time>2022-08-12T17:32:25Z</time>
      </trkpt>
      <trkpt lat="43.20365" lon="6.00564">
        <ele>188</ele>
        <time>2022-08-12T17:32:35Z</time>
      </trkpt>
      <trkpt lat="43.20346" lon="6.00537">
        <ele>189</ele>
        <time>2022-08-12T17:32:40Z</time>
      </trkpt>
      <trkpt lat="43.20325" lon="6.00516">
        <ele>190</ele>
        <time>2022-08-12T17:32:45Z</time>
      </trkpt>
      <trkpt lat="43.20279" lon="6.00469">
        <ele>193</ele>
        <time>2022-08-12T17:32:55Z</time>
      </trkpt>
      <trkpt lat="43.20269" lon="6.00442">
        <ele>194</ele>
        <time>2022-08-12T17:32:59Z</time>
      </trkpt>
      <trkpt lat="43.20275" lon="6.00406">
        <ele>195</ele>
        <time>2022-08-12T17:33:04Z</time>
      </trkpt>
      <trkpt lat="43.20279" lon="6.00393">
        <ele>196</ele>
        <time>2022-08-12T17:33:06Z</time>
      </trkpt>
      <trkpt lat="43.20306" lon="6.00315">
        <ele>201</ele>
        <time>2022-08-12T17:33:17Z</time>
      </trkpt>
      <trkpt lat="43.20336" lon="6.00212">
        <ele>206</ele>
        <time>2022-08-12T17:33:31Z</time>
      </trkpt>
      <trkpt lat="43.20339" lon="6.00171">
        <ele>208</ele>
        <time>2022-08-12T17:33:37Z</time>
      </trkpt>
      <trkpt lat="43.20318" lon="6.00116">
        <ele>210</ele>
        <time>2022-08-12T17:33:45Z</time>
      </trkpt>
      <trkpt lat="43.2031" lon="6.0008">
        <ele>210</ele>
        <time>2022-08-12T17:33:50Z</time>
      </trkpt>
      <trkpt lat="43.20317" lon="6.00025">
        <ele>212</ele>
        <time>2022-08-12T17:33:57Z</time>
      </trkpt>
      <trkpt lat="43.20348" lon="5.99954">
        <ele>215</ele>
        <time>2022-08-12T17:34:08Z</time>
      </trkpt>
      <trkpt lat="43.20356" lon="5.99907">
        <ele>216</ele>
        <time>2022-08-12T17:34:14Z</time>
      </trkpt>
      <trkpt lat="43.20373" lon="5.99836">
        <ele>219</ele>
        <time>2022-08-12T17:34:23Z</time>
      </trkpt>
      <trkpt lat="43.20383" lon="5.99831">
        <ele>220</ele>
        <time>2022-08-12T17:34:25Z</time>
      </trkpt>
      <trkpt lat="43.20396" lon="5.99812">
        <ele>221</ele>
        <time>2022-08-12T17:34:29Z</time>
      </trkpt>
      <trkpt lat="43.20402" lon="5.99784">
        <ele>222</ele>
        <time>2022-08-12T17:34:33Z</time>
      </trkpt>
      <trkpt lat="43.20413" lon="5.99743">
        <ele>224</ele>
        <time>2022-08-12T17:34:38Z</time>
      </trkpt>
      <trkpt lat="43.20445" lon="5.99689">
        <ele>226</ele>
        <time>2022-08-12T17:34:47Z</time>
      </trkpt>
      <trkpt lat="43.20507" lon="5.99631">
        <ele>234</ele>
        <time>2022-08-12T17:35:01Z</time>
      </trkpt>
      <trkpt lat="43.20606" lon="5.99511">
        <ele>243</ele>
        <time>2022-08-12T17:35:24Z</time>
      </trkpt>
      <trkpt lat="43.20665" lon="5.99441">
        <ele>248</ele>
        <time>2022-08-12T17:35:38Z</time>
      </trkpt>
      <trkpt lat="43.20684" lon="5.99423">
        <ele>250</ele>
        <time>2022-08-12T17:35:42Z</time>
      </trkpt>
      <trkpt lat="43.20755" lon="5.99377">
        <ele>260</ele>
        <time>2022-08-12T17:35:56Z</time>
      </trkpt>
      <trkpt lat="43.20763" lon="5.99365">
        <ele>262</ele>
        <time>2022-08-12T17:35:58Z</time>
      </trkpt>
      <trkpt lat="43.20762" lon="5.9935">
        <ele>261</ele>
        <time>2022-08-12T17:36:00Z</time>
      </trkpt>
      <trkpt lat="43.20753" lon="5.99331">
        <ele>259</ele>
        <time>2022-08-12T17:36:03Z</time>
      </trkpt>
      <trkpt lat="43.20752" lon="5.99315">
        <ele>259</ele>
        <time>2022-08-12T17:36:05Z</time>
      </trkpt>
      <trkpt lat="43.2076" lon="5.99288">
        <ele>261</ele>
        <time>2022-08-12T17:36:09Z</time>
      </trkpt>
      <trkpt lat="43.20782" lon="5.99226">
        <ele>268</ele>
        <time>2022-08-12T17:36:18Z</time>
      </trkpt>
      <trkpt lat="43.20792" lon="5.9918">
        <ele>271</ele>
        <time>2022-08-12T17:36:24Z</time>
      </trkpt>
      <trkpt lat="43.20798" lon="5.99052">
        <ele>281</ele>
        <time>2022-08-12T17:36:41Z</time>
      </trkpt>
      <trkpt lat="43.20797" lon="5.99029">
        <ele>284</ele>
        <time>2022-08-12T17:36:44Z</time>
      </trkpt>
      <trkpt lat="43.20794" lon="5.99008">
        <ele>286</ele>
        <time>2022-08-12T17:36:46Z</time>
      </trkpt>
      <trkpt lat="43.20784" lon="5.9899">
        <ele>287</ele>
        <time>2022-08-12T17:36:49Z</time>
      </trkpt>
      <trkpt lat="43.2077" lon="5.98978">
        <ele>288</ele>
        <time>2022-08-12T17:36:52Z</time>
      </trkpt>
      <trkpt lat="43.20615" lon="5.98916">
        <ele>292</ele>
        <time>2022-08-12T17:37:21Z</time>
      </trkpt>
      <trkpt lat="43.20478" lon="5.98866">
        <ele>310</ele>
        <time>2022-08-12T17:37:46Z</time>
      </trkpt>
      <trkpt lat="43.2044" lon="5.98866">
        <ele>310</ele>
        <time>2022-08-12T17:37:53Z</time>
      </trkpt>
      <trkpt lat="43.2035" lon="5.98881">
        <ele>309</ele>
        <time>2022-08-12T17:38:09Z</time>
      </trkpt>
      <trkpt lat="43.20292" lon="5.98885">
        <ele>312</ele>
        <time>2022-08-12T17:38:19Z</time>
      </trkpt>
      <trkpt lat="43.20284" lon="5.98878">
        <ele>314</ele>
        <time>2022-08-12T17:38:21Z</time>
      </trkpt>
      <trkpt lat="43.20277" lon="5.98869">
        <ele>316</ele>
        <time>2022-08-12T17:38:23Z</time>
      </trkpt>
      <trkpt lat="43.20276" lon="5.98854">
        <ele>319</ele>
        <time>2022-08-12T17:38:25Z</time>
      </trkpt>
      <trkpt lat="43.203" lon="5.98781">
        <ele>324</ele>
        <time>2022-08-12T17:38:35Z</time>
      </trkpt>
      <trkpt lat="43.20312" lon="5.98754">
        <ele>325</ele>
        <time>2022-08-12T17:38:39Z</time>
      </trkpt>
      <trkpt lat="43.20389" lon="5.98638">
        <ele>323</ele>
        <time>2022-08-12T17:39:00Z</time>
      </trkpt>
      <trkpt lat="43.2042" lon="5.98578">
        <ele>324</ele>
        <time>2022-08-12T17:39:09Z</time>
      </trkpt>
      <trkpt lat="43.20423" lon="5.98564">
        <ele>324</ele>
        <time>2022-08-12T17:39:11Z</time>
      </trkpt>
      <trkpt lat="43.20417" lon="5.98532">
        <ele>325</ele>
        <time>2022-08-12T17:39:15Z</time>
      </trkpt>
      <trkpt lat="43.20376" lon="5.98421">
        <ele>327</ele>
        <time>2022-08-12T17:39:32Z</time>
      </trkpt>
      <trkpt lat="43.20361" lon="5.98375">
        <ele>331</ele>
        <time>2022-08-12T17:39:38Z</time>
      </trkpt>
      <trkpt lat="43.20367" lon="5.98361">
        <ele>331</ele>
        <time>2022-08-12T17:39:40Z</time>
      </trkpt>
      <trkpt lat="43.20398" lon="5.98332">
        <ele>331</ele>
        <time>2022-08-12T17:39:47Z</time>
      </trkpt>
      <trkpt lat="43.20567" lon="5.98203">
        <ele>341</ele>
        <time>2022-08-12T17:40:21Z</time>
      </trkpt>
      <trkpt lat="43.20578" lon="5.98174">
        <ele>343</ele>
        <time>2022-08-12T17:40:26Z</time>
      </trkpt>
      <trkpt lat="43.20566" lon="5.98128">
        <ele>347</ele>
        <time>2022-08-12T17:40:32Z</time>
      </trkpt>
      <trkpt lat="43.20561" lon="5.98105">
        <ele>350</ele>
        <time>2022-08-12T17:40:35Z</time>
      </trkpt>
      <trkpt lat="43.20567" lon="5.98077">
        <ele>352</ele>
        <time>2022-08-12T17:40:39Z</time>
      </trkpt>
      <trkpt lat="43.20584" lon="5.98056">
        <ele>352</ele>
        <time>2022-08-12T17:40:43Z</time>
      </trkpt>
      <trkpt lat="43.20676" lon="5.98">
        <ele>352</ele>
        <time>2022-08-12T17:41:01Z</time>
      </trkpt>
      <trkpt lat="43.20807" lon="5.97894">
        <ele>368</ele>
        <time>2022-08-12T17:41:28Z</time>
      </trkpt>
      <trkpt lat="43.20859" lon="5.97901">
        <ele>368</ele>
        <time>2022-08-12T17:41:37Z</time>
      </trkpt>
      <trkpt lat="43.2089" lon="5.97929">
        <ele>366</ele>
        <time>2022-08-12T17:41:44Z</time>
      </trkpt>
      <trkpt lat="43.20924" lon="5.9797">
        <ele>368</ele>
        <time>2022-08-12T17:41:52Z</time>
      </trkpt>
      <trkpt lat="43.20952" lon="5.98037">
        <ele>374</ele>
        <time>2022-08-12T17:42:02Z</time>
      </trkpt>
      <trkpt lat="43.20961" lon="5.98088">
        <ele>375</ele>
        <time>2022-08-12T17:42:09Z</time>
      </trkpt>
      <trkpt lat="43.20977" lon="5.98137">
        <ele>377</ele>
        <time>2022-08-12T17:42:16Z</time>
      </trkpt>
      <trkpt lat="43.20991" lon="5.98159">
        <ele>380</ele>
        <time>2022-08-12T17:42:19Z</time>
      </trkpt>
      <trkpt lat="43.21016" lon="5.98167">
        <ele>385</ele>
        <time>2022-08-12T17:42:24Z</time>
      </trkpt>
      <trkpt lat="43.21032" lon="5.98167">
        <ele>388</ele>
        <time>2022-08-12T17:42:27Z</time>
      </trkpt>
      <trkpt lat="43.21038" lon="5.98189">
        <ele>389</ele>
        <time>2022-08-12T17:42:30Z</time>
      </trkpt>
      <trkpt lat="43.21034" lon="5.98234">
        <ele>388</ele>
        <time>2022-08-12T17:42:36Z</time>
      </trkpt>
      <trkpt lat="43.21058" lon="5.98272">
        <ele>391</ele>
        <time>2022-08-12T17:42:42Z</time>
      </trkpt>
      <trkpt lat="43.21118" lon="5.98346">
        <ele>393</ele>
        <time>2022-08-12T17:42:57Z</time>
      </trkpt>
      <trkpt lat="43.21166" lon="5.98371">
        <ele>397</ele>
        <time>2022-08-12T17:43:06Z</time>
      </trkpt>
      <trkpt lat="43.21199" lon="5.98375">
        <ele>398</ele>
        <time>2022-08-12T17:43:12Z</time>
      </trkpt>
      <trkpt lat="43.21222" lon="5.98381">
        <ele>399</ele>
        <time>2022-08-12T17:43:16Z</time>
      </trkpt>
      <trkpt lat="43.21279" lon="5.98366">
        <ele>403</ele>
        <time>2022-08-12T17:43:26Z</time>
      </trkpt>
      <trkpt lat="43.21342" lon="5.98364">
        <ele>403</ele>
        <time>2022-08-12T17:43:37Z</time>
      </trkpt>
      <trkpt lat="43.21379" lon="5.98356">
        <ele>404</ele>
        <time>2022-08-12T17:43:44Z</time>
      </trkpt>
      <trkpt lat="43.21472" lon="5.98328">
        <ele>406</ele>
        <time>2022-08-12T17:44:01Z</time>
      </trkpt>
      <trkpt lat="43.21502" lon="5.98316">
        <ele>407</ele>
        <time>2022-08-12T17:44:06Z</time>
      </trkpt>
      <trkpt lat="43.21523" lon="5.98297">
        <ele>409</ele>
        <time>2022-08-12T17:44:11Z</time>
      </trkpt>
      <trkpt lat="43.21591" lon="5.98231">
        <ele>412</ele>
        <time>2022-08-12T17:44:26Z</time>
      </trkpt>
      <trkpt lat="43.21628" lon="5.98156">
        <ele>421</ele>
        <time>2022-08-12T17:44:37Z</time>
      </trkpt>
      <trkpt lat="43.21642" lon="5.98134">
        <ele>425</ele>
        <time>2022-08-12T17:44:41Z</time>
      </trkpt>
      <trkpt lat="43.2167" lon="5.98125">
        <ele>426</ele>
        <time>2022-08-12T17:44:46Z</time>
      </trkpt>
      <trkpt lat="43.21729" lon="5.98113">
        <ele>425</ele>
        <time>2022-08-12T17:44:57Z</time>
      </trkpt>
      <trkpt lat="43.21746" lon="5.981">
        <ele>426</ele>
        <time>2022-08-12T17:45:00Z</time>
      </trkpt>
      <trkpt lat="43.21782" lon="5.9807">
        <ele>428</ele>
        <time>2022-08-12T17:45:08Z</time>
      </trkpt>
      <trkpt lat="43.21795" lon="5.98051">
        <ele>429</ele>
        <time>2022-08-12T17:45:11Z</time>
      </trkpt>
      <trkpt lat="43.21803" lon="5.98028">
        <ele>431</ele>
        <time>2022-08-12T17:45:15Z</time>
      </trkpt>
      <trkpt lat="43.21805" lon="5.98014">
        <ele>432</ele>
        <time>2022-08-12T17:45:16Z</time>
      </trkpt>
      <trkpt lat="43.21803" lon="5.98003">
        <ele>433</ele>
        <time>2022-08-12T17:45:18Z</time>
      </trkpt>
      <trkpt lat="43.21779" lon="5.97973">
        <ele>438</ele>
        <time>2022-08-12T17:45:24Z</time>
      </trkpt>
      <trkpt lat="43.21766" lon="5.97946">
        <ele>440</ele>
        <time>2022-08-12T17:45:28Z</time>
      </trkpt>
      <trkpt lat="43.21749" lon="5.97902">
        <ele>442</ele>
        <time>2022-08-12T17:45:34Z</time>
      </trkpt>
      <trkpt lat="43.21725" lon="5.97886">
        <ele>445</ele>
        <time>2022-08-12T17:45:39Z</time>
      </trkpt>
      <trkpt lat="43.21711" lon="5.97874">
        <ele>446</ele>
        <time>2022-08-12T17:45:42Z</time>
      </trkpt>
      <trkpt lat="43.21647" lon="5.97804">
        <ele>451</ele>
        <time>2022-08-12T17:45:57Z</time>
      </trkpt>
      <trkpt lat="43.21605" lon="5.97764">
        <ele>451</ele>
        <time>2022-08-12T17:46:06Z</time>
      </trkpt>
      <trkpt lat="43.21604" lon="5.97752">
        <ele>450</ele>
        <time>2022-08-12T17:46:07Z</time>
      </trkpt>
      <trkpt lat="43.21612" lon="5.97739">
        <ele>452</ele>
        <time>2022-08-12T17:46:09Z</time>
      </trkpt>
      <trkpt lat="43.21625" lon="5.97738">
        <ele>453</ele>
        <time>2022-08-12T17:46:12Z</time>
      </trkpt>
      <trkpt lat="43.2164" lon="5.97754">
        <ele>452</ele>
        <time>2022-08-12T17:46:15Z</time>
      </trkpt>
      <trkpt lat="43.2166" lon="5.97766">
        <ele>453</ele>
        <time>2022-08-12T17:46:19Z</time>
      </trkpt>
      <trkpt lat="43.21686" lon="5.97777">
        <ele>454</ele>
        <time>2022-08-12T17:46:24Z</time>
      </trkpt>
      <trkpt lat="43.21784" lon="5.9781">
        <ele>455</ele>
        <time>2022-08-12T17:46:42Z</time>
      </trkpt>
      <trkpt lat="43.21794" lon="5.97819">
        <ele>454</ele>
        <time>2022-08-12T17:46:44Z</time>
      </trkpt>
      <trkpt lat="43.21807" lon="5.97836">
        <ele>451</ele>
        <time>2022-08-12T17:46:47Z</time>
      </trkpt>
      <trkpt lat="43.21815" lon="5.97843">
        <ele>451</ele>
        <time>2022-08-12T17:46:49Z</time>
      </trkpt>
      <trkpt lat="43.2184" lon="5.97847">
        <ele>452</ele>
        <time>2022-08-12T17:46:53Z</time>
      </trkpt>
      <trkpt lat="43.21856" lon="5.97838">
        <ele>455</ele>
        <time>2022-08-12T17:46:56Z</time>
      </trkpt>
      <trkpt lat="43.21863" lon="5.97823">
        <ele>458</ele>
        <time>2022-08-12T17:46:59Z</time>
      </trkpt>
      <trkpt lat="43.21867" lon="5.97808">
        <ele>460</ele>
        <time>2022-08-12T17:47:01Z</time>
      </trkpt>
      <trkpt lat="43.21865" lon="5.97799">
        <ele>461</ele>
        <time>2022-08-12T17:47:02Z</time>
      </trkpt>
      <trkpt lat="43.21854" lon="5.97791">
        <ele>461</ele>
        <time>2022-08-12T17:47:04Z</time>
      </trkpt>
      <trkpt lat="43.21732" lon="5.97722">
        <ele>468</ele>
        <time>2022-08-12T17:47:28Z</time>
      </trkpt>
      <trkpt lat="43.21714" lon="5.97704">
        <ele>469</ele>
        <time>2022-08-12T17:47:32Z</time>
      </trkpt>
      <trkpt lat="43.21702" lon="5.97687">
        <ele>470</ele>
        <time>2022-08-12T17:47:35Z</time>
      </trkpt>
      <trkpt lat="43.21685" lon="5.97601">
        <ele>481</ele>
        <time>2022-08-12T17:47:46Z</time>
      </trkpt>
      <trkpt lat="43.21679" lon="5.97585">
        <ele>482</ele>
        <time>2022-08-12T17:47:49Z</time>
      </trkpt>
      <trkpt lat="43.21664" lon="5.97573">
        <ele>483</ele>
        <time>2022-08-12T17:47:52Z</time>
      </trkpt>
      <trkpt lat="43.2161" lon="5.97549">
        <ele>481</ele>
        <time>2022-08-12T17:48:02Z</time>
      </trkpt>
      <trkpt lat="43.21569" lon="5.97528">
        <ele>483</ele>
        <time>2022-08-12T17:48:10Z</time>
      </trkpt>
      <trkpt lat="43.2154" lon="5.97505">
        <ele>486</ele>
        <time>2022-08-12T17:48:16Z</time>
      </trkpt>
      <trkpt lat="43.21531" lon="5.97501">
        <ele>487</ele>
        <time>2022-08-12T17:48:17Z</time>
      </trkpt>
      <trkpt lat="43.21522" lon="5.97499">
        <ele>486</ele>
        <time>2022-08-12T17:48:19Z</time>
      </trkpt>
      <trkpt lat="43.21488" lon="5.97488">
        <ele>488</ele>
        <time>2022-08-12T17:48:25Z</time>
      </trkpt>
      <trkpt lat="43.21426" lon="5.9745">
        <ele>497</ele>
        <time>2022-08-12T17:48:37Z</time>
      </trkpt>
      <trkpt lat="43.21419" lon="5.97438">
        <ele>499</ele>
        <time>2022-08-12T17:48:39Z</time>
      </trkpt>
      <trkpt lat="43.21411" lon="5.97413">
        <ele>504</ele>
        <time>2022-08-12T17:48:43Z</time>
      </trkpt>
      <trkpt lat="43.21397" lon="5.9739">
        <ele>508</ele>
        <time>2022-08-12T17:48:47Z</time>
      </trkpt>
      <trkpt lat="43.21364" lon="5.97361">
        <ele>508</ele>
        <time>2022-08-12T17:48:54Z</time>
      </trkpt>
      <trkpt lat="43.21324" lon="5.97318">
        <ele>504</ele>
        <time>2022-08-12T17:49:03Z</time>
      </trkpt>
      <trkpt lat="43.21264" lon="5.97261">
        <ele>498</ele>
        <time>2022-08-12T17:49:16Z</time>
      </trkpt>
      <trkpt lat="43.21218" lon="5.97233">
        <ele>493</ele>
        <time>2022-08-12T17:49:25Z</time>
      </trkpt>
      <trkpt lat="43.21159" lon="5.97188">
        <ele>485</ele>
        <time>2022-08-12T17:49:37Z</time>
      </trkpt>
      <trkpt lat="43.21105" lon="5.9718">
        <ele>481</ele>
        <time>2022-08-12T17:49:46Z</time>
      </trkpt>
      <trkpt lat="43.21075" lon="5.97172">
        <ele>478</ele>
        <time>2022-08-12T17:49:52Z</time>
      </trkpt>
      <trkpt lat="43.2105" lon="5.97157">
        <ele>477</ele>
        <time>2022-08-12T17:49:57Z</time>
      </trkpt>
      <trkpt lat="43.21043" lon="5.97148">
        <ele>477</ele>
        <time>2022-08-12T17:49:58Z</time>
      </trkpt>
      <trkpt lat="43.21024" lon="5.97115">
        <ele>479</ele>
        <time>2022-08-12T17:50:04Z</time>
      </trkpt>
      <trkpt lat="43.20994" lon="5.97043">
        <ele>487</ele>
        <time>2022-08-12T17:50:14Z</time>
      </trkpt>
      <trkpt lat="43.20983" lon="5.97005">
        <ele>492</ele>
        <time>2022-08-12T17:50:20Z</time>
      </trkpt>
      <trkpt lat="43.20979" lon="5.96986">
        <ele>495</ele>
        <time>2022-08-12T17:50:22Z</time>
      </trkpt>
      <trkpt lat="43.2098" lon="5.96971">
        <ele>497</ele>
        <time>2022-08-12T17:50:24Z</time>
      </trkpt>
      <trkpt lat="43.20986" lon="5.96959">
        <ele>498</ele>
        <time>2022-08-12T17:50:26Z</time>
      </trkpt>
      <trkpt lat="43.21011" lon="5.96936">
        <ele>497</ele>
        <time>2022-08-12T17:50:31Z</time>
      </trkpt>
      <trkpt lat="43.21034" lon="5.96909">
        <ele>498</ele>
        <time>2022-08-12T17:50:37Z</time>
      </trkpt>
      <trkpt lat="43.21054" lon="5.9688">
        <ele>500</ele>
        <time>2022-08-12T17:50:42Z</time>
      </trkpt>
      <trkpt lat="43.21075" lon="5.96839">
        <ele>503</ele>
        <time>2022-08-12T17:50:49Z</time>
      </trkpt>
      <trkpt lat="43.21089" lon="5.96802">
        <ele>507</ele>
        <time>2022-08-12T17:50:54Z</time>
      </trkpt>
      <trkpt lat="43.21098" lon="5.96762">
        <ele>513</ele>
        <time>2022-08-12T17:50:59Z</time>
      </trkpt>
      <trkpt lat="43.21103" lon="5.96724">
        <ele>519</ele>
        <time>2022-08-12T17:51:04Z</time>
      </trkpt>
      <trkpt lat="43.21106" lon="5.96658">
        <ele>525</ele>
        <time>2022-08-12T17:51:13Z</time>
      </trkpt>
      <trkpt lat="43.21109" lon="5.96631">
        <ele>525</ele>
        <time>2022-08-12T17:51:17Z</time>
      </trkpt>
      <trkpt lat="43.21129" lon="5.96578">
        <ele>524</ele>
        <time>2022-08-12T17:51:24Z</time>
      </trkpt>
      <trkpt lat="43.21177" lon="5.96497">
        <ele>526</ele>
        <time>2022-08-12T17:51:38Z</time>
      </trkpt>
      <trkpt lat="43.21183" lon="5.96478">
        <ele>527</ele>
        <time>2022-08-12T17:51:40Z</time>
      </trkpt>
      <trkpt lat="43.21186" lon="5.96463">
        <ele>528</ele>
        <time>2022-08-12T17:51:43Z</time>
      </trkpt>
      <trkpt lat="43.21182" lon="5.9645">
        <ele>528</ele>
        <time>2022-08-12T17:51:44Z</time>
      </trkpt>
      <trkpt lat="43.21163" lon="5.96428">
        <ele>528</ele>
        <time>2022-08-12T17:51:49Z</time>
      </trkpt>
      <trkpt lat="43.21143" lon="5.96415">
        <ele>528</ele>
        <time>2022-08-12T17:51:53Z</time>
      </trkpt>
      <trkpt lat="43.21041" lon="5.964">
        <ele>529</ele>
        <time>2022-08-12T17:52:11Z</time>
      </trkpt>
      <trkpt lat="43.21009" lon="5.96385">
        <ele>530</ele>
        <time>2022-08-12T17:52:17Z</time>
      </trkpt>
      <trkpt lat="43.20989" lon="5.96369">
        <ele>532</ele>
        <time>2022-08-12T17:52:21Z</time>
      </trkpt>
      <trkpt lat="43.20961" lon="5.96289">
        <ele>537</ele>
        <time>2022-08-12T17:52:33Z</time>
      </trkpt>
      <trkpt lat="43.20963" lon="5.96261">
        <ele>538</ele>
        <time>2022-08-12T17:52:36Z</time>
      </trkpt>
      <trkpt lat="43.20969" lon="5.96234">
        <ele>541</ele>
        <time>2022-08-12T17:52:40Z</time>
      </trkpt>
      <trkpt lat="43.20982" lon="5.96205">
        <ele>544</ele>
        <time>2022-08-12T17:52:44Z</time>
      </trkpt>
      <trkpt lat="43.21006" lon="5.96168">
        <ele>547</ele>
        <time>2022-08-12T17:52:51Z</time>
      </trkpt>
      <trkpt lat="43.21016" lon="5.9616">
        <ele>550</ele>
        <time>2022-08-12T17:52:53Z</time>
      </trkpt>
      <trkpt lat="43.21041" lon="5.9616">
        <ele>551</ele>
        <time>2022-08-12T17:52:57Z</time>
      </trkpt>
      <trkpt lat="43.21079" lon="5.96165">
        <ele>552</ele>
        <time>2022-08-12T17:53:04Z</time>
      </trkpt>
      <trkpt lat="43.21103" lon="5.96173">
        <ele>553</ele>
        <time>2022-08-12T17:53:08Z</time>
      </trkpt>
      <trkpt lat="43.21124" lon="5.96186">
        <ele>552</ele>
        <time>2022-08-12T17:53:13Z</time>
      </trkpt>
      <trkpt lat="43.21154" lon="5.96213">
        <ele>550</ele>
        <time>2022-08-12T17:53:19Z</time>
      </trkpt>
      <trkpt lat="43.21175" lon="5.96217">
        <ele>550</ele>
        <time>2022-08-12T17:53:23Z</time>
      </trkpt>
      <trkpt lat="43.21186" lon="5.96216">
        <ele>549</ele>
        <time>2022-08-12T17:53:25Z</time>
      </trkpt>
      <trkpt lat="43.21198" lon="5.96208">
        <ele>550</ele>
        <time>2022-08-12T17:53:27Z</time>
      </trkpt>
      <trkpt lat="43.21216" lon="5.96179">
        <ele>554</ele>
        <time>2022-08-12T17:53:32Z</time>
      </trkpt>
      <trkpt lat="43.21248" lon="5.96077">
        <ele>561</ele>
        <time>2022-08-12T17:53:46Z</time>
      </trkpt>
      <trkpt lat="43.2126" lon="5.96054">
        <ele>562</ele>
        <time>2022-08-12T17:53:50Z</time>
      </trkpt>
      <trkpt lat="43.21263" lon="5.96035">
        <ele>564</ele>
        <time>2022-08-12T17:53:53Z</time>
      </trkpt>
      <trkpt lat="43.21253" lon="5.96005">
        <ele>566</ele>
        <time>2022-08-12T17:53:57Z</time>
      </trkpt>
      <trkpt lat="43.21254" lon="5.95992">
        <ele>567</ele>
        <time>2022-08-12T17:53:59Z</time>
      </trkpt>
      <trkpt lat="43.21268" lon="5.95973">
        <ele>569</ele>
        <time>2022-08-12T17:54:02Z</time>
      </trkpt>
      <trkpt lat="43.21285" lon="5.95942">
        <ele>572</ele>
        <time>2022-08-12T17:54:07Z</time>
      </trkpt>
      <trkpt lat="43.21293" lon="5.95896">
        <ele>576</ele>
        <time>2022-08-12T17:54:13Z</time>
      </trkpt>
      <trkpt lat="43.21321" lon="5.95792">
        <ele>583</ele>
        <time>2022-08-12T17:54:28Z</time>
      </trkpt>
      <trkpt lat="43.21337" lon="5.95774">
        <ele>584</ele>
        <time>2022-08-12T17:54:31Z</time>
      </trkpt>
      <trkpt lat="43.21389" lon="5.95699">
        <ele>588</ele>
        <time>2022-08-12T17:54:45Z</time>
      </trkpt>
      <trkpt lat="43.21396" lon="5.95679">
        <ele>589</ele>
        <time>2022-08-12T17:54:48Z</time>
      </trkpt>
      <trkpt lat="43.21395" lon="5.95674">
        <ele>590</ele>
        <time>2022-08-12T17:54:48Z</time>
      </trkpt>
      <trkpt lat="43.21386" lon="5.95667">
        <ele>590</ele>
        <time>2022-08-12T17:54:50Z</time>
      </trkpt>
      <trkpt lat="43.2115" lon="5.95717">
        <ele>604</ele>
        <time>2022-08-12T17:55:33Z</time>
      </trkpt>
      <trkpt lat="43.21141" lon="5.9571">
        <ele>605</ele>
        <time>2022-08-12T17:55:34Z</time>
      </trkpt>
      <trkpt lat="43.21141" lon="5.95697">
        <ele>607</ele>
        <time>2022-08-12T17:55:36Z</time>
      </trkpt>
      <trkpt lat="43.21148" lon="5.95689">
        <ele>608</ele>
        <time>2022-08-12T17:55:38Z</time>
      </trkpt>
      <trkpt lat="43.2117" lon="5.95678">
        <ele>608</ele>
        <time>2022-08-12T17:55:42Z</time>
      </trkpt>
      <trkpt lat="43.21186" lon="5.95661">
        <ele>609</ele>
        <time>2022-08-12T17:55:45Z</time>
      </trkpt>
      <trkpt lat="43.21207" lon="5.95625">
        <ele>613</ele>
        <time>2022-08-12T17:55:51Z</time>
      </trkpt>
      <trkpt lat="43.21232" lon="5.95593">
        <ele>616</ele>
        <time>2022-08-12T17:55:58Z</time>
      </trkpt>
      <trkpt lat="43.2142" lon="5.95417">
        <ele>634</ele>
        <time>2022-08-12T17:56:38Z</time>
      </trkpt>
      <trkpt lat="43.21441" lon="5.95381">
        <ele>636</ele>
        <time>2022-08-12T17:56:44Z</time>
      </trkpt>
      <trkpt lat="43.21468" lon="5.95305">
        <ele>640</ele>
        <time>2022-08-12T17:56:55Z</time>
      </trkpt>
      <trkpt lat="43.21471" lon="5.9528">
        <ele>642</ele>
        <time>2022-08-12T17:56:58Z</time>
      </trkpt>
      <trkpt lat="43.21467" lon="5.95236">
        <ele>644</ele>
        <time>2022-08-12T17:57:04Z</time>
      </trkpt>
      <trkpt lat="43.21432" lon="5.95077">
        <ele>649</ele>
        <time>2022-08-12T17:57:26Z</time>
      </trkpt>
      <trkpt lat="43.21429" lon="5.95015">
        <ele>650</ele>
        <time>2022-08-12T17:57:34Z</time>
      </trkpt>
      <trkpt lat="43.21434" lon="5.94936">
        <ele>650</ele>
        <time>2022-08-12T17:57:44Z</time>
      </trkpt>
      <trkpt lat="43.21442" lon="5.94911">
        <ele>650</ele>
        <time>2022-08-12T17:57:47Z</time>
      </trkpt>
      <trkpt lat="43.21518" lon="5.94734">
        <ele>654</ele>
        <time>2022-08-12T17:58:14Z</time>
      </trkpt>
      <trkpt lat="43.2153" lon="5.94712">
        <ele>655</ele>
        <time>2022-08-12T17:58:18Z</time>
      </trkpt>
      <trkpt lat="43.21551" lon="5.94683">
        <ele>655</ele>
        <time>2022-08-12T17:58:23Z</time>
      </trkpt>
      <trkpt lat="43.21629" lon="5.94611">
        <ele>657</ele>
        <time>2022-08-12T17:58:40Z</time>
      </trkpt>
      <trkpt lat="43.21635" lon="5.94604">
        <ele>657</ele>
        <time>2022-08-12T17:58:41Z</time>
      </trkpt>
      <trkpt lat="43.21644" lon="5.94585">
        <ele>657</ele>
        <time>2022-08-12T17:58:44Z</time>
      </trkpt>
      <trkpt lat="43.21646" lon="5.94576">
        <ele>658</ele>
        <time>2022-08-12T17:58:45Z</time>
      </trkpt>
      <trkpt lat="43.21647" lon="5.94564">
        <ele>659</ele>
        <time>2022-08-12T17:58:47Z</time>
      </trkpt>
      <trkpt lat="43.21642" lon="5.94511">
        <ele>663</ele>
        <time>2022-08-12T17:58:54Z</time>
      </trkpt>
      <trkpt lat="43.21645" lon="5.94493">
        <ele>664</ele>
        <time>2022-08-12T17:58:56Z</time>
      </trkpt>
      <trkpt lat="43.2166" lon="5.94456">
        <ele>665</ele>
        <time>2022-08-12T17:59:02Z</time>
      </trkpt>
      <trkpt lat="43.21743" lon="5.94291">
        <ele>665</ele>
        <time>2022-08-12T17:59:28Z</time>
      </trkpt>
      <trkpt lat="43.21768" lon="5.94233">
        <ele>664</ele>
        <time>2022-08-12T17:59:36Z</time>
      </trkpt>
      <trkpt lat="43.21776" lon="5.94209">
        <ele>663</ele>
        <time>2022-08-12T17:59:40Z</time>
      </trkpt>
      <trkpt lat="43.21778" lon="5.94194">
        <ele>662</ele>
        <time>2022-08-12T17:59:42Z</time>
      </trkpt>
      <trkpt lat="43.21769" lon="5.9412">
        <ele>660</ele>
        <time>2022-08-12T17:59:51Z</time>
      </trkpt>
      <trkpt lat="43.21771" lon="5.94101">
        <ele>659</ele>
        <time>2022-08-12T17:59:54Z</time>
      </trkpt>
      <trkpt lat="43.21781" lon="5.94076">
        <ele>658</ele>
        <time>2022-08-12T17:59:58Z</time>
      </trkpt>
      <trkpt lat="43.21819" lon="5.94012">
        <ele>657</ele>
        <time>2022-08-12T18:00:08Z</time>
      </trkpt>
      <trkpt lat="43.21851" lon="5.93971">
        <ele>657</ele>
        <time>2022-08-12T18:00:16Z</time>
      </trkpt>
      <trkpt lat="43.21962" lon="5.93846">
        <ele>658</ele>
        <time>2022-08-12T18:00:42Z</time>
      </trkpt>
      <trkpt lat="43.22007" lon="5.93799">
        <ele>659</ele>
        <time>2022-08-12T18:00:52Z</time>
      </trkpt>
      <trkpt lat="43.22015" lon="5.93789">
        <ele>659</ele>
        <time>2022-08-12T18:00:54Z</time>
      </trkpt>
      <trkpt lat="43.22026" lon="5.93766">
        <ele>658</ele>
        <time>2022-08-12T18:00:57Z</time>
      </trkpt>
      <trkpt lat="43.2203" lon="5.93743">
        <ele>658</ele>
        <time>2022-08-12T18:01:00Z</time>
      </trkpt>
      <trkpt lat="43.2203" lon="5.93728">
        <ele>657</ele>
        <time>2022-08-12T18:01:02Z</time>
      </trkpt>
      <trkpt lat="43.22023" lon="5.93653">
        <ele>654</ele>
        <time>2022-08-12T18:01:12Z</time>
      </trkpt>
      <trkpt lat="43.22023" lon="5.93637">
        <ele>654</ele>
        <time>2022-08-12T18:01:14Z</time>
      </trkpt>
      <trkpt lat="43.22026" lon="5.93626">
        <ele>653</ele>
        <time>2022-08-12T18:01:16Z</time>
      </trkpt>
      <trkpt lat="43.22029" lon="5.93623">
        <ele>652</ele>
        <time>2022-08-12T18:01:16Z</time>
      </trkpt>
      <trkpt lat="43.22033" lon="5.93622">
        <ele>652</ele>
        <time>2022-08-12T18:01:17Z</time>
      </trkpt>
      <trkpt lat="43.22041" lon="5.93625">
        <ele>651</ele>
        <time>2022-08-12T18:01:19Z</time>
      </trkpt>
      <trkpt lat="43.22086" lon="5.93648">
        <ele>649</ele>
        <time>2022-08-12T18:01:27Z</time>
      </trkpt>
      <trkpt lat="43.22095" lon="5.93646">
        <ele>648</ele>
        <time>2022-08-12T18:01:29Z</time>
      </trkpt>
      <trkpt lat="43.22104" lon="5.93641">
        <ele>647</ele>
        <time>2022-08-12T18:01:30Z</time>
      </trkpt>
      <trkpt lat="43.2211" lon="5.93633">
        <ele>646</ele>
        <time>2022-08-12T18:01:32Z</time>
      </trkpt>
      <trkpt lat="43.22199" lon="5.93467">
        <ele>642</ele>
        <time>2022-08-12T18:01:59Z</time>
      </trkpt>
      <trkpt lat="43.22288" lon="5.93299">
        <ele>648</ele>
        <time>2022-08-12T18:02:26Z</time>
      </trkpt>
      <trkpt lat="43.22299" lon="5.93287">
        <ele>650</ele>
        <time>2022-08-12T18:02:28Z</time>
      </trkpt>
      <trkpt lat="43.22311" lon="5.93282">
        <ele>651</ele>
        <time>2022-08-12T18:02:30Z</time>
      </trkpt>
      <trkpt lat="43.22416" lon="5.93266">
        <ele>665</ele>
        <time>2022-08-12T18:02:49Z</time>
      </trkpt>
      <trkpt lat="43.2245" lon="5.93257">
        <ele>667</ele>
        <time>2022-08-12T18:02:55Z</time>
      </trkpt>
      <trkpt lat="43.22495" lon="5.9324">
        <ele>670</ele>
        <time>2022-08-12T18:03:04Z</time>
      </trkpt>
      <trkpt lat="43.22509" lon="5.9323">
        <ele>672</ele>
        <time>2022-08-12T18:03:06Z</time>
      </trkpt>
      <trkpt lat="43.22527" lon="5.93209">
        <ele>673</ele>
        <time>2022-08-12T18:03:11Z</time>
      </trkpt>
      <trkpt lat="43.22553" lon="5.93173">
        <ele>673</ele>
        <time>2022-08-12T18:03:17Z</time>
      </trkpt>
      <trkpt lat="43.22628" lon="5.93033">
        <ele>669</ele>
        <time>2022-08-12T18:03:40Z</time>
      </trkpt>
      <trkpt lat="43.22634" lon="5.93014">
        <ele>669</ele>
        <time>2022-08-12T18:03:42Z</time>
      </trkpt>
      <trkpt lat="43.22642" lon="5.92964">
        <ele>666</ele>
        <time>2022-08-12T18:03:49Z</time>
      </trkpt>
      <trkpt lat="43.22643" lon="5.92936">
        <ele>665</ele>
        <time>2022-08-12T18:03:53Z</time>
      </trkpt>
      <trkpt lat="43.22642" lon="5.92785">
        <ele>655</ele>
        <time>2022-08-12T18:04:12Z</time>
      </trkpt>
      <trkpt lat="43.22647" lon="5.92746">
        <ele>652</ele>
        <time>2022-08-12T18:04:17Z</time>
      </trkpt>
      <trkpt lat="43.22652" lon="5.92726">
        <ele>652</ele>
        <time>2022-08-12T18:04:20Z</time>
      </trkpt>
      <trkpt lat="43.22661" lon="5.92698">
        <ele>651</ele>
        <time>2022-08-12T18:04:24Z</time>
      </trkpt>
      <trkpt lat="43.22684" lon="5.92638">
        <ele>650</ele>
        <time>2022-08-12T18:04:33Z</time>
      </trkpt>
      <trkpt lat="43.2269" lon="5.92616">
        <ele>650</ele>
        <time>2022-08-12T18:04:36Z</time>
      </trkpt>
      <trkpt lat="43.22697" lon="5.92562">
        <ele>649</ele>
        <time>2022-08-12T18:04:43Z</time>
      </trkpt>
      <trkpt lat="43.22696" lon="5.92536">
        <ele>647</ele>
        <time>2022-08-12T18:04:46Z</time>
      </trkpt>
      <trkpt lat="43.22709" lon="5.92101">
        <ele>629</ele>
        <time>2022-08-12T18:05:43Z</time>
      </trkpt>
      <trkpt lat="43.2272" lon="5.91735">
        <ele>639</ele>
        <time>2022-08-12T18:06:30Z</time>
      </trkpt>
      <trkpt lat="43.22716" lon="5.91669">
        <ele>642</ele>
        <time>2022-08-12T18:06:39Z</time>
      </trkpt>
      <trkpt lat="43.22714" lon="5.91604">
        <ele>645</ele>
        <time>2022-08-12T18:06:47Z</time>
      </trkpt>
      <trkpt lat="43.22719" lon="5.91564">
        <ele>647</ele>
        <time>2022-08-12T18:06:53Z</time>
      </trkpt>
      <trkpt lat="43.22728" lon="5.91536">
        <ele>649</ele>
        <time>2022-08-12T18:06:57Z</time>
      </trkpt>
      <trkpt lat="43.22734" lon="5.91527">
        <ele>649</ele>
        <time>2022-08-12T18:06:58Z</time>
      </trkpt>
      <trkpt lat="43.2275" lon="5.91507">
        <ele>649</ele>
        <time>2022-08-12T18:07:02Z</time>
      </trkpt>
      <trkpt lat="43.22783" lon="5.91477">
        <ele>651</ele>
        <time>2022-08-12T18:07:09Z</time>
      </trkpt>
      <trkpt lat="43.22802" lon="5.91453">
        <ele>653</ele>
        <time>2022-08-12T18:07:14Z</time>
      </trkpt>
      <trkpt lat="43.22837" lon="5.91394">
        <ele>658</ele>
        <time>2022-08-12T18:07:23Z</time>
      </trkpt>
      <trkpt lat="43.22853" lon="5.91379">
        <ele>660</ele>
        <time>2022-08-12T18:07:27Z</time>
      </trkpt>
      <trkpt lat="43.22922" lon="5.91332">
        <ele>663</ele>
        <time>2022-08-12T18:07:41Z</time>
      </trkpt>
      <trkpt lat="43.2295" lon="5.91306">
        <ele>665</ele>
        <time>2022-08-12T18:07:47Z</time>
      </trkpt>
      <trkpt lat="43.22975" lon="5.91273">
        <ele>668</ele>
        <time>2022-08-12T18:07:53Z</time>
      </trkpt>
      <trkpt lat="43.22995" lon="5.91238">
        <ele>670</ele>
        <time>2022-08-12T18:07:59Z</time>
      </trkpt>
      <trkpt lat="43.23018" lon="5.9118">
        <ele>672</ele>
        <time>2022-08-12T18:08:07Z</time>
      </trkpt>
      <trkpt lat="43.23026" lon="5.9117">
        <ele>672</ele>
        <time>2022-08-12T18:08:09Z</time>
      </trkpt>
      <trkpt lat="43.2308" lon="5.91119">
        <ele>675</ele>
        <time>2022-08-12T18:08:21Z</time>
      </trkpt>
      <trkpt lat="43.23108" lon="5.91102">
        <ele>676</ele>
        <time>2022-08-12T18:08:26Z</time>
      </trkpt>
      <trkpt lat="43.2312" lon="5.91092">
        <ele>676</ele>
        <time>2022-08-12T18:08:29Z</time>
      </trkpt>
      <trkpt lat="43.23149" lon="5.91053">
        <ele>679</ele>
        <time>2022-08-12T18:08:36Z</time>
      </trkpt>
      <trkpt lat="43.23165" lon="5.91018">
        <ele>681</ele>
        <time>2022-08-12T18:08:41Z</time>
      </trkpt>
      <trkpt lat="43.23206" lon="5.90951">
        <ele>684</ele>
        <time>2022-08-12T18:08:53Z</time>
      </trkpt>
      <trkpt lat="43.23214" lon="5.90942">
        <ele>684</ele>
        <time>2022-08-12T18:08:54Z</time>
      </trkpt>
      <trkpt lat="43.23221" lon="5.90936">
        <ele>684</ele>
        <time>2022-08-12T18:08:56Z</time>
      </trkpt>
      <trkpt lat="43.23251" lon="5.90925">
        <ele>685</ele>
        <time>2022-08-12T18:09:01Z</time>
      </trkpt>
      <trkpt lat="43.23262" lon="5.90918">
        <ele>686</ele>
        <time>2022-08-12T18:09:04Z</time>
      </trkpt>
      <trkpt lat="43.2328" lon="5.90895">
        <ele>688</ele>
        <time>2022-08-12T18:09:08Z</time>
      </trkpt>
      <trkpt lat="43.23316" lon="5.90837">
        <ele>691</ele>
        <time>2022-08-12T18:09:18Z</time>
      </trkpt>
      <trkpt lat="43.23351" lon="5.90788">
        <ele>693</ele>
        <time>2022-08-12T18:09:27Z</time>
      </trkpt>
      <trkpt lat="43.23383" lon="5.9074">
        <ele>694</ele>
        <time>2022-08-12T18:09:35Z</time>
      </trkpt>
      <trkpt lat="43.23398" lon="5.90714">
        <ele>694</ele>
        <time>2022-08-12T18:09:39Z</time>
      </trkpt>
      <trkpt lat="43.23408" lon="5.90688">
        <ele>694</ele>
        <time>2022-08-12T18:09:43Z</time>
      </trkpt>
      <trkpt lat="43.23423" lon="5.90631">
        <ele>693</ele>
        <time>2022-08-12T18:09:51Z</time>
      </trkpt>
      <trkpt lat="43.23436" lon="5.90565">
        <ele>689</ele>
        <time>2022-08-12T18:10:00Z</time>
      </trkpt>
      <trkpt lat="43.23436" lon="5.90548">
        <ele>688</ele>
        <time>2022-08-12T18:10:02Z</time>
      </trkpt>
      <trkpt lat="43.23434" lon="5.90536">
        <ele>687</ele>
        <time>2022-08-12T18:10:04Z</time>
      </trkpt>
      <trkpt lat="43.23423" lon="5.90512">
        <ele>685</ele>
        <time>2022-08-12T18:10:07Z</time>
      </trkpt>
      <trkpt lat="43.23402" lon="5.90474">
        <ele>682</ele>
        <time>2022-08-12T18:10:14Z</time>
      </trkpt>
      <trkpt lat="43.23395" lon="5.9045">
        <ele>680</ele>
        <time>2022-08-12T18:10:17Z</time>
      </trkpt>
      <trkpt lat="43.23349" lon="5.90204">
        <ele>667</ele>
        <time>2022-08-12T18:10:50Z</time>
      </trkpt>
      <trkpt lat="43.2335" lon="5.90169">
        <ele>665</ele>
        <time>2022-08-12T18:10:54Z</time>
      </trkpt>
      <trkpt lat="43.23357" lon="5.90129">
        <ele>663</ele>
        <time>2022-08-12T18:11:00Z</time>
      </trkpt>
      <trkpt lat="43.23363" lon="5.90106">
        <ele>662</ele>
        <time>2022-08-12T18:11:03Z</time>
      </trkpt>
      <trkpt lat="43.23382" lon="5.90085">
        <ele>660</ele>
        <time>2022-08-12T18:11:07Z</time>
      </trkpt>
      <trkpt lat="43.23419" lon="5.90065">
        <ele>656</ele>
        <time>2022-08-12T18:11:14Z</time>
      </trkpt>
      <trkpt lat="43.23431" lon="5.90056">
        <ele>656</ele>
        <time>2022-08-12T18:11:17Z</time>
      </trkpt>
      <trkpt lat="43.23441" lon="5.90046">
        <ele>656</ele>
        <time>2022-08-12T18:11:19Z</time>
      </trkpt>
      <trkpt lat="43.23453" lon="5.90026">
        <ele>656</ele>
        <time>2022-08-12T18:11:22Z</time>
      </trkpt>
      <trkpt lat="43.2346" lon="5.90003">
        <ele>655</ele>
        <time>2022-08-12T18:11:26Z</time>
      </trkpt>
      <trkpt lat="43.23459" lon="5.89976">
        <ele>653</ele>
        <time>2022-08-12T18:11:29Z</time>
      </trkpt>
      <trkpt lat="43.23451" lon="5.89949">
        <ele>651</ele>
        <time>2022-08-12T18:11:33Z</time>
      </trkpt>
      <trkpt lat="43.23436" lon="5.89912">
        <ele>648</ele>
        <time>2022-08-12T18:11:38Z</time>
      </trkpt>
      <trkpt lat="43.23433" lon="5.89903">
        <ele>647</ele>
        <time>2022-08-12T18:11:40Z</time>
      </trkpt>
      <trkpt lat="43.23433" lon="5.8989">
        <ele>647</ele>
        <time>2022-08-12T18:11:41Z</time>
      </trkpt>
      <trkpt lat="43.23444" lon="5.89824">
        <ele>645</ele>
        <time>2022-08-12T18:11:50Z</time>
      </trkpt>
      <trkpt lat="43.23448" lon="5.89739">
        <ele>642</ele>
        <time>2022-08-12T18:12:01Z</time>
      </trkpt>
      <trkpt lat="43.23447" lon="5.89666">
        <ele>641</ele>
        <time>2022-08-12T18:12:11Z</time>
      </trkpt>
      <trkpt lat="43.23449" lon="5.89658">
        <ele>640</ele>
        <time>2022-08-12T18:12:12Z</time>
      </trkpt>
      <trkpt lat="43.23474" lon="5.89611">
        <ele>634</ele>
        <time>2022-08-12T18:12:19Z</time>
      </trkpt>
      <trkpt lat="43.23485" lon="5.89552">
        <ele>628</ele>
        <time>2022-08-12T18:12:27Z</time>
      </trkpt>
      <trkpt lat="43.23488" lon="5.89546">
        <ele>627</ele>
        <time>2022-08-12T18:12:28Z</time>
      </trkpt>
      <trkpt lat="43.23495" lon="5.8954">
        <ele>625</ele>
        <time>2022-08-12T18:12:30Z</time>
      </trkpt>
      <trkpt lat="43.235" lon="5.89539">
        <ele>624</ele>
        <time>2022-08-12T18:12:30Z</time>
      </trkpt>
      <trkpt lat="43.23525" lon="5.8955">
        <ele>624</ele>
        <time>2022-08-12T18:12:35Z</time>
      </trkpt>
      <trkpt lat="43.23531" lon="5.89552">
        <ele>624</ele>
        <time>2022-08-12T18:12:36Z</time>
      </trkpt>
      <trkpt lat="43.23537" lon="5.8955">
        <ele>623</ele>
        <time>2022-08-12T18:12:37Z</time>
      </trkpt>
      <trkpt lat="43.23541" lon="5.89547">
        <ele>623</ele>
        <time>2022-08-12T18:12:38Z</time>
      </trkpt>
      <trkpt lat="43.23552" lon="5.89515">
        <ele>619</ele>
        <time>2022-08-12T18:12:43Z</time>
      </trkpt>
      <trkpt lat="43.2357" lon="5.89482">
        <ele>615</ele>
        <time>2022-08-12T18:12:48Z</time>
      </trkpt>
      <trkpt lat="43.2359" lon="5.89468">
        <ele>614</ele>
        <time>2022-08-12T18:12:52Z</time>
      </trkpt>
      <trkpt lat="43.23619" lon="5.89472">
        <ele>614</ele>
        <time>2022-08-12T18:12:57Z</time>
      </trkpt>
      <trkpt lat="43.23641" lon="5.89469">
        <ele>614</ele>
        <time>2022-08-12T18:13:01Z</time>
      </trkpt>
      <trkpt lat="43.23679" lon="5.89453">
        <ele>615</ele>
        <time>2022-08-12T18:13:08Z</time>
      </trkpt>
      <trkpt lat="43.23703" lon="5.89425">
        <ele>615</ele>
        <time>2022-08-12T18:13:14Z</time>
      </trkpt>
      <trkpt lat="43.23717" lon="5.89366">
        <ele>616</ele>
        <time>2022-08-12T18:13:22Z</time>
      </trkpt>
      <trkpt lat="43.23731" lon="5.89314">
        <ele>617</ele>
        <time>2022-08-12T18:13:29Z</time>
      </trkpt>
      <trkpt lat="43.23732" lon="5.89252">
        <ele>618</ele>
        <time>2022-08-12T18:13:37Z</time>
      </trkpt>
      <trkpt lat="43.23731" lon="5.8909">
        <ele>615</ele>
        <time>2022-08-12T18:13:58Z</time>
      </trkpt>
      <trkpt lat="43.23726" lon="5.89049">
        <ele>614</ele>
        <time>2022-08-12T18:14:04Z</time>
      </trkpt>
      <trkpt lat="43.23713" lon="5.89001">
        <ele>613</ele>
        <time>2022-08-12T18:14:10Z</time>
      </trkpt>
      <trkpt lat="43.23719" lon="5.88953">
        <ele>611</ele>
        <time>2022-08-12T18:14:16Z</time>
      </trkpt>
      <trkpt lat="43.23732" lon="5.88901">
        <ele>610</ele>
        <time>2022-08-12T18:14:24Z</time>
      </trkpt>
      <trkpt lat="43.23832" lon="5.8878">
        <ele>613</ele>
        <time>2022-08-12T18:14:47Z</time>
      </trkpt>
      <trkpt lat="43.23872" lon="5.88698">
        <ele>612</ele>
        <time>2022-08-12T18:15:00Z</time>
      </trkpt>
      <trkpt lat="43.23887" lon="5.88633">
        <ele>611</ele>
        <time>2022-08-12T18:15:09Z</time>
      </trkpt>
      <trkpt lat="43.23904" lon="5.8851">
        <ele>610</ele>
        <time>2022-08-12T18:15:25Z</time>
      </trkpt>
      <trkpt lat="43.23908" lon="5.88452">
        <ele>607</ele>
        <time>2022-08-12T18:15:33Z</time>
      </trkpt>
      <trkpt lat="43.23899" lon="5.88387">
        <ele>605</ele>
        <time>2022-08-12T18:15:41Z</time>
      </trkpt>
      <trkpt lat="43.23893" lon="5.8836">
        <ele>604</ele>
        <time>2022-08-12T18:15:45Z</time>
      </trkpt>
      <trkpt lat="43.23878" lon="5.88325">
        <ele>602</ele>
        <time>2022-08-12T18:15:50Z</time>
      </trkpt>
      <trkpt lat="43.23853" lon="5.88287">
        <ele>601</ele>
        <time>2022-08-12T18:15:57Z</time>
      </trkpt>
      <trkpt lat="43.23836" lon="5.88231">
        <ele>598</ele>
        <time>2022-08-12T18:16:05Z</time>
      </trkpt>
      <trkpt lat="43.23841" lon="5.8818">
        <ele>597</ele>
        <time>2022-08-12T18:16:11Z</time>
      </trkpt>
      <trkpt lat="43.23854" lon="5.88136">
        <ele>595</ele>
        <time>2022-08-12T18:16:18Z</time>
      </trkpt>
      <trkpt lat="43.23857" lon="5.88125">
        <ele>594</ele>
        <time>2022-08-12T18:16:19Z</time>
      </trkpt>
      <trkpt lat="43.23863" lon="5.88076">
        <ele>592</ele>
        <time>2022-08-12T18:16:26Z</time>
      </trkpt>
      <trkpt lat="43.23857" lon="5.87992">
        <ele>589</ele>
        <time>2022-08-12T18:16:36Z</time>
      </trkpt>
      <trkpt lat="43.23849" lon="5.87943">
        <ele>587</ele>
        <time>2022-08-12T18:16:43Z</time>
      </trkpt>
      <trkpt lat="43.23848" lon="5.87922">
        <ele>586</ele>
        <time>2022-08-12T18:16:46Z</time>
      </trkpt>
      <trkpt lat="43.23855" lon="5.87854">
        <ele>586</ele>
        <time>2022-08-12T18:16:55Z</time>
      </trkpt>
      <trkpt lat="43.23871" lon="5.87772">
        <ele>586</ele>
        <time>2022-08-12T18:17:06Z</time>
      </trkpt>
      <trkpt lat="43.23941" lon="5.87577">
        <ele>584</ele>
        <time>2022-08-12T18:17:34Z</time>
      </trkpt>
      <trkpt lat="43.24009" lon="5.87425">
        <ele>580</ele>
        <time>2022-08-12T18:17:57Z</time>
      </trkpt>
      <trkpt lat="43.24048" lon="5.87329">
        <ele>580</ele>
        <time>2022-08-12T18:18:11Z</time>
      </trkpt>
      <trkpt lat="43.24064" lon="5.87296">
        <ele>579</ele>
        <time>2022-08-12T18:18:16Z</time>
      </trkpt>
      <trkpt lat="43.24111" lon="5.87135">
        <ele>581</ele>
        <time>2022-08-12T18:18:39Z</time>
      </trkpt>
      <trkpt lat="43.24185" lon="5.86977">
        <ele>586</ele>
        <time>2022-08-12T18:19:03Z</time>
      </trkpt>
      <trkpt lat="43.2423" lon="5.86877">
        <ele>587</ele>
        <time>2022-08-12T18:19:18Z</time>
      </trkpt>
      <trkpt lat="43.24251" lon="5.86836">
        <ele>586</ele>
        <time>2022-08-12T18:19:25Z</time>
      </trkpt>
      <trkpt lat="43.24291" lon="5.86787">
        <ele>589</ele>
        <time>2022-08-12T18:19:34Z</time>
      </trkpt>
      <trkpt lat="43.2433" lon="5.86705">
        <ele>590</ele>
        <time>2022-08-12T18:19:47Z</time>
      </trkpt>
      <trkpt lat="43.2435" lon="5.86614">
        <ele>592</ele>
        <time>2022-08-12T18:19:59Z</time>
      </trkpt>
      <trkpt lat="43.2437" lon="5.86565">
        <ele>594</ele>
        <time>2022-08-12T18:20:07Z</time>
      </trkpt>
      <trkpt lat="43.24423" lon="5.8645">
        <ele>594</ele>
        <time>2022-08-12T18:20:24Z</time>
      </trkpt>
      <trkpt lat="43.24459" lon="5.86388">
        <ele>593</ele>
        <time>2022-08-12T18:20:35Z</time>
      </trkpt>
      <trkpt lat="43.24516" lon="5.8631">
        <ele>594</ele>
        <time>2022-08-12T18:20:49Z</time>
      </trkpt>
      <trkpt lat="43.24555" lon="5.86261">
        <ele>594</ele>
        <time>2022-08-12T18:20:58Z</time>
      </trkpt>
      <trkpt lat="43.24584" lon="5.86235">
        <ele>594</ele>
        <time>2022-08-12T18:21:04Z</time>
      </trkpt>
      <trkpt lat="43.24826" lon="5.86038">
        <ele>598</ele>
        <time>2022-08-12T18:21:55Z</time>
      </trkpt>
      <trkpt lat="43.24909" lon="5.85954">
        <ele>600</ele>
        <time>2022-08-12T18:22:13Z</time>
      </trkpt>
      <trkpt lat="43.25007" lon="5.85827">
        <ele>604</ele>
        <time>2022-08-12T18:22:37Z</time>
      </trkpt>
      <trkpt lat="43.25101" lon="5.85737">
        <ele>605</ele>
        <time>2022-08-12T18:22:57Z</time>
      </trkpt>
      <trkpt lat="43.25215" lon="5.8564">
        <ele>612</ele>
        <time>2022-08-12T18:23:21Z</time>
      </trkpt>
      <trkpt lat="43.25332" lon="5.85552">
        <ele>614</ele>
        <time>2022-08-12T18:23:45Z</time>
      </trkpt>
      <trkpt lat="43.25417" lon="5.85469">
        <ele>617</ele>
        <time>2022-08-12T18:24:03Z</time>
      </trkpt>
      <trkpt lat="43.2548" lon="5.8543">
        <ele>620</ele>
        <time>2022-08-12T18:24:16Z</time>
      </trkpt>
      <trkpt lat="43.25502" lon="5.85423">
        <ele>620</ele>
        <time>2022-08-12T18:24:20Z</time>
      </trkpt>
      <trkpt lat="43.25526" lon="5.85425">
        <ele>621</ele>
        <time>2022-08-12T18:24:24Z</time>
      </trkpt>
      <trkpt lat="43.25579" lon="5.85438">
        <ele>624</ele>
        <time>2022-08-12T18:24:34Z</time>
      </trkpt>
      <trkpt lat="43.256" lon="5.85439">
        <ele>625</ele>
        <time>2022-08-12T18:24:37Z</time>
      </trkpt>
      <trkpt lat="43.2562" lon="5.85432">
        <ele>626</ele>
        <time>2022-08-12T18:24:41Z</time>
      </trkpt>
      <trkpt lat="43.25642" lon="5.85405">
        <ele>627</ele>
        <time>2022-08-12T18:24:46Z</time>
      </trkpt>
      <trkpt lat="43.2572" lon="5.85253">
        <ele>627</ele>
        <time>2022-08-12T18:25:10Z</time>
      </trkpt>
      <trkpt lat="43.25757" lon="5.85207">
        <ele>626</ele>
        <time>2022-08-12T18:25:19Z</time>
      </trkpt>
      <trkpt lat="43.25804" lon="5.85185">
        <ele>624</ele>
        <time>2022-08-12T18:25:28Z</time>
      </trkpt>
      <trkpt lat="43.25845" lon="5.85173">
        <ele>623</ele>
        <time>2022-08-12T18:25:36Z</time>
      </trkpt>
      <trkpt lat="43.26056" lon="5.85134">
        <ele>612</ele>
        <time>2022-08-12T18:26:13Z</time>
      </trkpt>
      <trkpt lat="43.26102" lon="5.85116">
        <ele>609</ele>
        <time>2022-08-12T18:26:22Z</time>
      </trkpt>
      <trkpt lat="43.26143" lon="5.85098">
        <ele>604</ele>
        <time>2022-08-12T18:26:30Z</time>
      </trkpt>
      <trkpt lat="43.26309" lon="5.84923">
        <ele>593</ele>
        <time>2022-08-12T18:27:07Z</time>
      </trkpt>
      <trkpt lat="43.26348" lon="5.849">
        <ele>591</ele>
        <time>2022-08-12T18:27:14Z</time>
      </trkpt>
      <trkpt lat="43.2639" lon="5.84909">
        <ele>588</ele>
        <time>2022-08-12T18:27:22Z</time>
      </trkpt>
      <trkpt lat="43.26441" lon="5.8494">
        <ele>581</ele>
        <time>2022-08-12T18:27:32Z</time>
      </trkpt>
      <trkpt lat="43.26478" lon="5.84956">
        <ele>575</ele>
        <time>2022-08-12T18:27:39Z</time>
      </trkpt>
      <trkpt lat="43.2653" lon="5.84951">
        <ele>566</ele>
        <time>2022-08-12T18:27:48Z</time>
      </trkpt>
      <trkpt lat="43.26565" lon="5.84936">
        <ele>557</ele>
        <time>2022-08-12T18:27:55Z</time>
      </trkpt>
      <trkpt lat="43.26598" lon="5.84862">
        <ele>565</ele>
        <time>2022-08-12T18:28:06Z</time>
      </trkpt>
      <trkpt lat="43.26613" lon="5.84842">
        <ele>565</ele>
        <time>2022-08-12T18:28:10Z</time>
      </trkpt>
      <trkpt lat="43.26632" lon="5.84834">
        <ele>560</ele>
        <time>2022-08-12T18:28:13Z</time>
      </trkpt>
      <trkpt lat="43.26673" lon="5.8482">
        <ele>548</ele>
        <time>2022-08-12T18:28:21Z</time>
      </trkpt>
      <trkpt lat="43.26696" lon="5.84799">
        <ele>544</ele>
        <time>2022-08-12T18:28:25Z</time>
      </trkpt>
      <trkpt lat="43.26708" lon="5.84754">
        <ele>547</ele>
        <time>2022-08-12T18:28:32Z</time>
      </trkpt>
      <trkpt lat="43.26717" lon="5.84694">
        <ele>552</ele>
        <time>2022-08-12T18:28:40Z</time>
      </trkpt>
      <trkpt lat="43.26744" lon="5.84666">
        <ele>540</ele>
        <time>2022-08-12T18:28:46Z</time>
      </trkpt>
      <trkpt lat="43.26794" lon="5.84527">
        <ele>550</ele>
        <time>2022-08-12T18:29:06Z</time>
      </trkpt>
      <trkpt lat="43.26801" lon="5.84525">
        <ele>549</ele>
        <time>2022-08-12T18:29:07Z</time>
      </trkpt>
      <trkpt lat="43.26803" lon="5.84524">
        <ele>549</ele>
        <time>2022-08-12T18:29:07Z</time>
      </trkpt>
      <trkpt lat="43.26818" lon="5.84546">
        <ele>541</ele>
        <time>2022-08-12T18:29:11Z</time>
      </trkpt>
      <trkpt lat="43.26827" lon="5.84562">
        <ele>535</ele>
        <time>2022-08-12T18:29:14Z</time>
      </trkpt>
      <trkpt lat="43.26851" lon="5.84587">
        <ele>528</ele>
        <time>2022-08-12T18:29:19Z</time>
      </trkpt>
      <trkpt lat="43.26894" lon="5.84626">
        <ele>522</ele>
        <time>2022-08-12T18:29:28Z</time>
      </trkpt>
      <trkpt lat="43.2691" lon="5.84638">
        <ele>519</ele>
        <time>2022-08-12T18:29:32Z</time>
      </trkpt>
      <trkpt lat="43.2695" lon="5.84649">
        <ele>512</ele>
        <time>2022-08-12T18:29:39Z</time>
      </trkpt>
      <trkpt lat="43.26974" lon="5.84629">
        <ele>514</ele>
        <time>2022-08-12T18:29:44Z</time>
      </trkpt>
      <trkpt lat="43.26986" lon="5.84612">
        <ele>516</ele>
        <time>2022-08-12T18:29:47Z</time>
      </trkpt>
      <trkpt lat="43.27023" lon="5.84611">
        <ele>509</ele>
        <time>2022-08-12T18:29:54Z</time>
      </trkpt>
      <trkpt lat="43.27039" lon="5.84603">
        <ele>506</ele>
        <time>2022-08-12T18:29:57Z</time>
      </trkpt>
      <trkpt lat="43.27049" lon="5.84585">
        <ele>507</ele>
        <time>2022-08-12T18:30:00Z</time>
      </trkpt>
      <trkpt lat="43.27057" lon="5.84561">
        <ele>512</ele>
        <time>2022-08-12T18:30:03Z</time>
      </trkpt>
      <trkpt lat="43.27071" lon="5.84532">
        <ele>516</ele>
        <time>2022-08-12T18:30:07Z</time>
      </trkpt>
      <trkpt lat="43.27093" lon="5.84525">
        <ele>515</ele>
        <time>2022-08-12T18:30:12Z</time>
      </trkpt>
      <trkpt lat="43.27154" lon="5.84559">
        <ele>503</ele>
        <time>2022-08-12T18:30:23Z</time>
      </trkpt>
      <trkpt lat="43.27186" lon="5.84584">
        <ele>499</ele>
        <time>2022-08-12T18:30:30Z</time>
      </trkpt>
      <trkpt lat="43.27205" lon="5.84635">
        <ele>491</ele>
        <time>2022-08-12T18:30:37Z</time>
      </trkpt>
      <trkpt lat="43.27306" lon="5.84692">
        <ele>486</ele>
        <time>2022-08-12T18:30:57Z</time>
      </trkpt>
      <trkpt lat="43.27323" lon="5.84697">
        <ele>486</ele>
        <time>2022-08-12T18:31:00Z</time>
      </trkpt>
      <trkpt lat="43.27339" lon="5.84695">
        <ele>487</ele>
        <time>2022-08-12T18:31:03Z</time>
      </trkpt>
      <trkpt lat="43.27351" lon="5.84702">
        <ele>485</ele>
        <time>2022-08-12T18:31:05Z</time>
      </trkpt>
      <trkpt lat="43.27362" lon="5.84712">
        <ele>483</ele>
        <time>2022-08-12T18:31:07Z</time>
      </trkpt>
      <trkpt lat="43.27381" lon="5.84717">
        <ele>482</ele>
        <time>2022-08-12T18:31:11Z</time>
      </trkpt>
      <trkpt lat="43.27398" lon="5.84716">
        <ele>483</ele>
        <time>2022-08-12T18:31:14Z</time>
      </trkpt>
      <trkpt lat="43.27413" lon="5.84722">
        <ele>482</ele>
        <time>2022-08-12T18:31:16Z</time>
      </trkpt>
      <trkpt lat="43.27429" lon="5.84734">
        <ele>477</ele>
        <time>2022-08-12T18:31:20Z</time>
      </trkpt>
      <trkpt lat="43.27464" lon="5.84735">
        <ele>475</ele>
        <time>2022-08-12T18:31:26Z</time>
      </trkpt>
      <trkpt lat="43.27549" lon="5.84727">
        <ele>470</ele>
        <time>2022-08-12T18:31:41Z</time>
      </trkpt>
      <trkpt lat="43.2764" lon="5.84669">
        <ele>463</ele>
        <time>2022-08-12T18:31:59Z</time>
      </trkpt>
      <trkpt lat="43.2769" lon="5.84631">
        <ele>461</ele>
        <time>2022-08-12T18:32:09Z</time>
      </trkpt>
      <trkpt lat="43.27766" lon="5.84582">
        <ele>451</ele>
        <time>2022-08-12T18:32:24Z</time>
      </trkpt>
      <trkpt lat="43.27913" lon="5.84474">
        <ele>437</ele>
        <time>2022-08-12T18:32:54Z</time>
      </trkpt>
      <trkpt lat="43.27935" lon="5.84454">
        <ele>436</ele>
        <time>2022-08-12T18:32:58Z</time>
      </trkpt>
      <trkpt lat="43.27965" lon="5.84421">
        <ele>435</ele>
        <time>2022-08-12T18:33:05Z</time>
      </trkpt>
      <trkpt lat="43.27974" lon="5.84406">
        <ele>434</ele>
        <time>2022-08-12T18:33:08Z</time>
      </trkpt>
      <trkpt lat="43.27986" lon="5.84364">
        <ele>432</ele>
        <time>2022-08-12T18:33:14Z</time>
      </trkpt>
      <trkpt lat="43.28006" lon="5.84331">
        <ele>429</ele>
        <time>2022-08-12T18:33:19Z</time>
      </trkpt>
      <trkpt lat="43.28029" lon="5.84317">
        <ele>428</ele>
        <time>2022-08-12T18:33:24Z</time>
      </trkpt>
      <trkpt lat="43.28048" lon="5.84318">
        <ele>427</ele>
        <time>2022-08-12T18:33:27Z</time>
      </trkpt>
      <trkpt lat="43.28067" lon="5.84322">
        <ele>426</ele>
        <time>2022-08-12T18:33:30Z</time>
      </trkpt>
      <trkpt lat="43.28149" lon="5.84355">
        <ele>424</ele>
        <time>2022-08-12T18:33:46Z</time>
      </trkpt>
      <trkpt lat="43.28253" lon="5.84364">
        <ele>422</ele>
        <time>2022-08-12T18:34:04Z</time>
      </trkpt>
      <trkpt lat="43.28281" lon="5.84381">
        <ele>421</ele>
        <time>2022-08-12T18:34:10Z</time>
      </trkpt>
      <trkpt lat="43.28421" lon="5.84479">
        <ele>425</ele>
        <time>2022-08-12T18:34:38Z</time>
      </trkpt>
      <trkpt lat="43.2849" lon="5.84529">
        <ele>421</ele>
        <time>2022-08-12T18:34:52Z</time>
      </trkpt>
      <trkpt lat="43.28496" lon="5.8453">
        <ele>420</ele>
        <time>2022-08-12T18:34:53Z</time>
      </trkpt>
      <trkpt lat="43.28502" lon="5.84527">
        <ele>419</ele>
        <time>2022-08-12T18:34:54Z</time>
      </trkpt>
      <trkpt lat="43.28507" lon="5.84521">
        <ele>418</ele>
        <time>2022-08-12T18:34:55Z</time>
      </trkpt>
      <trkpt lat="43.28512" lon="5.84508">
        <ele>416</ele>
        <time>2022-08-12T18:34:57Z</time>
      </trkpt>
      <trkpt lat="43.28516" lon="5.84495">
        <ele>414</ele>
        <time>2022-08-12T18:34:59Z</time>
      </trkpt>
      <trkpt lat="43.28522" lon="5.84493">
        <ele>414</ele>
        <time>2022-08-12T18:35:00Z</time>
      </trkpt>
      <trkpt lat="43.28521" lon="5.84432">
        <ele>411</ele>
        <time>2022-08-12T18:35:08Z</time>
      </trkpt>
      <trkpt lat="43.28492" lon="5.84182">
        <ele>409</ele>
        <time>2022-08-12T18:35:40Z</time>
      </trkpt>
      <trkpt lat="43.28463" lon="5.83906">
        <ele>412</ele>
        <time>2022-08-12T18:36:17Z</time>
      </trkpt>
      <trkpt lat="43.28434" lon="5.83686">
        <ele>413</ele>
        <time>2022-08-12T18:36:45Z</time>
      </trkpt>
      <trkpt lat="43.28428" lon="5.83646">
        <ele>413</ele>
        <time>2022-08-12T18:36:51Z</time>
      </trkpt>
      <trkpt lat="43.28397" lon="5.83515">
        <ele>412</ele>
        <time>2022-08-12T18:37:09Z</time>
      </trkpt>
      <trkpt lat="43.28386" lon="5.83454">
        <ele>412</ele>
        <time>2022-08-12T18:37:17Z</time>
      </trkpt>
      <trkpt lat="43.28374" lon="5.83368">
        <ele>411</ele>
        <time>2022-08-12T18:37:28Z</time>
      </trkpt>
      <trkpt lat="43.28355" lon="5.82994">
        <ele>411</ele>
        <time>2022-08-12T18:38:17Z</time>
      </trkpt>
      <trkpt lat="43.28352" lon="5.82953">
        <ele>413</ele>
        <time>2022-08-12T18:38:22Z</time>
      </trkpt>
      <trkpt lat="43.28349" lon="5.82931">
        <ele>414</ele>
        <time>2022-08-12T18:38:25Z</time>
      </trkpt>
      <trkpt lat="43.28342" lon="5.82905">
        <ele>414</ele>
        <time>2022-08-12T18:38:28Z</time>
      </trkpt>
      <trkpt lat="43.28335" lon="5.82886">
        <ele>414</ele>
        <time>2022-08-12T18:38:31Z</time>
      </trkpt>
      <trkpt lat="43.28315" lon="5.82844">
        <ele>414</ele>
        <time>2022-08-12T18:38:38Z</time>
      </trkpt>
      <trkpt lat="43.2815" lon="5.82555">
        <ele>425</ele>
        <time>2022-08-12T18:39:25Z</time>
      </trkpt>
      <trkpt lat="43.28139" lon="5.82533">
        <ele>427</ele>
        <time>2022-08-12T18:39:29Z</time>
      </trkpt>
      <trkpt lat="43.28132" lon="5.82512">
        <ele>428</ele>
        <time>2022-08-12T18:39:32Z</time>
      </trkpt>
      <trkpt lat="43.28128" lon="5.8249">
        <ele>428</ele>
        <time>2022-08-12T18:39:35Z</time>
      </trkpt>
      <trkpt lat="43.2812" lon="5.82425">
        <ele>430</ele>
        <time>2022-08-12T18:39:43Z</time>
      </trkpt>
      <trkpt lat="43.28115" lon="5.82397">
        <ele>430</ele>
        <time>2022-08-12T18:39:47Z</time>
      </trkpt>
      <trkpt lat="43.28107" lon="5.82368">
        <ele>431</ele>
        <time>2022-08-12T18:39:51Z</time>
      </trkpt>
      <trkpt lat="43.28011" lon="5.82087">
        <ele>436</ele>
        <time>2022-08-12T18:40:31Z</time>
      </trkpt>
      <trkpt lat="43.27992" lon="5.82045">
        <ele>436</ele>
        <time>2022-08-12T18:40:38Z</time>
      </trkpt>
      <trkpt lat="43.27982" lon="5.82027">
        <ele>437</ele>
        <time>2022-08-12T18:40:41Z</time>
      </trkpt>
      <trkpt lat="43.27931" lon="5.81955">
        <ele>439</ele>
        <time>2022-08-12T18:40:54Z</time>
      </trkpt>
      <trkpt lat="43.27921" lon="5.81936">
        <ele>439</ele>
        <time>2022-08-12T18:40:57Z</time>
      </trkpt>
      <trkpt lat="43.27902" lon="5.81893">
        <ele>439</ele>
        <time>2022-08-12T18:41:03Z</time>
      </trkpt>
      <trkpt lat="43.27849" lon="5.81698">
        <ele>441</ele>
        <time>2022-08-12T18:41:30Z</time>
      </trkpt>
      <trkpt lat="43.27811" lon="5.81568">
        <ele>442</ele>
        <time>2022-08-12T18:41:48Z</time>
      </trkpt>
      <trkpt lat="43.27787" lon="5.81443">
        <ele>444</ele>
        <time>2022-08-12T18:42:05Z</time>
      </trkpt>
      <trkpt lat="43.2771" lon="5.81163">
        <ele>449</ele>
        <time>2022-08-12T18:42:44Z</time>
      </trkpt>
      <trkpt lat="43.27705" lon="5.81136">
        <ele>450</ele>
        <time>2022-08-12T18:42:47Z</time>
      </trkpt>
      <trkpt lat="43.27702" lon="5.81109">
        <ele>450</ele>
        <time>2022-08-12T18:42:51Z</time>
      </trkpt>
      <trkpt lat="43.27703" lon="5.80952">
        <ele>450</ele>
        <time>2022-08-12T18:43:11Z</time>
      </trkpt>
      <trkpt lat="43.277" lon="5.80827">
        <ele>451</ele>
        <time>2022-08-12T18:43:27Z</time>
      </trkpt>
      <trkpt lat="43.27697" lon="5.80801">
        <ele>451</ele>
        <time>2022-08-12T18:43:31Z</time>
      </trkpt>
      <trkpt lat="43.27677" lon="5.8071">
        <ele>452</ele>
        <time>2022-08-12T18:43:43Z</time>
      </trkpt>
      <trkpt lat="43.27643" lon="5.806">
        <ele>455</ele>
        <time>2022-08-12T18:43:59Z</time>
      </trkpt>
      <trkpt lat="43.27631" lon="5.80566">
        <ele>455</ele>
        <time>2022-08-12T18:44:04Z</time>
      </trkpt>
      <trkpt lat="43.27621" lon="5.80542">
        <ele>455</ele>
        <time>2022-08-12T18:44:07Z</time>
      </trkpt>
      <trkpt lat="43.27591" lon="5.80497">
        <ele>454</ele>
        <time>2022-08-12T18:44:15Z</time>
      </trkpt>
      <trkpt lat="43.27566" lon="5.80469">
        <ele>454</ele>
        <time>2022-08-12T18:44:21Z</time>
      </trkpt>
      <trkpt lat="43.27533" lon="5.80445">
        <ele>454</ele>
        <time>2022-08-12T18:44:27Z</time>
      </trkpt>
      <trkpt lat="43.27527" lon="5.80433">
        <ele>454</ele>
        <time>2022-08-12T18:44:29Z</time>
      </trkpt>
      <trkpt lat="43.27526" lon="5.8041">
        <ele>454</ele>
        <time>2022-08-12T18:44:32Z</time>
      </trkpt>
      <trkpt lat="43.27529" lon="5.804">
        <ele>454</ele>
        <time>2022-08-12T18:44:34Z</time>
      </trkpt>
      <trkpt lat="43.27528" lon="5.80389">
        <ele>454</ele>
        <time>2022-08-12T18:44:35Z</time>
      </trkpt>
      <trkpt lat="43.27521" lon="5.80379">
        <ele>454</ele>
        <time>2022-08-12T18:44:37Z</time>
      </trkpt>
      <trkpt lat="43.27516" lon="5.80377">
        <ele>454</ele>
        <time>2022-08-12T18:44:38Z</time>
      </trkpt>
      <trkpt lat="43.27506" lon="5.80379">
        <ele>454</ele>
        <time>2022-08-12T18:44:40Z</time>
      </trkpt>
      <trkpt lat="43.275" lon="5.80389">
        <ele>453</ele>
        <time>2022-08-12T18:44:41Z</time>
      </trkpt>
      <trkpt lat="43.2749" lon="5.80396">
        <ele>454</ele>
        <time>2022-08-12T18:44:43Z</time>
      </trkpt>
      <trkpt lat="43.27476" lon="5.80398">
        <ele>455</ele>
        <time>2022-08-12T18:44:46Z</time>
      </trkpt>
      <trkpt lat="43.27455" lon="5.80383">
        <ele>457</ele>
        <time>2022-08-12T18:44:50Z</time>
      </trkpt>
      <trkpt lat="43.27419" lon="5.80339">
        <ele>458</ele>
        <time>2022-08-12T18:44:59Z</time>
      </trkpt>
      <trkpt lat="43.27409" lon="5.80329">
        <ele>458</ele>
        <time>2022-08-12T18:45:01Z</time>
      </trkpt>
      <trkpt lat="43.27396" lon="5.8032">
        <ele>459</ele>
        <time>2022-08-12T18:45:03Z</time>
      </trkpt>
      <trkpt lat="43.27297" lon="5.80279">
        <ele>464</ele>
        <time>2022-08-12T18:45:22Z</time>
      </trkpt>
      <trkpt lat="43.27258" lon="5.80275">
        <ele>468</ele>
        <time>2022-08-12T18:45:29Z</time>
      </trkpt>
      <trkpt lat="43.27225" lon="5.80276">
        <ele>470</ele>
        <time>2022-08-12T18:45:35Z</time>
      </trkpt>
      <trkpt lat="43.27063" lon="5.80333">
        <ele>474</ele>
        <time>2022-08-12T18:46:04Z</time>
      </trkpt>
      <trkpt lat="43.26961" lon="5.80376">
        <ele>472</ele>
        <time>2022-08-12T18:46:23Z</time>
      </trkpt>
      <trkpt lat="43.26768" lon="5.80462">
        <ele>472</ele>
        <time>2022-08-12T18:46:59Z</time>
      </trkpt>
      <trkpt lat="43.26696" lon="5.80498">
        <ele>472</ele>
        <time>2022-08-12T18:47:13Z</time>
      </trkpt>
      <trkpt lat="43.26603" lon="5.80567">
        <ele>473</ele>
        <time>2022-08-12T18:47:32Z</time>
      </trkpt>
      <trkpt lat="43.2649" lon="5.80655">
        <ele>473</ele>
        <time>2022-08-12T18:47:55Z</time>
      </trkpt>
      <trkpt lat="43.26337" lon="5.80771">
        <ele>471</ele>
        <time>2022-08-12T18:48:26Z</time>
      </trkpt>
      <trkpt lat="43.26309" lon="5.80788">
        <ele>471</ele>
        <time>2022-08-12T18:48:32Z</time>
      </trkpt>
      <trkpt lat="43.26297" lon="5.80792">
        <ele>470</ele>
        <time>2022-08-12T18:48:34Z</time>
      </trkpt>
      <trkpt lat="43.26284" lon="5.80792">
        <ele>470</ele>
        <time>2022-08-12T18:48:36Z</time>
      </trkpt>
      <trkpt lat="43.2627" lon="5.8079">
        <ele>470</ele>
        <time>2022-08-12T18:48:39Z</time>
      </trkpt>
      <trkpt lat="43.26255" lon="5.80783">
        <ele>469</ele>
        <time>2022-08-12T18:48:41Z</time>
      </trkpt>
      <trkpt lat="43.2624" lon="5.80772">
        <ele>468</ele>
        <time>2022-08-12T18:48:44Z</time>
      </trkpt>
      <trkpt lat="43.26206" lon="5.80739">
        <ele>466</ele>
        <time>2022-08-12T18:48:52Z</time>
      </trkpt>
      <trkpt lat="43.26119" lon="5.80645">
        <ele>464</ele>
        <time>2022-08-12T18:49:12Z</time>
      </trkpt>
      <trkpt lat="43.26088" lon="5.80618">
        <ele>464</ele>
        <time>2022-08-12T18:49:18Z</time>
      </trkpt>
      <trkpt lat="43.26058" lon="5.80602">
        <ele>463</ele>
        <time>2022-08-12T18:49:24Z</time>
      </trkpt>
      <trkpt lat="43.26044" lon="5.80598">
        <ele>463</ele>
        <time>2022-08-12T18:49:26Z</time>
      </trkpt>
      <trkpt lat="43.26031" lon="5.80597">
        <ele>463</ele>
        <time>2022-08-12T18:49:29Z</time>
      </trkpt>
      <trkpt lat="43.26014" lon="5.80599">
        <ele>462</ele>
        <time>2022-08-12T18:49:32Z</time>
      </trkpt>
      <trkpt lat="43.25967" lon="5.80616">
        <ele>461</ele>
        <time>2022-08-12T18:49:40Z</time>
      </trkpt>
      <trkpt lat="43.25834" lon="5.80673">
        <ele>457</ele>
        <time>2022-08-12T18:50:05Z</time>
      </trkpt>
      <trkpt lat="43.2578" lon="5.80692">
        <ele>457</ele>
        <time>2022-08-12T18:50:15Z</time>
      </trkpt>
      <trkpt lat="43.25554" lon="5.80776">
        <ele>455</ele>
        <time>2022-08-12T18:50:57Z</time>
      </trkpt>
      <trkpt lat="43.25521" lon="5.80782">
        <ele>455</ele>
        <time>2022-08-12T18:51:03Z</time>
      </trkpt>
      <trkpt lat="43.25486" lon="5.80778">
        <ele>454</ele>
        <time>2022-08-12T18:51:09Z</time>
      </trkpt>
      <trkpt lat="43.25468" lon="5.80771">
        <ele>454</ele>
        <time>2022-08-12T18:51:12Z</time>
      </trkpt>
      <trkpt lat="43.25349" lon="5.80708">
        <ele>454</ele>
        <time>2022-08-12T18:51:35Z</time>
      </trkpt>
      <trkpt lat="43.25332" lon="5.80701">
        <ele>454</ele>
        <time>2022-08-12T18:51:38Z</time>
      </trkpt>
      <trkpt lat="43.25288" lon="5.80694">
        <ele>454</ele>
        <time>2022-08-12T18:51:46Z</time>
      </trkpt>
      <trkpt lat="43.25236" lon="5.80689">
        <ele>453</ele>
        <time>2022-08-12T18:51:55Z</time>
      </trkpt>
      <trkpt lat="43.24456" lon="5.80591">
        <ele>429</ele>
        <time>2022-08-12T18:54:15Z</time>
      </trkpt>
      <trkpt lat="43.24413" lon="5.80588">
        <ele>429</ele>
        <time>2022-08-12T18:54:22Z</time>
      </trkpt>
      <trkpt lat="43.24393" lon="5.8059">
        <ele>428</ele>
        <time>2022-08-12T18:54:26Z</time>
      </trkpt>
      <trkpt lat="43.24374" lon="5.80596">
        <ele>428</ele>
        <time>2022-08-12T18:54:29Z</time>
      </trkpt>
      <trkpt lat="43.24356" lon="5.80604">
        <ele>427</ele>
        <time>2022-08-12T18:54:33Z</time>
      </trkpt>
      <trkpt lat="43.24341" lon="5.80614">
        <ele>427</ele>
        <time>2022-08-12T18:54:36Z</time>
      </trkpt>
      <trkpt lat="43.24316" lon="5.80638">
        <ele>425</ele>
        <time>2022-08-12T18:54:41Z</time>
      </trkpt>
      <trkpt lat="43.24252" lon="5.80727">
        <ele>422</ele>
        <time>2022-08-12T18:54:57Z</time>
      </trkpt>
      <trkpt lat="43.24238" lon="5.80745">
        <ele>421</ele>
        <time>2022-08-12T18:55:01Z</time>
      </trkpt>
      <trkpt lat="43.24225" lon="5.80757">
        <ele>420</ele>
        <time>2022-08-12T18:55:03Z</time>
      </trkpt>
      <trkpt lat="43.24198" lon="5.80775">
        <ele>417</ele>
        <time>2022-08-12T18:55:09Z</time>
      </trkpt>
      <trkpt lat="43.24187" lon="5.80778">
        <ele>416</ele>
        <time>2022-08-12T18:55:11Z</time>
      </trkpt>
      <trkpt lat="43.24173" lon="5.80779">
        <ele>415</ele>
        <time>2022-08-12T18:55:13Z</time>
      </trkpt>
      <trkpt lat="43.24161" lon="5.80777">
        <ele>414</ele>
        <time>2022-08-12T18:55:15Z</time>
      </trkpt>
      <trkpt lat="43.24147" lon="5.80769">
        <ele>413</ele>
        <time>2022-08-12T18:55:18Z</time>
      </trkpt>
      <trkpt lat="43.24136" lon="5.80759">
        <ele>411</ele>
        <time>2022-08-12T18:55:20Z</time>
      </trkpt>
      <trkpt lat="43.24128" lon="5.80744">
        <ele>410</ele>
        <time>2022-08-12T18:55:23Z</time>
      </trkpt>
      <trkpt lat="43.24121" lon="5.80728">
        <ele>408</ele>
        <time>2022-08-12T18:55:25Z</time>
      </trkpt>
      <trkpt lat="43.24117" lon="5.80711">
        <ele>407</ele>
        <time>2022-08-12T18:55:28Z</time>
      </trkpt>
      <trkpt lat="43.24115" lon="5.80685">
        <ele>405</ele>
        <time>2022-08-12T18:55:31Z</time>
      </trkpt>
      <trkpt lat="43.24116" lon="5.8066">
        <ele>403</ele>
        <time>2022-08-12T18:55:34Z</time>
      </trkpt>
      <trkpt lat="43.24119" lon="5.80637">
        <ele>402</ele>
        <time>2022-08-12T18:55:37Z</time>
      </trkpt>
      <trkpt lat="43.24138" lon="5.80552">
        <ele>400</ele>
        <time>2022-08-12T18:55:49Z</time>
      </trkpt>
      <trkpt lat="43.24148" lon="5.80494">
        <ele>397</ele>
        <time>2022-08-12T18:55:57Z</time>
      </trkpt>
      <trkpt lat="43.24154" lon="5.80442">
        <ele>395</ele>
        <time>2022-08-12T18:56:03Z</time>
      </trkpt>
      <trkpt lat="43.24156" lon="5.80417">
        <ele>394</ele>
        <time>2022-08-12T18:56:07Z</time>
      </trkpt>
      <trkpt lat="43.24155" lon="5.80387">
        <ele>394</ele>
        <time>2022-08-12T18:56:10Z</time>
      </trkpt>
      <trkpt lat="43.24141" lon="5.8028">
        <ele>394</ele>
        <time>2022-08-12T18:56:25Z</time>
      </trkpt>
      <trkpt lat="43.24142" lon="5.80256">
        <ele>394</ele>
        <time>2022-08-12T18:56:28Z</time>
      </trkpt>
      <trkpt lat="43.24147" lon="5.80237">
        <ele>392</ele>
        <time>2022-08-12T18:56:30Z</time>
      </trkpt>
      <trkpt lat="43.24159" lon="5.80215">
        <ele>389</ele>
        <time>2022-08-12T18:56:34Z</time>
      </trkpt>
      <trkpt lat="43.24162" lon="5.80204">
        <ele>388</ele>
        <time>2022-08-12T18:56:35Z</time>
      </trkpt>
      <trkpt lat="43.24164" lon="5.80187">
        <ele>385</ele>
        <time>2022-08-12T18:56:38Z</time>
      </trkpt>
      <trkpt lat="43.24166" lon="5.80187">
        <ele>385</ele>
        <time>2022-08-12T18:56:38Z</time>
      </trkpt>
      <trkpt lat="43.24161" lon="5.80187">
        <ele>385</ele>
        <time>2022-08-12T18:56:39Z</time>
      </trkpt>
      <trkpt lat="43.2415" lon="5.80183">
        <ele>385</ele>
        <time>2022-08-12T18:56:41Z</time>
      </trkpt>
      <trkpt lat="43.24117" lon="5.80147">
        <ele>379</ele>
        <time>2022-08-12T18:56:48Z</time>
      </trkpt>
      <trkpt lat="43.24109" lon="5.80141">
        <ele>378</ele>
        <time>2022-08-12T18:56:50Z</time>
      </trkpt>
      <trkpt lat="43.24096" lon="5.80136">
        <ele>377</ele>
        <time>2022-08-12T18:56:52Z</time>
      </trkpt>
      <trkpt lat="43.24081" lon="5.80133">
        <ele>376</ele>
        <time>2022-08-12T18:56:55Z</time>
      </trkpt>
      <trkpt lat="43.24008" lon="5.80134">
        <ele>372</ele>
        <time>2022-08-12T18:57:08Z</time>
      </trkpt>
      <trkpt lat="43.2398" lon="5.80146">
        <ele>372</ele>
        <time>2022-08-12T18:57:13Z</time>
      </trkpt>
      <trkpt lat="43.23964" lon="5.80156">
        <ele>371</ele>
        <time>2022-08-12T18:57:16Z</time>
      </trkpt>
      <trkpt lat="43.2395" lon="5.80169">
        <ele>370</ele>
        <time>2022-08-12T18:57:19Z</time>
      </trkpt>
      <trkpt lat="43.239" lon="5.80247">
        <ele>369</ele>
        <time>2022-08-12T18:57:33Z</time>
      </trkpt>
      <trkpt lat="43.23887" lon="5.80264">
        <ele>368</ele>
        <time>2022-08-12T18:57:36Z</time>
      </trkpt>
      <trkpt lat="43.23873" lon="5.80275">
        <ele>368</ele>
        <time>2022-08-12T18:57:39Z</time>
      </trkpt>
      <trkpt lat="43.2385" lon="5.80289">
        <ele>367</ele>
        <time>2022-08-12T18:57:43Z</time>
      </trkpt>
      <trkpt lat="43.23802" lon="5.80308">
        <ele>368</ele>
        <time>2022-08-12T18:57:52Z</time>
      </trkpt>
      <trkpt lat="43.2379" lon="5.80311">
        <ele>369</ele>
        <time>2022-08-12T18:57:55Z</time>
      </trkpt>
      <trkpt lat="43.23779" lon="5.80311">
        <ele>369</ele>
        <time>2022-08-12T18:57:56Z</time>
      </trkpt>
      <trkpt lat="43.23766" lon="5.80307">
        <ele>368</ele>
        <time>2022-08-12T18:57:59Z</time>
      </trkpt>
      <trkpt lat="43.23754" lon="5.80297">
        <ele>366</ele>
        <time>2022-08-12T18:58:01Z</time>
      </trkpt>
      <trkpt lat="43.2374" lon="5.80283">
        <ele>363</ele>
        <time>2022-08-12T18:58:04Z</time>
      </trkpt>
      <trkpt lat="43.23669" lon="5.80196">
        <ele>353</ele>
        <time>2022-08-12T18:58:21Z</time>
      </trkpt>
      <trkpt lat="43.23641" lon="5.80165">
        <ele>349</ele>
        <time>2022-08-12T18:58:28Z</time>
      </trkpt>
      <trkpt lat="43.23632" lon="5.80159">
        <ele>349</ele>
        <time>2022-08-12T18:58:30Z</time>
      </trkpt>
      <trkpt lat="43.23615" lon="5.80156">
        <ele>349</ele>
        <time>2022-08-12T18:58:33Z</time>
      </trkpt>
      <trkpt lat="43.23606" lon="5.80159">
        <ele>350</ele>
        <time>2022-08-12T18:58:34Z</time>
      </trkpt>
      <trkpt lat="43.23595" lon="5.80165">
        <ele>351</ele>
        <time>2022-08-12T18:58:36Z</time>
      </trkpt>
      <trkpt lat="43.23581" lon="5.80178">
        <ele>353</ele>
        <time>2022-08-12T18:58:39Z</time>
      </trkpt>
      <trkpt lat="43.23517" lon="5.80252">
        <ele>349</ele>
        <time>2022-08-12T18:58:54Z</time>
      </trkpt>
      <trkpt lat="43.23442" lon="5.80364">
        <ele>346</ele>
        <time>2022-08-12T18:59:14Z</time>
      </trkpt>
      <trkpt lat="43.23424" lon="5.80396">
        <ele>345</ele>
        <time>2022-08-12T18:59:19Z</time>
      </trkpt>
      <trkpt lat="43.23412" lon="5.80422">
        <ele>344</ele>
        <time>2022-08-12T18:59:23Z</time>
      </trkpt>
      <trkpt lat="43.23381" lon="5.80507">
        <ele>342</ele>
        <time>2022-08-12T18:59:36Z</time>
      </trkpt>
      <trkpt lat="43.2336" lon="5.80583">
        <ele>341</ele>
        <time>2022-08-12T18:59:46Z</time>
      </trkpt>
      <trkpt lat="43.23346" lon="5.80613">
        <ele>341</ele>
        <time>2022-08-12T18:59:51Z</time>
      </trkpt>
      <trkpt lat="43.23319" lon="5.80649">
        <ele>340</ele>
        <time>2022-08-12T18:59:57Z</time>
      </trkpt>
      <trkpt lat="43.23307" lon="5.80668">
        <ele>340</ele>
        <time>2022-08-12T19:00:01Z</time>
      </trkpt>
      <trkpt lat="43.23273" lon="5.8074">
        <ele>337</ele>
        <time>2022-08-12T19:00:12Z</time>
      </trkpt>
      <trkpt lat="43.23259" lon="5.80763">
        <ele>336</ele>
        <time>2022-08-12T19:00:16Z</time>
      </trkpt>
      <trkpt lat="43.23243" lon="5.80785">
        <ele>335</ele>
        <time>2022-08-12T19:00:20Z</time>
      </trkpt>
      <trkpt lat="43.23189" lon="5.80845">
        <ele>331</ele>
        <time>2022-08-12T19:00:32Z</time>
      </trkpt>
      <trkpt lat="43.23173" lon="5.80859">
        <ele>328</ele>
        <time>2022-08-12T19:00:35Z</time>
      </trkpt>
      <trkpt lat="43.23162" lon="5.80866">
        <ele>327</ele>
        <time>2022-08-12T19:00:38Z</time>
      </trkpt>
      <trkpt lat="43.2315" lon="5.80868">
        <ele>325</ele>
        <time>2022-08-12T19:00:40Z</time>
      </trkpt>
      <trkpt lat="43.23139" lon="5.80866">
        <ele>324</ele>
        <time>2022-08-12T19:00:42Z</time>
      </trkpt>
      <trkpt lat="43.23131" lon="5.8086">
        <ele>324</ele>
        <time>2022-08-12T19:00:43Z</time>
      </trkpt>
      <trkpt lat="43.23121" lon="5.80848">
        <ele>324</ele>
        <time>2022-08-12T19:00:46Z</time>
      </trkpt>
      <trkpt lat="43.23116" lon="5.80835">
        <ele>325</ele>
        <time>2022-08-12T19:00:48Z</time>
      </trkpt>
      <trkpt lat="43.23113" lon="5.8082">
        <ele>324</ele>
        <time>2022-08-12T19:00:50Z</time>
      </trkpt>
      <trkpt lat="43.23113" lon="5.80805">
        <ele>324</ele>
        <time>2022-08-12T19:00:52Z</time>
      </trkpt>
      <trkpt lat="43.23117" lon="5.80787">
        <ele>323</ele>
        <time>2022-08-12T19:00:54Z</time>
      </trkpt>
      <trkpt lat="43.23183" lon="5.80605">
        <ele>318</ele>
        <time>2022-08-12T19:01:20Z</time>
      </trkpt>
      <trkpt lat="43.23186" lon="5.8059">
        <ele>317</ele>
        <time>2022-08-12T19:01:22Z</time>
      </trkpt>
      <trkpt lat="43.23186" lon="5.80564">
        <ele>315</ele>
        <time>2022-08-12T19:01:26Z</time>
      </trkpt>
      <trkpt lat="43.23182" lon="5.8055">
        <ele>313</ele>
        <time>2022-08-12T19:01:28Z</time>
      </trkpt>
      <trkpt lat="43.23175" lon="5.80536">
        <ele>311</ele>
        <time>2022-08-12T19:01:30Z</time>
      </trkpt>
      <trkpt lat="43.23162" lon="5.80525">
        <ele>309</ele>
        <time>2022-08-12T19:01:33Z</time>
      </trkpt>
      <trkpt lat="43.23148" lon="5.80517">
        <ele>308</ele>
        <time>2022-08-12T19:01:35Z</time>
      </trkpt>
      <trkpt lat="43.23132" lon="5.80512">
        <ele>307</ele>
        <time>2022-08-12T19:01:38Z</time>
      </trkpt>
      <trkpt lat="43.23117" lon="5.8051">
        <ele>307</ele>
        <time>2022-08-12T19:01:41Z</time>
      </trkpt>
      <trkpt lat="43.23103" lon="5.80512">
        <ele>306</ele>
        <time>2022-08-12T19:01:43Z</time>
      </trkpt>
      <trkpt lat="43.2309" lon="5.80517">
        <ele>306</ele>
        <time>2022-08-12T19:01:46Z</time>
      </trkpt>
      <trkpt lat="43.23079" lon="5.80525">
        <ele>306</ele>
        <time>2022-08-12T19:01:48Z</time>
      </trkpt>
      <trkpt lat="43.23057" lon="5.80552">
        <ele>304</ele>
        <time>2022-08-12T19:01:53Z</time>
      </trkpt>
      <trkpt lat="43.22935" lon="5.8077">
        <ele>299</ele>
        <time>2022-08-12T19:02:29Z</time>
      </trkpt>
      <trkpt lat="43.22917" lon="5.80799">
        <ele>299</ele>
        <time>2022-08-12T19:02:34Z</time>
      </trkpt>
      <trkpt lat="43.22894" lon="5.80821">
        <ele>298</ele>
        <time>2022-08-12T19:02:39Z</time>
      </trkpt>
      <trkpt lat="43.22721" lon="5.80958">
        <ele>290</ele>
        <time>2022-08-12T19:03:14Z</time>
      </trkpt>
      <trkpt lat="43.22623" lon="5.81038">
        <ele>285</ele>
        <time>2022-08-12T19:03:35Z</time>
      </trkpt>
      <trkpt lat="43.22608" lon="5.81047">
        <ele>285</ele>
        <time>2022-08-12T19:03:38Z</time>
      </trkpt>
      <trkpt lat="43.22594" lon="5.81052">
        <ele>284</ele>
        <time>2022-08-12T19:03:40Z</time>
      </trkpt>
      <trkpt lat="43.22579" lon="5.81051">
        <ele>283</ele>
        <time>2022-08-12T19:03:43Z</time>
      </trkpt>
      <trkpt lat="43.22547" lon="5.81043">
        <ele>278</ele>
        <time>2022-08-12T19:03:49Z</time>
      </trkpt>
      <trkpt lat="43.22522" lon="5.81042">
        <ele>276</ele>
        <time>2022-08-12T19:03:53Z</time>
      </trkpt>
      <trkpt lat="43.22503" lon="5.81048">
        <ele>274</ele>
        <time>2022-08-12T19:03:57Z</time>
      </trkpt>
      <trkpt lat="43.22481" lon="5.81062">
        <ele>273</ele>
        <time>2022-08-12T19:04:01Z</time>
      </trkpt>
      <trkpt lat="43.22464" lon="5.8108">
        <ele>273</ele>
        <time>2022-08-12T19:04:05Z</time>
      </trkpt>
      <trkpt lat="43.22453" lon="5.811">
        <ele>272</ele>
        <time>2022-08-12T19:04:08Z</time>
      </trkpt>
      <trkpt lat="43.22434" lon="5.81153">
        <ele>272</ele>
        <time>2022-08-12T19:04:16Z</time>
      </trkpt>
      <trkpt lat="43.22422" lon="5.81174">
        <ele>271</ele>
        <time>2022-08-12T19:04:19Z</time>
      </trkpt>
      <trkpt lat="43.22409" lon="5.81189">
        <ele>271</ele>
        <time>2022-08-12T19:04:22Z</time>
      </trkpt>
      <trkpt lat="43.22384" lon="5.8121">
        <ele>269</ele>
        <time>2022-08-12T19:04:27Z</time>
      </trkpt>
      <trkpt lat="43.22353" lon="5.81232">
        <ele>269</ele>
        <time>2022-08-12T19:04:33Z</time>
      </trkpt>
      <trkpt lat="43.22338" lon="5.81236">
        <ele>268</ele>
        <time>2022-08-12T19:04:36Z</time>
      </trkpt>
      <trkpt lat="43.22323" lon="5.81236">
        <ele>267</ele>
        <time>2022-08-12T19:04:39Z</time>
      </trkpt>
      <trkpt lat="43.22279" lon="5.81224">
        <ele>264</ele>
        <time>2022-08-12T19:04:47Z</time>
      </trkpt>
      <trkpt lat="43.22217" lon="5.81204">
        <ele>259</ele>
        <time>2022-08-12T19:04:58Z</time>
      </trkpt>
      <trkpt lat="43.22204" lon="5.81202">
        <ele>259</ele>
        <time>2022-08-12T19:05:01Z</time>
      </trkpt>
      <trkpt lat="43.22189" lon="5.81202">
        <ele>258</ele>
        <time>2022-08-12T19:05:03Z</time>
      </trkpt>
      <trkpt lat="43.22174" lon="5.81207">
        <ele>258</ele>
        <time>2022-08-12T19:05:06Z</time>
      </trkpt>
      <trkpt lat="43.2216" lon="5.81213">
        <ele>257</ele>
        <time>2022-08-12T19:05:09Z</time>
      </trkpt>
      <trkpt lat="43.22001" lon="5.81328">
        <ele>249</ele>
        <time>2022-08-12T19:05:41Z</time>
      </trkpt>
      <trkpt lat="43.21972" lon="5.81343">
        <ele>247</ele>
        <time>2022-08-12T19:05:46Z</time>
      </trkpt>
      <trkpt lat="43.2191" lon="5.81366">
        <ele>245</ele>
        <time>2022-08-12T19:05:57Z</time>
      </trkpt>
      <trkpt lat="43.21899" lon="5.81366">
        <ele>244</ele>
        <time>2022-08-12T19:05:59Z</time>
      </trkpt>
      <trkpt lat="43.21879" lon="5.81361">
        <ele>242</ele>
        <time>2022-08-12T19:06:03Z</time>
      </trkpt>
      <trkpt lat="43.21869" lon="5.81354">
        <ele>241</ele>
        <time>2022-08-12T19:06:05Z</time>
      </trkpt>
      <trkpt lat="43.21852" lon="5.81338">
        <ele>240</ele>
        <time>2022-08-12T19:06:09Z</time>
      </trkpt>
      <trkpt lat="43.21844" lon="5.81324">
        <ele>238</ele>
        <time>2022-08-12T19:06:11Z</time>
      </trkpt>
      <trkpt lat="43.21839" lon="5.81307">
        <ele>238</ele>
        <time>2022-08-12T19:06:13Z</time>
      </trkpt>
      <trkpt lat="43.21836" lon="5.8129">
        <ele>237</ele>
        <time>2022-08-12T19:06:16Z</time>
      </trkpt>
      <trkpt lat="43.21825" lon="5.81079">
        <ele>231</ele>
        <time>2022-08-12T19:06:43Z</time>
      </trkpt>
      <trkpt lat="43.21825" lon="5.81038">
        <ele>230</ele>
        <time>2022-08-12T19:06:48Z</time>
      </trkpt>
      <trkpt lat="43.21829" lon="5.81015">
        <ele>230</ele>
        <time>2022-08-12T19:06:51Z</time>
      </trkpt>
      <trkpt lat="43.21853" lon="5.8092">
        <ele>228</ele>
        <time>2022-08-12T19:07:05Z</time>
      </trkpt>
      <trkpt lat="43.21858" lon="5.80894">
        <ele>227</ele>
        <time>2022-08-12T19:07:08Z</time>
      </trkpt>
      <trkpt lat="43.21858" lon="5.80869">
        <ele>227</ele>
        <time>2022-08-12T19:07:11Z</time>
      </trkpt>
      <trkpt lat="43.21855" lon="5.80851">
        <ele>227</ele>
        <time>2022-08-12T19:07:14Z</time>
      </trkpt>
      <trkpt lat="43.2186" lon="5.80844">
        <ele>227</ele>
        <time>2022-08-12T19:07:15Z</time>
      </trkpt>
      <trkpt lat="43.21861" lon="5.80838">
        <ele>227</ele>
        <time>2022-08-12T19:07:16Z</time>
      </trkpt>
      <trkpt lat="43.21859" lon="5.80817">
        <ele>227</ele>
        <time>2022-08-12T19:07:18Z</time>
      </trkpt>
      <trkpt lat="43.21849" lon="5.80781">
        <ele>227</ele>
        <time>2022-08-12T19:07:23Z</time>
      </trkpt>
      <trkpt lat="43.21836" lon="5.80766">
        <ele>227</ele>
        <time>2022-08-12T19:07:26Z</time>
      </trkpt>
      <trkpt lat="43.2185" lon="5.80734">
        <ele>226</ele>
        <time>2022-08-12T19:07:31Z</time>
      </trkpt>
      <trkpt lat="43.21879" lon="5.80681">
        <ele>223</ele>
        <time>2022-08-12T19:07:40Z</time>
      </trkpt>
      <trkpt lat="43.21923" lon="5.80546">
        <ele>214</ele>
        <time>2022-08-12T19:07:59Z</time>
      </trkpt>
      <trkpt lat="43.21933" lon="5.80527">
        <ele>211</ele>
        <time>2022-08-12T19:08:02Z</time>
      </trkpt>
      <trkpt lat="43.21933" lon="5.80514">
        <ele>210</ele>
        <time>2022-08-12T19:08:04Z</time>
      </trkpt>
      <trkpt lat="43.2191" lon="5.80453">
        <ele>207</ele>
        <time>2022-08-12T19:08:13Z</time>
      </trkpt>
      <trkpt lat="43.21893" lon="5.80426">
        <ele>205</ele>
        <time>2022-08-12T19:08:17Z</time>
      </trkpt>
      <trkpt lat="43.21877" lon="5.80409">
        <ele>204</ele>
        <time>2022-08-12T19:08:21Z</time>
      </trkpt>
      <trkpt lat="43.21846" lon="5.80397">
        <ele>203</ele>
        <time>2022-08-12T19:08:27Z</time>
      </trkpt>
      <trkpt lat="43.21812" lon="5.80324">
        <ele>202</ele>
        <time>2022-08-12T19:08:38Z</time>
      </trkpt>
      <trkpt lat="43.21799" lon="5.80283">
        <ele>199</ele>
        <time>2022-08-12T19:08:44Z</time>
      </trkpt>
      <trkpt lat="43.21755" lon="5.80181">
        <ele>188</ele>
        <time>2022-08-12T19:08:59Z</time>
      </trkpt>
      <trkpt lat="43.21746" lon="5.80183">
        <ele>188</ele>
        <time>2022-08-12T19:09:01Z</time>
      </trkpt>
      <trkpt lat="43.21705" lon="5.80226">
        <ele>189</ele>
        <time>2022-08-12T19:09:10Z</time>
      </trkpt>
      <trkpt lat="43.21695" lon="5.80231">
        <ele>188</ele>
        <time>2022-08-12T19:09:12Z</time>
      </trkpt>
      <trkpt lat="43.21649" lon="5.80271">
        <ele>187</ele>
        <time>2022-08-12T19:09:21Z</time>
      </trkpt>
      <trkpt lat="43.2158" lon="5.80337">
        <ele>181</ele>
        <time>2022-08-12T19:09:36Z</time>
      </trkpt>
      <trkpt lat="43.21545" lon="5.8034">
        <ele>177</ele>
        <time>2022-08-12T19:09:43Z</time>
      </trkpt>
      <trkpt lat="43.21526" lon="5.80351">
        <ele>175</ele>
        <time>2022-08-12T19:09:46Z</time>
      </trkpt>
      <trkpt lat="43.21518" lon="5.80359">
        <ele>174</ele>
        <time>2022-08-12T19:09:48Z</time>
      </trkpt>
      <trkpt lat="43.21479" lon="5.80375">
        <ele>170</ele>
        <time>2022-08-12T19:09:55Z</time>
      </trkpt>
      <trkpt lat="43.21466" lon="5.80372">
        <ele>168</ele>
        <time>2022-08-12T19:09:58Z</time>
      </trkpt>
      <trkpt lat="43.21451" lon="5.80363">
        <ele>166</ele>
        <time>2022-08-12T19:10:01Z</time>
      </trkpt>
      <trkpt lat="43.21417" lon="5.80353">
        <ele>163</ele>
        <time>2022-08-12T19:10:07Z</time>
      </trkpt>
      <trkpt lat="43.21393" lon="5.8035">
        <ele>164</ele>
        <time>2022-08-12T19:10:11Z</time>
      </trkpt>
      <trkpt lat="43.21377" lon="5.8036">
        <ele>165</ele>
        <time>2022-08-12T19:10:14Z</time>
      </trkpt>
      <trkpt lat="43.21364" lon="5.80376">
        <ele>166</ele>
        <time>2022-08-12T19:10:17Z</time>
      </trkpt>
      <trkpt lat="43.21357" lon="5.80378">
        <ele>166</ele>
        <time>2022-08-12T19:10:19Z</time>
      </trkpt>
      <trkpt lat="43.21353" lon="5.80392">
        <ele>167</ele>
        <time>2022-08-12T19:10:21Z</time>
      </trkpt>
      <trkpt lat="43.21352" lon="5.80419">
        <ele>167</ele>
        <time>2022-08-12T19:10:24Z</time>
      </trkpt>
      <trkpt lat="43.21345" lon="5.80437">
        <ele>167</ele>
        <time>2022-08-12T19:10:27Z</time>
      </trkpt>
      <trkpt lat="43.21321" lon="5.80452">
        <ele>168</ele>
        <time>2022-08-12T19:10:31Z</time>
      </trkpt>
      <trkpt lat="43.21303" lon="5.80457">
        <ele>169</ele>
        <time>2022-08-12T19:10:35Z</time>
      </trkpt>
      <trkpt lat="43.21287" lon="5.80457">
        <ele>171</ele>
        <time>2022-08-12T19:10:37Z</time>
      </trkpt>
      <trkpt lat="43.21274" lon="5.80458">
        <ele>172</ele>
        <time>2022-08-12T19:10:40Z</time>
      </trkpt>
      <trkpt lat="43.21254" lon="5.80472">
        <ele>174</ele>
        <time>2022-08-12T19:10:44Z</time>
      </trkpt>
      <trkpt lat="43.2124" lon="5.80481">
        <ele>174</ele>
        <time>2022-08-12T19:10:47Z</time>
      </trkpt>
      <trkpt lat="43.21213" lon="5.80504">
        <ele>172</ele>
        <time>2022-08-12T19:10:52Z</time>
      </trkpt>
      <trkpt lat="43.21198" lon="5.80511">
        <ele>172</ele>
        <time>2022-08-12T19:10:55Z</time>
      </trkpt>
      <trkpt lat="43.21185" lon="5.80511">
        <ele>172</ele>
        <time>2022-08-12T19:10:57Z</time>
      </trkpt>
      <trkpt lat="43.21174" lon="5.80507">
        <ele>172</ele>
        <time>2022-08-12T19:10:59Z</time>
      </trkpt>
      <trkpt lat="43.2116" lon="5.80506">
        <ele>172</ele>
        <time>2022-08-12T19:11:02Z</time>
      </trkpt>
      <trkpt lat="43.21098" lon="5.8053">
        <ele>171</ele>
        <time>2022-08-12T19:11:13Z</time>
      </trkpt>
      <trkpt lat="43.20954" lon="5.80557">
        <ele>171</ele>
        <time>2022-08-12T19:11:39Z</time>
      </trkpt>
      <trkpt lat="43.20928" lon="5.80565">
        <ele>171</ele>
        <time>2022-08-12T19:11:44Z</time>
      </trkpt>
      <trkpt lat="43.209" lon="5.80585">
        <ele>171</ele>
        <time>2022-08-12T19:11:50Z</time>
      </trkpt>
      <trkpt lat="43.20836" lon="5.80625">
        <ele>173</ele>
        <time>2022-08-12T19:12:02Z</time>
      </trkpt>
      <trkpt lat="43.20764" lon="5.80665">
        <ele>171</ele>
        <time>2022-08-12T19:12:16Z</time>
      </trkpt>
      <trkpt lat="43.20749" lon="5.80676">
        <ele>170</ele>
        <time>2022-08-12T19:12:19Z</time>
      </trkpt>
      <trkpt lat="43.20731" lon="5.80684">
        <ele>170</ele>
        <time>2022-08-12T19:12:22Z</time>
      </trkpt>
      <trkpt lat="43.20674" lon="5.80704">
        <ele>167</ele>
        <time>2022-08-12T19:12:33Z</time>
      </trkpt>
      <trkpt lat="43.20637" lon="5.80718">
        <ele>166</ele>
        <time>2022-08-12T19:12:40Z</time>
      </trkpt>
      <trkpt lat="43.20622" lon="5.80718">
        <ele>165</ele>
        <time>2022-08-12T19:12:42Z</time>
      </trkpt>
      <trkpt lat="43.20614" lon="5.80708">
        <ele>165</ele>
        <time>2022-08-12T19:12:44Z</time>
      </trkpt>
      <trkpt lat="43.206" lon="5.80699">
        <ele>164</ele>
        <time>2022-08-12T19:12:47Z</time>
      </trkpt>
      <trkpt lat="43.2059" lon="5.80704">
        <ele>164</ele>
        <time>2022-08-12T19:12:49Z</time>
      </trkpt>
      <trkpt lat="43.20548" lon="5.80735">
        <ele>167</ele>
        <time>2022-08-12T19:12:57Z</time>
      </trkpt>
      <trkpt lat="43.2051" lon="5.80737">
        <ele>170</ele>
        <time>2022-08-12T19:13:04Z</time>
      </trkpt>
      <trkpt lat="43.20468" lon="5.8078">
        <ele>174</ele>
        <time>2022-08-12T19:13:13Z</time>
      </trkpt>
      <trkpt lat="43.20456" lon="5.80806">
        <ele>175</ele>
        <time>2022-08-12T19:13:17Z</time>
      </trkpt>
      <trkpt lat="43.20441" lon="5.80846">
        <ele>176</ele>
        <time>2022-08-12T19:13:23Z</time>
      </trkpt>
      <trkpt lat="43.20393" lon="5.80804">
        <ele>173</ele>
        <time>2022-08-12T19:13:33Z</time>
      </trkpt>
      <trkpt lat="43.2035" lon="5.80782">
        <ele>171</ele>
        <time>2022-08-12T19:13:41Z</time>
      </trkpt>
      <trkpt lat="43.20338" lon="5.80779">
        <ele>171</ele>
        <time>2022-08-12T19:13:44Z</time>
      </trkpt>
      <trkpt lat="43.20323" lon="5.80777">
        <ele>170</ele>
        <time>2022-08-12T19:13:46Z</time>
      </trkpt>
      <trkpt lat="43.20302" lon="5.80778">
        <ele>169</ele>
        <time>2022-08-12T19:13:50Z</time>
      </trkpt>
      <trkpt lat="43.2026" lon="5.80784">
        <ele>167</ele>
        <time>2022-08-12T19:13:58Z</time>
      </trkpt>
      <trkpt lat="43.20217" lon="5.80793">
        <ele>164</ele>
        <time>2022-08-12T19:14:05Z</time>
      </trkpt>
      <trkpt lat="43.20151" lon="5.80802">
        <ele>159</ele>
        <time>2022-08-12T19:14:17Z</time>
      </trkpt>
      <trkpt lat="43.20125" lon="5.80803">
        <ele>158</ele>
        <time>2022-08-12T19:14:22Z</time>
      </trkpt>
      <trkpt lat="43.20076" lon="5.808">
        <ele>157</ele>
        <time>2022-08-12T19:14:30Z</time>
      </trkpt>
      <trkpt lat="43.20032" lon="5.80789">
        <ele>156</ele>
        <time>2022-08-12T19:14:38Z</time>
      </trkpt>
      <trkpt lat="43.20003" lon="5.80775">
        <ele>157</ele>
        <time>2022-08-12T19:14:44Z</time>
      </trkpt>
      <trkpt lat="43.19876" lon="5.80697">
        <ele>159</ele>
        <time>2022-08-12T19:15:09Z</time>
      </trkpt>
      <trkpt lat="43.1987" lon="5.80686">
        <ele>160</ele>
        <time>2022-08-12T19:15:10Z</time>
      </trkpt>
      <trkpt lat="43.1984" lon="5.80665">
        <ele>160</ele>
        <time>2022-08-12T19:15:16Z</time>
      </trkpt>
      <trkpt lat="43.19795" lon="5.80641">
        <ele>162</ele>
        <time>2022-08-12T19:15:25Z</time>
      </trkpt>
      <trkpt lat="43.1972" lon="5.80596">
        <ele>166</ele>
        <time>2022-08-12T19:15:40Z</time>
      </trkpt>
      <trkpt lat="43.19696" lon="5.80589">
        <ele>167</ele>
        <time>2022-08-12T19:15:44Z</time>
      </trkpt>
      <trkpt lat="43.19668" lon="5.80587">
        <ele>168</ele>
        <time>2022-08-12T19:15:49Z</time>
      </trkpt>
      <trkpt lat="43.1964" lon="5.80591">
        <ele>168</ele>
        <time>2022-08-12T19:15:54Z</time>
      </trkpt>
      <trkpt lat="43.19611" lon="5.80598">
        <ele>168</ele>
        <time>2022-08-12T19:15:59Z</time>
      </trkpt>
      <trkpt lat="43.19598" lon="5.80605">
        <ele>168</ele>
        <time>2022-08-12T19:16:02Z</time>
      </trkpt>
      <trkpt lat="43.19572" lon="5.80628">
        <ele>168</ele>
        <time>2022-08-12T19:16:07Z</time>
      </trkpt>
      <trkpt lat="43.19566" lon="5.80626">
        <ele>168</ele>
        <time>2022-08-12T19:16:08Z</time>
      </trkpt>
      <trkpt lat="43.19559" lon="5.80628">
        <ele>168</ele>
        <time>2022-08-12T19:16:10Z</time>
      </trkpt>
      <trkpt lat="43.19555" lon="5.80632">
        <ele>168</ele>
        <time>2022-08-12T19:16:10Z</time>
      </trkpt>
      <trkpt lat="43.19533" lon="5.80628">
        <ele>169</ele>
        <time>2022-08-12T19:16:14Z</time>
      </trkpt>
      <trkpt lat="43.19526" lon="5.80634">
        <ele>169</ele>
        <time>2022-08-12T19:16:16Z</time>
      </trkpt>
      <trkpt lat="43.19519" lon="5.80655">
        <ele>169</ele>
        <time>2022-08-12T19:16:19Z</time>
      </trkpt>
      <trkpt lat="43.19513" lon="5.8066">
        <ele>169</ele>
        <time>2022-08-12T19:16:20Z</time>
      </trkpt>
      <trkpt lat="43.19507" lon="5.8066">
        <ele>169</ele>
        <time>2022-08-12T19:16:21Z</time>
      </trkpt>
      <trkpt lat="43.19495" lon="5.80655">
        <ele>169</ele>
        <time>2022-08-12T19:16:23Z</time>
      </trkpt>
      <trkpt lat="43.19489" lon="5.80664">
        <ele>169</ele>
        <time>2022-08-12T19:16:25Z</time>
      </trkpt>
      <trkpt lat="43.19463" lon="5.80709">
        <ele>170</ele>
        <time>2022-08-12T19:16:32Z</time>
      </trkpt>
      <trkpt lat="43.19439" lon="5.80739">
        <ele>171</ele>
        <time>2022-08-12T19:16:38Z</time>
      </trkpt>
      <trkpt lat="43.19463" lon="5.80776">
        <ele>170</ele>
        <time>2022-08-12T19:16:45Z</time>
      </trkpt>
      <trkpt lat="43.19451" lon="5.808">
        <ele>170</ele>
        <time>2022-08-12T19:16:48Z</time>
      </trkpt>
      <trkpt lat="43.19435" lon="5.80823">
        <ele>170</ele>
        <time>2022-08-12T19:16:53Z</time>
      </trkpt>
      <trkpt lat="43.1919" lon="5.81153">
        <ele>175</ele>
        <time>2022-08-12T19:17:54Z</time>
      </trkpt>
      <trkpt lat="43.19167" lon="5.81182">
        <ele>175</ele>
        <time>2022-08-12T19:17:59Z</time>
      </trkpt>
      <trkpt lat="43.19153" lon="5.8119">
        <ele>175</ele>
        <time>2022-08-12T19:18:02Z</time>
      </trkpt>
      <trkpt lat="43.19142" lon="5.81187">
        <ele>176</ele>
        <time>2022-08-12T19:18:04Z</time>
      </trkpt>
      <trkpt lat="43.19136" lon="5.81188">
        <ele>176</ele>
        <time>2022-08-12T19:18:05Z</time>
      </trkpt>
      <trkpt lat="43.19125" lon="5.81193">
        <ele>176</ele>
        <time>2022-08-12T19:18:07Z</time>
      </trkpt>
      <trkpt lat="43.19113" lon="5.81208">
        <ele>176</ele>
        <time>2022-08-12T19:18:10Z</time>
      </trkpt>
      <trkpt lat="43.19107" lon="5.81226">
        <ele>176</ele>
        <time>2022-08-12T19:18:12Z</time>
      </trkpt>
      <trkpt lat="43.19107" lon="5.81246">
        <ele>175</ele>
        <time>2022-08-12T19:18:15Z</time>
      </trkpt>
      <trkpt lat="43.19105" lon="5.81259">
        <ele>175</ele>
        <time>2022-08-12T19:18:17Z</time>
      </trkpt>
      <trkpt lat="43.19099" lon="5.81273">
        <ele>175</ele>
        <time>2022-08-12T19:18:19Z</time>
      </trkpt>
      <trkpt lat="43.1908" lon="5.813">
        <ele>176</ele>
        <time>2022-08-12T19:18:24Z</time>
      </trkpt>
      <trkpt lat="43.18886" lon="5.81559">
        <ele>179</ele>
        <time>2022-08-12T19:19:12Z</time>
      </trkpt>
      <trkpt lat="43.18842" lon="5.81611">
        <ele>180</ele>
        <time>2022-08-12T19:19:22Z</time>
      </trkpt>
      <trkpt lat="43.18725" lon="5.81735">
        <ele>179</ele>
        <time>2022-08-12T19:19:49Z</time>
      </trkpt>
      <trkpt lat="43.18679" lon="5.81777">
        <ele>179</ele>
        <time>2022-08-12T19:19:58Z</time>
      </trkpt>
      <trkpt lat="43.18646" lon="5.81809">
        <ele>179</ele>
        <time>2022-08-12T19:20:06Z</time>
      </trkpt>
      <trkpt lat="43.1851" lon="5.81954">
        <ele>180</ele>
        <time>2022-08-12T19:20:36Z</time>
      </trkpt>
      <trkpt lat="43.18276" lon="5.82177">
        <ele>173</ele>
        <time>2022-08-12T19:21:27Z</time>
      </trkpt>
      <trkpt lat="43.18265" lon="5.82183">
        <ele>173</ele>
        <time>2022-08-12T19:21:29Z</time>
      </trkpt>
      <trkpt lat="43.18225" lon="5.82222">
        <ele>172</ele>
        <time>2022-08-12T19:21:38Z</time>
      </trkpt>
      <trkpt lat="43.1821" lon="5.8224">
        <ele>171</ele>
        <time>2022-08-12T19:21:41Z</time>
      </trkpt>
      <trkpt lat="43.17945" lon="5.8249">
        <ele>164</ele>
        <time>2022-08-12T19:22:39Z</time>
      </trkpt>
      <trkpt lat="43.17595" lon="5.82736">
        <ele>155</ele>
        <time>2022-08-12T19:23:49Z</time>
      </trkpt>
      <trkpt lat="43.17569" lon="5.82748">
        <ele>154</ele>
        <time>2022-08-12T19:23:53Z</time>
      </trkpt>
      <trkpt lat="43.1755" lon="5.82749">
        <ele>154</ele>
        <time>2022-08-12T19:23:57Z</time>
      </trkpt>
      <trkpt lat="43.17545" lon="5.82743">
        <ele>155</ele>
        <time>2022-08-12T19:23:58Z</time>
      </trkpt>
      <trkpt lat="43.17537" lon="5.82743">
        <ele>155</ele>
        <time>2022-08-12T19:23:59Z</time>
      </trkpt>
      <trkpt lat="43.17534" lon="5.82746">
        <ele>155</ele>
        <time>2022-08-12T19:24:00Z</time>
      </trkpt>
      <trkpt lat="43.17519" lon="5.82776">
        <ele>154</ele>
        <time>2022-08-12T19:24:05Z</time>
      </trkpt>
      <trkpt lat="43.17499" lon="5.82804">
        <ele>154</ele>
        <time>2022-08-12T19:24:10Z</time>
      </trkpt>
      <trkpt lat="43.17212" lon="5.83006">
        <ele>148</ele>
        <time>2022-08-12T19:25:07Z</time>
      </trkpt>
      <trkpt lat="43.17198" lon="5.83015">
        <ele>148</ele>
        <time>2022-08-12T19:25:10Z</time>
      </trkpt>
      <trkpt lat="43.17178" lon="5.83023">
        <ele>148</ele>
        <time>2022-08-12T19:25:14Z</time>
      </trkpt>
      <trkpt lat="43.17154" lon="5.8303">
        <ele>147</ele>
        <time>2022-08-12T19:25:18Z</time>
      </trkpt>
      <trkpt lat="43.17137" lon="5.83032">
        <ele>146</ele>
        <time>2022-08-12T19:25:21Z</time>
      </trkpt>
      <trkpt lat="43.171" lon="5.83026">
        <ele>145</ele>
        <time>2022-08-12T19:25:28Z</time>
      </trkpt>
      <trkpt lat="43.17077" lon="5.83015">
        <ele>144</ele>
        <time>2022-08-12T19:25:32Z</time>
      </trkpt>
      <trkpt lat="43.1705" lon="5.82996">
        <ele>144</ele>
        <time>2022-08-12T19:25:38Z</time>
      </trkpt>
      <trkpt lat="43.16961" lon="5.82926">
        <ele>143</ele>
        <time>2022-08-12T19:25:56Z</time>
      </trkpt>
      <trkpt lat="43.16928" lon="5.82903">
        <ele>142</ele>
        <time>2022-08-12T19:26:02Z</time>
      </trkpt>
      <trkpt lat="43.16908" lon="5.82894">
        <ele>142</ele>
        <time>2022-08-12T19:26:06Z</time>
      </trkpt>
      <trkpt lat="43.16763" lon="5.82849">
        <ele>141</ele>
        <time>2022-08-12T19:26:33Z</time>
      </trkpt>
      <trkpt lat="43.16723" lon="5.82853">
        <ele>140</ele>
        <time>2022-08-12T19:26:40Z</time>
      </trkpt>
      <trkpt lat="43.16692" lon="5.82858">
        <ele>140</ele>
        <time>2022-08-12T19:26:45Z</time>
      </trkpt>
      <trkpt lat="43.16649" lon="5.82873">
        <ele>139</ele>
        <time>2022-08-12T19:26:53Z</time>
      </trkpt>
      <trkpt lat="43.1651" lon="5.82948">
        <ele>135</ele>
        <time>2022-08-12T19:27:20Z</time>
      </trkpt>
      <trkpt lat="43.16473" lon="5.8297">
        <ele>138</ele>
        <time>2022-08-12T19:27:27Z</time>
      </trkpt>
      <trkpt lat="43.16407" lon="5.83024">
        <ele>143</ele>
        <time>2022-08-12T19:27:41Z</time>
      </trkpt>
      <trkpt lat="43.16389" lon="5.83042">
        <ele>143</ele>
        <time>2022-08-12T19:27:45Z</time>
      </trkpt>
      <trkpt lat="43.16371" lon="5.83064">
        <ele>141</ele>
        <time>2022-08-12T19:27:49Z</time>
      </trkpt>
      <trkpt lat="43.16327" lon="5.83131">
        <ele>137</ele>
        <time>2022-08-12T19:28:01Z</time>
      </trkpt>
      <trkpt lat="43.16307" lon="5.83173">
        <ele>136</ele>
        <time>2022-08-12T19:28:07Z</time>
      </trkpt>
      <trkpt lat="43.16299" lon="5.83208">
        <ele>136</ele>
        <time>2022-08-12T19:28:12Z</time>
      </trkpt>
      <trkpt lat="43.16298" lon="5.83224">
        <ele>136</ele>
        <time>2022-08-12T19:28:14Z</time>
      </trkpt>
      <trkpt lat="43.16301" lon="5.83273">
        <ele>136</ele>
        <time>2022-08-12T19:28:20Z</time>
      </trkpt>
      <trkpt lat="43.16299" lon="5.83286">
        <ele>136</ele>
        <time>2022-08-12T19:28:22Z</time>
      </trkpt>
      <trkpt lat="43.16295" lon="5.83299">
        <ele>136</ele>
        <time>2022-08-12T19:28:24Z</time>
      </trkpt>
      <trkpt lat="43.16289" lon="5.83306">
        <ele>135</ele>
        <time>2022-08-12T19:28:25Z</time>
      </trkpt>
      <trkpt lat="43.1628" lon="5.83312">
        <ele>135</ele>
        <time>2022-08-12T19:28:27Z</time>
      </trkpt>
      <trkpt lat="43.16272" lon="5.83315">
        <ele>134</ele>
        <time>2022-08-12T19:28:28Z</time>
      </trkpt>
      <trkpt lat="43.16263" lon="5.83315">
        <ele>133</ele>
        <time>2022-08-12T19:28:30Z</time>
      </trkpt>
      <trkpt lat="43.16245" lon="5.83305">
        <ele>133</ele>
        <time>2022-08-12T19:28:34Z</time>
      </trkpt>
      <trkpt lat="43.16208" lon="5.83273">
        <ele>133</ele>
        <time>2022-08-12T19:28:41Z</time>
      </trkpt>
      <trkpt lat="43.16178" lon="5.83246">
        <ele>132</ele>
        <time>2022-08-12T19:28:48Z</time>
      </trkpt>
      <trkpt lat="43.16162" lon="5.83228">
        <ele>132</ele>
        <time>2022-08-12T19:28:51Z</time>
      </trkpt>
      <trkpt lat="43.16139" lon="5.83195">
        <ele>132</ele>
        <time>2022-08-12T19:28:57Z</time>
      </trkpt>
      <trkpt lat="43.16087" lon="5.83136">
        <ele>134</ele>
        <time>2022-08-12T19:29:09Z</time>
      </trkpt>
      <trkpt lat="43.16069" lon="5.83124">
        <ele>134</ele>
        <time>2022-08-12T19:29:13Z</time>
      </trkpt>
      <trkpt lat="43.16058" lon="5.83123">
        <ele>134</ele>
        <time>2022-08-12T19:29:15Z</time>
      </trkpt>
      <trkpt lat="43.16029" lon="5.83129">
        <ele>131</ele>
        <time>2022-08-12T19:29:20Z</time>
      </trkpt>
      <trkpt lat="43.16017" lon="5.83134">
        <ele>130</ele>
        <time>2022-08-12T19:29:22Z</time>
      </trkpt>
      <trkpt lat="43.16004" lon="5.83141">
        <ele>129</ele>
        <time>2022-08-12T19:29:25Z</time>
      </trkpt>
      <trkpt lat="43.15986" lon="5.83157">
        <ele>130</ele>
        <time>2022-08-12T19:29:29Z</time>
      </trkpt>
      <trkpt lat="43.15958" lon="5.8319">
        <ele>135</ele>
        <time>2022-08-12T19:29:35Z</time>
      </trkpt>
      <trkpt lat="43.15949" lon="5.83206">
        <ele>136</ele>
        <time>2022-08-12T19:29:38Z</time>
      </trkpt>
      <trkpt lat="43.15941" lon="5.83224">
        <ele>137</ele>
        <time>2022-08-12T19:29:41Z</time>
      </trkpt>
      <trkpt lat="43.15937" lon="5.83241">
        <ele>137</ele>
        <time>2022-08-12T19:29:43Z</time>
      </trkpt>
      <trkpt lat="43.15925" lon="5.8338">
        <ele>135</ele>
        <time>2022-08-12T19:30:01Z</time>
      </trkpt>
      <trkpt lat="43.1592" lon="5.83411">
        <ele>133</ele>
        <time>2022-08-12T19:30:05Z</time>
      </trkpt>
      <trkpt lat="43.15915" lon="5.83434">
        <ele>133</ele>
        <time>2022-08-12T19:30:08Z</time>
      </trkpt>
      <trkpt lat="43.15905" lon="5.83461">
        <ele>136</ele>
        <time>2022-08-12T19:30:12Z</time>
      </trkpt>
      <trkpt lat="43.15875" lon="5.83537">
        <ele>137</ele>
        <time>2022-08-12T19:30:23Z</time>
      </trkpt>
      <trkpt lat="43.15855" lon="5.83566">
        <ele>135</ele>
        <time>2022-08-12T19:30:29Z</time>
      </trkpt>
      <trkpt lat="43.15803" lon="5.83625">
        <ele>138</ele>
        <time>2022-08-12T19:30:41Z</time>
      </trkpt>
      <trkpt lat="43.15786" lon="5.83648">
        <ele>142</ele>
        <time>2022-08-12T19:30:45Z</time>
      </trkpt>
      <trkpt lat="43.15777" lon="5.83665">
        <ele>143</ele>
        <time>2022-08-12T19:30:48Z</time>
      </trkpt>
      <trkpt lat="43.15771" lon="5.83681">
        <ele>145</ele>
        <time>2022-08-12T19:30:50Z</time>
      </trkpt>
      <trkpt lat="43.15767" lon="5.83699">
        <ele>146</ele>
        <time>2022-08-12T19:30:52Z</time>
      </trkpt>
      <trkpt lat="43.15767" lon="5.83715">
        <ele>146</ele>
        <time>2022-08-12T19:30:54Z</time>
      </trkpt>
      <trkpt lat="43.15771" lon="5.83733">
        <ele>145</ele>
        <time>2022-08-12T19:30:57Z</time>
      </trkpt>
      <trkpt lat="43.15778" lon="5.83753">
        <ele>143</ele>
        <time>2022-08-12T19:31:00Z</time>
      </trkpt>
      <trkpt lat="43.15809" lon="5.83808">
        <ele>132</ele>
        <time>2022-08-12T19:31:09Z</time>
      </trkpt>
      <trkpt lat="43.15812" lon="5.83829">
        <ele>131</ele>
        <time>2022-08-12T19:31:12Z</time>
      </trkpt>
      <trkpt lat="43.15811" lon="5.83838">
        <ele>131</ele>
        <time>2022-08-12T19:31:13Z</time>
      </trkpt>
      <trkpt lat="43.15807" lon="5.83848">
        <ele>132</ele>
        <time>2022-08-12T19:31:14Z</time>
      </trkpt>
      <trkpt lat="43.15784" lon="5.83885">
        <ele>138</ele>
        <time>2022-08-12T19:31:20Z</time>
      </trkpt>
      <trkpt lat="43.1578" lon="5.83901">
        <ele>138</ele>
        <time>2022-08-12T19:31:23Z</time>
      </trkpt>
      <trkpt lat="43.15778" lon="5.83918">
        <ele>138</ele>
        <time>2022-08-12T19:31:25Z</time>
      </trkpt>
      <trkpt lat="43.15778" lon="5.83938">
        <ele>140</ele>
        <time>2022-08-12T19:31:28Z</time>
      </trkpt>
      <trkpt lat="43.15782" lon="5.83958">
        <ele>141</ele>
        <time>2022-08-12T19:31:30Z</time>
      </trkpt>
      <trkpt lat="43.15788" lon="5.83973">
        <ele>141</ele>
        <time>2022-08-12T19:31:32Z</time>
      </trkpt>
      <trkpt lat="43.15796" lon="5.83986">
        <ele>139</ele>
        <time>2022-08-12T19:31:35Z</time>
      </trkpt>
      <trkpt lat="43.15823" lon="5.84018">
        <ele>134</ele>
        <time>2022-08-12T19:31:41Z</time>
      </trkpt>
      <trkpt lat="43.15837" lon="5.84026">
        <ele>132</ele>
        <time>2022-08-12T19:31:44Z</time>
      </trkpt>
      <trkpt lat="43.1586" lon="5.84033">
        <ele>133</ele>
        <time>2022-08-12T19:31:48Z</time>
      </trkpt>
      <trkpt lat="43.15872" lon="5.84039">
        <ele>133</ele>
        <time>2022-08-12T19:31:50Z</time>
      </trkpt>
      <trkpt lat="43.15889" lon="5.84052">
        <ele>132</ele>
        <time>2022-08-12T19:31:54Z</time>
      </trkpt>
      <trkpt lat="43.159" lon="5.84063">
        <ele>129</ele>
        <time>2022-08-12T19:31:56Z</time>
      </trkpt>
      <trkpt lat="43.15918" lon="5.84088">
        <ele>122</ele>
        <time>2022-08-12T19:32:01Z</time>
      </trkpt>
      <trkpt lat="43.15945" lon="5.84134">
        <ele>132</ele>
        <time>2022-08-12T19:32:08Z</time>
      </trkpt>
      <trkpt lat="43.15953" lon="5.84156">
        <ele>133</ele>
        <time>2022-08-12T19:32:11Z</time>
      </trkpt>
      <trkpt lat="43.15957" lon="5.84178">
        <ele>133</ele>
        <time>2022-08-12T19:32:14Z</time>
      </trkpt>
      <trkpt lat="43.15959" lon="5.84203">
        <ele>133</ele>
        <time>2022-08-12T19:32:18Z</time>
      </trkpt>
      <trkpt lat="43.15957" lon="5.8423">
        <ele>132</ele>
        <time>2022-08-12T19:32:21Z</time>
      </trkpt>
      <trkpt lat="43.15952" lon="5.84268">
        <ele>130</ele>
        <time>2022-08-12T19:32:26Z</time>
      </trkpt>
      <trkpt lat="43.15952" lon="5.84322">
        <ele>124</ele>
        <time>2022-08-12T19:32:33Z</time>
      </trkpt>
      <trkpt lat="43.15951" lon="5.84333">
        <ele>122</ele>
        <time>2022-08-12T19:32:35Z</time>
      </trkpt>
      <trkpt lat="43.15946" lon="5.84343">
        <ele>123</ele>
        <time>2022-08-12T19:32:36Z</time>
      </trkpt>
      <trkpt lat="43.1594" lon="5.84349">
        <ele>123</ele>
        <time>2022-08-12T19:32:38Z</time>
      </trkpt>
      <trkpt lat="43.1591" lon="5.84368">
        <ele>122</ele>
        <time>2022-08-12T19:32:43Z</time>
      </trkpt>
      <trkpt lat="43.15876" lon="5.84372">
        <ele>122</ele>
        <time>2022-08-12T19:32:49Z</time>
      </trkpt>
      <trkpt lat="43.1584" lon="5.84381">
        <ele>119</ele>
        <time>2022-08-12T19:32:56Z</time>
      </trkpt>
      <trkpt lat="43.1582" lon="5.8439">
        <ele>120</ele>
        <time>2022-08-12T19:33:00Z</time>
      </trkpt>
      <trkpt lat="43.15811" lon="5.84397">
        <ele>121</ele>
        <time>2022-08-12T19:33:02Z</time>
      </trkpt>
      <trkpt lat="43.15795" lon="5.84418">
        <ele>118</ele>
        <time>2022-08-12T19:33:06Z</time>
      </trkpt>
      <trkpt lat="43.15754" lon="5.84496">
        <ele>106</ele>
        <time>2022-08-12T19:33:18Z</time>
      </trkpt>
      <trkpt lat="43.15742" lon="5.84509">
        <ele>107</ele>
        <time>2022-08-12T19:33:21Z</time>
      </trkpt>
      <trkpt lat="43.15734" lon="5.8451">
        <ele>108</ele>
        <time>2022-08-12T19:33:22Z</time>
      </trkpt>
      <trkpt lat="43.15726" lon="5.84508">
        <ele>108</ele>
        <time>2022-08-12T19:33:24Z</time>
      </trkpt>
      <trkpt lat="43.15719" lon="5.84503">
        <ele>108</ele>
        <time>2022-08-12T19:33:25Z</time>
      </trkpt>
      <trkpt lat="43.15693" lon="5.8447">
        <ele>114</ele>
        <time>2022-08-12T19:33:31Z</time>
      </trkpt>
      <trkpt lat="43.15666" lon="5.84429">
        <ele>115</ele>
        <time>2022-08-12T19:33:38Z</time>
      </trkpt>
      <trkpt lat="43.15656" lon="5.8441">
        <ele>117</ele>
        <time>2022-08-12T19:33:42Z</time>
      </trkpt>
      <trkpt lat="43.15632" lon="5.84347">
        <ele>119</ele>
        <time>2022-08-12T19:33:51Z</time>
      </trkpt>
      <trkpt lat="43.15618" lon="5.84322">
        <ele>117</ele>
        <time>2022-08-12T19:33:55Z</time>
      </trkpt>
      <trkpt lat="43.15605" lon="5.84302">
        <ele>116</ele>
        <time>2022-08-12T19:33:58Z</time>
      </trkpt>
      <trkpt lat="43.1558" lon="5.84278">
        <ele>112</ele>
        <time>2022-08-12T19:34:04Z</time>
      </trkpt>
      <trkpt lat="43.15563" lon="5.84266">
        <ele>114</ele>
        <time>2022-08-12T19:34:07Z</time>
      </trkpt>
      <trkpt lat="43.15553" lon="5.84264">
        <ele>115</ele>
        <time>2022-08-12T19:34:09Z</time>
      </trkpt>
      <trkpt lat="43.15543" lon="5.84266">
        <ele>114</ele>
        <time>2022-08-12T19:34:11Z</time>
      </trkpt>
      <trkpt lat="43.15536" lon="5.8427">
        <ele>114</ele>
        <time>2022-08-12T19:34:12Z</time>
      </trkpt>
      <trkpt lat="43.15529" lon="5.84277">
        <ele>112</ele>
        <time>2022-08-12T19:34:14Z</time>
      </trkpt>
      <trkpt lat="43.15516" lon="5.84306">
        <ele>103</ele>
        <time>2022-08-12T19:34:18Z</time>
      </trkpt>
      <trkpt lat="43.15499" lon="5.84367">
        <ele>94</ele>
        <time>2022-08-12T19:34:27Z</time>
      </trkpt>
      <trkpt lat="43.15486" lon="5.8439">
        <ele>96</ele>
        <time>2022-08-12T19:34:30Z</time>
      </trkpt>
      <trkpt lat="43.15467" lon="5.84411">
        <ele>97</ele>
        <time>2022-08-12T19:34:35Z</time>
      </trkpt>
      <trkpt lat="43.15424" lon="5.8445">
        <ele>97</ele>
        <time>2022-08-12T19:34:44Z</time>
      </trkpt>
      <trkpt lat="43.15381" lon="5.84496">
        <ele>96</ele>
        <time>2022-08-12T19:34:54Z</time>
      </trkpt>
      <trkpt lat="43.15369" lon="5.84504">
        <ele>97</ele>
        <time>2022-08-12T19:34:56Z</time>
      </trkpt>
      <trkpt lat="43.15339" lon="5.84513">
        <ele>101</ele>
        <time>2022-08-12T19:35:01Z</time>
      </trkpt>
      <trkpt lat="43.15324" lon="5.84512">
        <ele>100</ele>
        <time>2022-08-12T19:35:04Z</time>
      </trkpt>
      <trkpt lat="43.15238" lon="5.8447">
        <ele>101</ele>
        <time>2022-08-12T19:35:20Z</time>
      </trkpt>
      <trkpt lat="43.15211" lon="5.84464">
        <ele>112</ele>
        <time>2022-08-12T19:35:25Z</time>
      </trkpt>
      <trkpt lat="43.15197" lon="5.84466">
        <ele>115</ele>
        <time>2022-08-12T19:35:28Z</time>
      </trkpt>
      <trkpt lat="43.15186" lon="5.84471">
        <ele>116</ele>
        <time>2022-08-12T19:35:30Z</time>
      </trkpt>
      <trkpt lat="43.15176" lon="5.84479">
        <ele>114</ele>
        <time>2022-08-12T19:35:32Z</time>
      </trkpt>
      <trkpt lat="43.15167" lon="5.8449">
        <ele>110</ele>
        <time>2022-08-12T19:35:34Z</time>
      </trkpt>
      <trkpt lat="43.15156" lon="5.84519">
        <ele>103</ele>
        <time>2022-08-12T19:35:38Z</time>
      </trkpt>
      <trkpt lat="43.15155" lon="5.84538">
        <ele>98</ele>
        <time>2022-08-12T19:35:41Z</time>
      </trkpt>
      <trkpt lat="43.15168" lon="5.8473">
        <ele>84</ele>
        <time>2022-08-12T19:36:06Z</time>
      </trkpt>
      <trkpt lat="43.15168" lon="5.84752">
        <ele>85</ele>
        <time>2022-08-12T19:36:09Z</time>
      </trkpt>
      <trkpt lat="43.15161" lon="5.84774">
        <ele>84</ele>
        <time>2022-08-12T19:36:12Z</time>
      </trkpt>
      <trkpt lat="43.15146" lon="5.84799">
        <ele>83</ele>
        <time>2022-08-12T19:36:16Z</time>
      </trkpt>
      <trkpt lat="43.15123" lon="5.84828">
        <ele>80</ele>
        <time>2022-08-12T19:36:21Z</time>
      </trkpt>
      <trkpt lat="43.15109" lon="5.84838">
        <ele>78</ele>
        <time>2022-08-12T19:36:24Z</time>
      </trkpt>
      <trkpt lat="43.15091" lon="5.84842">
        <ele>76</ele>
        <time>2022-08-12T19:36:27Z</time>
      </trkpt>
      <trkpt lat="43.15068" lon="5.84838">
        <ele>74</ele>
        <time>2022-08-12T19:36:32Z</time>
      </trkpt>
      <trkpt lat="43.15044" lon="5.84826">
        <ele>73</ele>
        <time>2022-08-12T19:36:36Z</time>
      </trkpt>
      <trkpt lat="43.14876" lon="5.84683">
        <ele>75</ele>
        <time>2022-08-12T19:37:11Z</time>
      </trkpt>
      <trkpt lat="43.14859" lon="5.84672">
        <ele>77</ele>
        <time>2022-08-12T19:37:15Z</time>
      </trkpt>
      <trkpt lat="43.14851" lon="5.8467">
        <ele>77</ele>
        <time>2022-08-12T19:37:16Z</time>
      </trkpt>
      <trkpt lat="43.1484" lon="5.84674">
        <ele>77</ele>
        <time>2022-08-12T19:37:18Z</time>
      </trkpt>
      <trkpt lat="43.14763" lon="5.84774">
        <ele>71</ele>
        <time>2022-08-12T19:37:37Z</time>
      </trkpt>
      <trkpt lat="43.14718" lon="5.84814">
        <ele>70</ele>
        <time>2022-08-12T19:37:47Z</time>
      </trkpt>
      <trkpt lat="43.14704" lon="5.84822">
        <ele>68</ele>
        <time>2022-08-12T19:37:49Z</time>
      </trkpt>
      <trkpt lat="43.14679" lon="5.84825">
        <ele>67</ele>
        <time>2022-08-12T19:37:54Z</time>
      </trkpt>
      <trkpt lat="43.14664" lon="5.84825">
        <ele>66</ele>
        <time>2022-08-12T19:37:56Z</time>
      </trkpt>
      <trkpt lat="43.14594" lon="5.84811">
        <ele>64</ele>
        <time>2022-08-12T19:38:09Z</time>
      </trkpt>
      <trkpt lat="43.14576" lon="5.84803">
        <ele>63</ele>
        <time>2022-08-12T19:38:12Z</time>
      </trkpt>
      <trkpt lat="43.14498" lon="5.8475">
        <ele>57</ele>
        <time>2022-08-12T19:38:28Z</time>
      </trkpt>
      <trkpt lat="43.14392" lon="5.84695">
        <ele>57</ele>
        <time>2022-08-12T19:38:48Z</time>
      </trkpt>
      <trkpt lat="43.14362" lon="5.84678">
        <ele>56</ele>
        <time>2022-08-12T19:38:54Z</time>
      </trkpt>
      <trkpt lat="43.14335" lon="5.8468">
        <ele>55</ele>
        <time>2022-08-12T19:38:59Z</time>
      </trkpt>
      <trkpt lat="43.14313" lon="5.84693">
        <ele>54</ele>
        <time>2022-08-12T19:39:03Z</time>
      </trkpt>
      <trkpt lat="43.14175" lon="5.84835">
        <ele>49</ele>
        <time>2022-08-12T19:39:34Z</time>
      </trkpt>
      <trkpt lat="43.14166" lon="5.84848">
        <ele>49</ele>
        <time>2022-08-12T19:39:36Z</time>
      </trkpt>
      <trkpt lat="43.14096" lon="5.84919">
        <ele>49</ele>
        <time>2022-08-12T19:39:51Z</time>
      </trkpt>
      <trkpt lat="43.14077" lon="5.84935">
        <ele>50</ele>
        <time>2022-08-12T19:39:55Z</time>
      </trkpt>
      <trkpt lat="43.14043" lon="5.84957">
        <ele>53</ele>
        <time>2022-08-12T19:40:02Z</time>
      </trkpt>
      <trkpt lat="43.14021" lon="5.84968">
        <ele>56</ele>
        <time>2022-08-12T19:40:06Z</time>
      </trkpt>
      <trkpt lat="43.13863" lon="5.85019">
        <ele>57</ele>
        <time>2022-08-12T19:40:35Z</time>
      </trkpt>
      <trkpt lat="43.1382" lon="5.85035">
        <ele>55</ele>
        <time>2022-08-12T19:40:43Z</time>
      </trkpt>
      <trkpt lat="43.13699" lon="5.85076">
        <ele>52</ele>
        <time>2022-08-12T19:41:05Z</time>
      </trkpt>
      <trkpt lat="43.13663" lon="5.85086">
        <ele>53</ele>
        <time>2022-08-12T19:41:12Z</time>
      </trkpt>
      <trkpt lat="43.13644" lon="5.85095">
        <ele>53</ele>
        <time>2022-08-12T19:41:15Z</time>
      </trkpt>
      <trkpt lat="43.13635" lon="5.85102">
        <ele>53</ele>
        <time>2022-08-12T19:41:17Z</time>
      </trkpt>
      <trkpt lat="43.13565" lon="5.85185">
        <ele>56</ele>
        <time>2022-08-12T19:41:34Z</time>
      </trkpt>
      <trkpt lat="43.1352" lon="5.85248">
        <ele>57</ele>
        <time>2022-08-12T19:41:45Z</time>
      </trkpt>
      <trkpt lat="43.13514" lon="5.85264">
        <ele>58</ele>
        <time>2022-08-12T19:41:47Z</time>
      </trkpt>
      <trkpt lat="43.13496" lon="5.85307">
        <ele>62</ele>
        <time>2022-08-12T19:41:54Z</time>
      </trkpt>
      <trkpt lat="43.1349" lon="5.85332">
        <ele>64</ele>
        <time>2022-08-12T19:41:57Z</time>
      </trkpt>
      <trkpt lat="43.13487" lon="5.85358">
        <ele>66</ele>
        <time>2022-08-12T19:42:01Z</time>
      </trkpt>
      <trkpt lat="43.13487" lon="5.8538">
        <ele>68</ele>
        <time>2022-08-12T19:42:04Z</time>
      </trkpt>
      <trkpt lat="43.13491" lon="5.85403">
        <ele>69</ele>
        <time>2022-08-12T19:42:07Z</time>
      </trkpt>
      <trkpt lat="43.13536" lon="5.85631">
        <ele>83</ele>
        <time>2022-08-12T19:42:37Z</time>
      </trkpt>
      <trkpt lat="43.1354" lon="5.85665">
        <ele>84</ele>
        <time>2022-08-12T19:42:42Z</time>
      </trkpt>
      <trkpt lat="43.13541" lon="5.85684">
        <ele>84</ele>
        <time>2022-08-12T19:42:44Z</time>
      </trkpt>
      <trkpt lat="43.13539" lon="5.85703">
        <ele>84</ele>
        <time>2022-08-12T19:42:47Z</time>
      </trkpt>
      <trkpt lat="43.13536" lon="5.85719">
        <ele>84</ele>
        <time>2022-08-12T19:42:49Z</time>
      </trkpt>
      <trkpt lat="43.13523" lon="5.85757">
        <ele>84</ele>
        <time>2022-08-12T19:42:54Z</time>
      </trkpt>
      <trkpt lat="43.13494" lon="5.85837">
        <ele>83</ele>
        <time>2022-08-12T19:43:06Z</time>
      </trkpt>
      <trkpt lat="43.13486" lon="5.85865">
        <ele>83</ele>
        <time>2022-08-12T19:43:10Z</time>
      </trkpt>
      <trkpt lat="43.1348" lon="5.85873">
        <ele>82</ele>
        <time>2022-08-12T19:43:11Z</time>
      </trkpt>
      <trkpt lat="43.13479" lon="5.85878">
        <ele>82</ele>
        <time>2022-08-12T19:43:12Z</time>
      </trkpt>
      <trkpt lat="43.1348" lon="5.85888">
        <ele>82</ele>
        <time>2022-08-12T19:43:13Z</time>
      </trkpt>
      <trkpt lat="43.13454" lon="5.85945">
        <ele>80</ele>
        <time>2022-08-12T19:43:22Z</time>
      </trkpt>
      <trkpt lat="43.13443" lon="5.85975">
        <ele>79</ele>
        <time>2022-08-12T19:43:26Z</time>
      </trkpt>
      <trkpt lat="43.13367" lon="5.86171">
        <ele>81</ele>
        <time>2022-08-12T19:43:55Z</time>
      </trkpt>
      <trkpt lat="43.13321" lon="5.86303">
        <ele>77</ele>
        <time>2022-08-12T19:44:14Z</time>
      </trkpt>
      <trkpt lat="43.13262" lon="5.86534">
        <ele>68</ele>
        <time>2022-08-12T19:44:46Z</time>
      </trkpt>
      <trkpt lat="43.13235" lon="5.86634">
        <ele>63</ele>
        <time>2022-08-12T19:45:00Z</time>
      </trkpt>
      <trkpt lat="43.13202" lon="5.86764">
        <ele>59</ele>
        <time>2022-08-12T19:45:18Z</time>
      </trkpt>
      <trkpt lat="43.1319" lon="5.86811">
        <ele>57</ele>
        <time>2022-08-12T19:45:24Z</time>
      </trkpt>
      <trkpt lat="43.13166" lon="5.86931">
        <ele>53</ele>
        <time>2022-08-12T19:45:40Z</time>
      </trkpt>
      <trkpt lat="43.13078" lon="5.87286">
        <ele>43</ele>
        <time>2022-08-12T19:46:29Z</time>
      </trkpt>
      <trkpt lat="43.13059" lon="5.8735">
        <ele>40</ele>
        <time>2022-08-12T19:46:38Z</time>
      </trkpt>
      <trkpt lat="43.13048" lon="5.87377">
        <ele>40</ele>
        <time>2022-08-12T19:46:42Z</time>
      </trkpt>
      <trkpt lat="43.13041" lon="5.87389">
        <ele>39</ele>
        <time>2022-08-12T19:46:44Z</time>
      </trkpt>
      <trkpt lat="43.13032" lon="5.87397">
        <ele>38</ele>
        <time>2022-08-12T19:46:46Z</time>
      </trkpt>
      <trkpt lat="43.13025" lon="5.87403">
        <ele>37</ele>
        <time>2022-08-12T19:46:47Z</time>
      </trkpt>
      <trkpt lat="43.13022" lon="5.87407">
        <ele>37</ele>
        <time>2022-08-12T19:46:48Z</time>
      </trkpt>
      <trkpt lat="43.13021" lon="5.87419">
        <ele>37</ele>
        <time>2022-08-12T19:46:50Z</time>
      </trkpt>
      <trkpt lat="43.13022" lon="5.87425">
        <ele>37</ele>
        <time>2022-08-12T19:46:50Z</time>
      </trkpt>
      <trkpt lat="43.13021" lon="5.87439">
        <ele>37</ele>
        <time>2022-08-12T19:46:52Z</time>
      </trkpt>
      <trkpt lat="43.13015" lon="5.87466">
        <ele>37</ele>
        <time>2022-08-12T19:46:56Z</time>
      </trkpt>
      <trkpt lat="43.12992" lon="5.87523">
        <ele>35</ele>
        <time>2022-08-12T19:47:04Z</time>
      </trkpt>
      <trkpt lat="43.12967" lon="5.87577">
        <ele>35</ele>
        <time>2022-08-12T19:47:13Z</time>
      </trkpt>
      <trkpt lat="43.12963" lon="5.87575">
        <ele>35</ele>
        <time>2022-08-12T19:47:13Z</time>
      </trkpt>
      <trkpt lat="43.12939" lon="5.87635">
        <ele>34</ele>
        <time>2022-08-12T19:47:22Z</time>
      </trkpt>
      <trkpt lat="43.12933" lon="5.87643">
        <ele>34</ele>
        <time>2022-08-12T19:47:24Z</time>
      </trkpt>
      <trkpt lat="43.12953" lon="5.8766">
        <ele>35</ele>
        <time>2022-08-12T19:47:28Z</time>
      </trkpt>
      <trkpt lat="43.12959" lon="5.87686">
        <ele>35</ele>
        <time>2022-08-12T19:47:32Z</time>
      </trkpt>
      <trkpt lat="43.12952" lon="5.87692">
        <ele>34</ele>
        <time>2022-08-12T19:47:33Z</time>
      </trkpt>
      <trkpt lat="43.12943" lon="5.87705">
        <ele>34</ele>
        <time>2022-08-12T19:47:35Z</time>
      </trkpt>
      <trkpt lat="43.12932" lon="5.87715">
        <ele>33</ele>
        <time>2022-08-12T19:47:38Z</time>
      </trkpt>
      <trkpt lat="43.12916" lon="5.87737">
        <ele>31</ele>
        <time>2022-08-12T19:47:42Z</time>
      </trkpt>
      <trkpt lat="43.12886" lon="5.87819">
        <ele>30</ele>
        <time>2022-08-12T19:47:54Z</time>
      </trkpt>
      <trkpt lat="43.12869" lon="5.87895">
        <ele>30</ele>
        <time>2022-08-12T19:48:04Z</time>
      </trkpt>
      <trkpt lat="43.12868" lon="5.87907">
        <ele>30</ele>
        <time>2022-08-12T19:48:06Z</time>
      </trkpt>
      <trkpt lat="43.12873" lon="5.87922">
        <ele>30</ele>
        <time>2022-08-12T19:48:08Z</time>
      </trkpt>
      <trkpt lat="43.12874" lon="5.87938">
        <ele>30</ele>
        <time>2022-08-12T19:48:10Z</time>
      </trkpt>
      <trkpt lat="43.12844" lon="5.88083">
        <ele>30</ele>
        <time>2022-08-12T19:48:29Z</time>
      </trkpt>
      <trkpt lat="43.12846" lon="5.88109">
        <ele>29</ele>
        <time>2022-08-12T19:48:33Z</time>
      </trkpt>
      <trkpt lat="43.12849" lon="5.8812">
        <ele>28</ele>
        <time>2022-08-12T19:48:34Z</time>
      </trkpt>
      <trkpt lat="43.12841" lon="5.88139">
        <ele>28</ele>
        <time>2022-08-12T19:48:37Z</time>
      </trkpt>
      <trkpt lat="43.12814" lon="5.88142">
        <ele>27</ele>
        <time>2022-08-12T19:48:42Z</time>
      </trkpt>
      <trkpt lat="43.12825" lon="5.88487">
        <ele>27</ele>
        <time>2022-08-12T19:49:27Z</time>
      </trkpt>
      <trkpt lat="43.12829" lon="5.88553">
        <ele>26</ele>
        <time>2022-08-12T19:49:35Z</time>
      </trkpt>
      <trkpt lat="43.12834" lon="5.88583">
        <ele>25</ele>
        <time>2022-08-12T19:49:39Z</time>
      </trkpt>
      <trkpt lat="43.12865" lon="5.88736">
        <ele>23</ele>
        <time>2022-08-12T19:50:00Z</time>
      </trkpt>
      <trkpt lat="43.12867" lon="5.88763">
        <ele>23</ele>
        <time>2022-08-12T19:50:03Z</time>
      </trkpt>
      <trkpt lat="43.12875" lon="5.88958">
        <ele>26</ele>
        <time>2022-08-12T19:50:29Z</time>
      </trkpt>
      <trkpt lat="43.12874" lon="5.88973">
        <ele>26</ele>
        <time>2022-08-12T19:50:31Z</time>
      </trkpt>
      <trkpt lat="43.1287" lon="5.89009">
        <ele>25</ele>
        <time>2022-08-12T19:50:36Z</time>
      </trkpt>
      <trkpt lat="43.12861" lon="5.89037">
        <ele>24</ele>
        <time>2022-08-12T19:50:40Z</time>
      </trkpt>
      <trkpt lat="43.12854" lon="5.89058">
        <ele>24</ele>
        <time>2022-08-12T19:50:43Z</time>
      </trkpt>
      <trkpt lat="43.12846" lon="5.89095">
        <ele>24</ele>
        <time>2022-08-12T19:50:48Z</time>
      </trkpt>
      <trkpt lat="43.12844" lon="5.89115">
        <ele>24</ele>
        <time>2022-08-12T19:50:50Z</time>
      </trkpt>
      <trkpt lat="43.12851" lon="5.89181">
        <ele>22</ele>
        <time>2022-08-12T19:50:59Z</time>
      </trkpt>
      <trkpt lat="43.12862" lon="5.89239">
        <ele>20</ele>
        <time>2022-08-12T19:51:07Z</time>
      </trkpt>
      <trkpt lat="43.12871" lon="5.89262">
        <ele>20</ele>
        <time>2022-08-12T19:51:10Z</time>
      </trkpt>
      <trkpt lat="43.12875" lon="5.89281">
        <ele>20</ele>
        <time>2022-08-12T19:51:13Z</time>
      </trkpt>
      <trkpt lat="43.12893" lon="5.89481">
        <ele>22</ele>
        <time>2022-08-12T19:51:39Z</time>
      </trkpt>
      <trkpt lat="43.12926" lon="5.89889">
        <ele>20</ele>
        <time>2022-08-12T19:52:32Z</time>
      </trkpt>
      <trkpt lat="43.12929" lon="5.89933">
        <ele>20</ele>
        <time>2022-08-12T19:52:38Z</time>
      </trkpt>
      <trkpt lat="43.1293" lon="5.90023">
        <ele>19</ele>
        <time>2022-08-12T19:52:49Z</time>
      </trkpt>
      <trkpt lat="43.12928" lon="5.90047">
        <ele>18</ele>
        <time>2022-08-12T19:52:53Z</time>
      </trkpt>
      <trkpt lat="43.12916" lon="5.90131">
        <ele>14</ele>
        <time>2022-08-12T19:53:04Z</time>
      </trkpt>
      <trkpt lat="43.12913" lon="5.90139">
        <ele>14</ele>
        <time>2022-08-12T19:53:05Z</time>
      </trkpt>
      <trkpt lat="43.12907" lon="5.90161">
        <ele>12</ele>
        <time>2022-08-12T19:53:08Z</time>
      </trkpt>
      <trkpt lat="43.12897" lon="5.90206">
        <ele>13</ele>
        <time>2022-08-12T19:53:14Z</time>
      </trkpt>
      <trkpt lat="43.12889" lon="5.90243">
        <ele>15</ele>
        <time>2022-08-12T19:53:19Z</time>
      </trkpt>
      <trkpt lat="43.12883" lon="5.90278">
        <ele>15</ele>
        <time>2022-08-12T19:53:24Z</time>
      </trkpt>
      <trkpt lat="43.12842" lon="5.9044">
        <ele>14</ele>
        <time>2022-08-12T19:53:46Z</time>
      </trkpt>
      <trkpt lat="43.12836" lon="5.90466">
        <ele>13</ele>
        <time>2022-08-12T19:53:50Z</time>
      </trkpt>
      <trkpt lat="43.12832" lon="5.90485">
        <ele>12</ele>
        <time>2022-08-12T19:53:52Z</time>
      </trkpt>
      <trkpt lat="43.12818" lon="5.90598">
        <ele>8</ele>
        <time>2022-08-12T19:54:07Z</time>
      </trkpt>
      <trkpt lat="43.12798" lon="5.90659">
        <ele>6</ele>
        <time>2022-08-12T19:54:16Z</time>
      </trkpt>
      <trkpt lat="43.12791" lon="5.90677">
        <ele>6</ele>
        <time>2022-08-12T19:54:18Z</time>
      </trkpt>
      <trkpt lat="43.12784" lon="5.90701">
        <ele>7</ele>
        <time>2022-08-12T19:54:22Z</time>
      </trkpt>
      <trkpt lat="43.12783" lon="5.90731">
        <ele>8</ele>
        <time>2022-08-12T19:54:26Z</time>
      </trkpt>
      <trkpt lat="43.1278" lon="5.90752">
        <ele>8</ele>
        <time>2022-08-12T19:54:28Z</time>
      </trkpt>
      <trkpt lat="43.1273" lon="5.90877">
        <ele>8</ele>
        <time>2022-08-12T19:54:47Z</time>
      </trkpt>
      <trkpt lat="43.12662" lon="5.9104">
        <ele>7</ele>
        <time>2022-08-12T19:55:11Z</time>
      </trkpt>
      <trkpt lat="43.12652" lon="5.91076">
        <ele>7</ele>
        <time>2022-08-12T19:55:16Z</time>
      </trkpt>
      <trkpt lat="43.12649" lon="5.91092">
        <ele>7</ele>
        <time>2022-08-12T19:55:18Z</time>
      </trkpt>
      <trkpt lat="43.12648" lon="5.91128">
        <ele>5</ele>
        <time>2022-08-12T19:55:23Z</time>
      </trkpt>
      <trkpt lat="43.12649" lon="5.91147">
        <ele>5</ele>
        <time>2022-08-12T19:55:26Z</time>
      </trkpt>
      <trkpt lat="43.1266" lon="5.91214">
        <ele>6</ele>
        <time>2022-08-12T19:55:34Z</time>
      </trkpt>
      <trkpt lat="43.12676" lon="5.91366">
        <ele>7</ele>
        <time>2022-08-12T19:55:54Z</time>
      </trkpt>
      <trkpt lat="43.12692" lon="5.91601">
        <ele>9</ele>
        <time>2022-08-12T19:56:25Z</time>
      </trkpt>
      <trkpt lat="43.12695" lon="5.91627">
        <ele>10</ele>
        <time>2022-08-12T19:56:28Z</time>
      </trkpt>
      <trkpt lat="43.12711" lon="5.91707">
        <ele>12</ele>
        <time>2022-08-12T19:56:39Z</time>
      </trkpt>
      <trkpt lat="43.12716" lon="5.9174">
        <ele>12</ele>
        <time>2022-08-12T19:56:44Z</time>
      </trkpt>
      <trkpt lat="43.1272" lon="5.91801">
        <ele>12</ele>
        <time>2022-08-12T19:56:52Z</time>
      </trkpt>
      <trkpt lat="43.12721" lon="5.91844">
        <ele>11</ele>
        <time>2022-08-12T19:56:57Z</time>
      </trkpt>
      <trkpt lat="43.127" lon="5.91845">
        <ele>10</ele>
        <time>2022-08-12T19:57:01Z</time>
      </trkpt>
      <trkpt lat="43.12686" lon="5.91851">
        <ele>9</ele>
        <time>2022-08-12T19:57:03Z</time>
      </trkpt>
      <trkpt lat="43.127" lon="5.91894">
        <ele>8</ele>
        <time>2022-08-12T19:57:10Z</time>
      </trkpt>
      <trkpt lat="43.12701" lon="5.9192">
        <ele>8</ele>
        <time>2022-08-12T19:57:13Z</time>
      </trkpt>
      <trkpt lat="43.127" lon="5.91944">
        <ele>8</ele>
        <time>2022-08-12T19:57:16Z</time>
      </trkpt>
      <trkpt lat="43.12695" lon="5.91971">
        <ele>9</ele>
        <time>2022-08-12T19:57:20Z</time>
      </trkpt>
      <trkpt lat="43.12687" lon="5.91995">
        <ele>9</ele>
        <time>2022-08-12T19:57:23Z</time>
      </trkpt>
      <trkpt lat="43.12645" lon="5.92096">
        <ele>7</ele>
        <time>2022-08-12T19:57:38Z</time>
      </trkpt>
      <trkpt lat="43.12597" lon="5.9221">
        <ele>7</ele>
        <time>2022-08-12T19:57:55Z</time>
      </trkpt>
      <trkpt lat="43.12595" lon="5.92238">
        <ele>8</ele>
        <time>2022-08-12T19:57:59Z</time>
      </trkpt>
      <trkpt lat="43.1259" lon="5.92254">
        <ele>8</ele>
        <time>2022-08-12T19:58:01Z</time>
      </trkpt>
      <trkpt lat="43.12589" lon="5.92265">
        <ele>8</ele>
        <time>2022-08-12T19:58:03Z</time>
      </trkpt>
      <trkpt lat="43.12564" lon="5.9232">
        <ele>7</ele>
        <time>2022-08-12T19:58:11Z</time>
      </trkpt>
      <trkpt lat="43.12564" lon="5.92328">
        <ele>7</ele>
        <time>2022-08-12T19:58:12Z</time>
      </trkpt>
      <trkpt lat="43.12365" lon="5.92774">
        <ele>9</ele>
        <time>2022-08-12T19:59:20Z</time>
      </trkpt>
      <trkpt lat="43.12303" lon="5.92911">
        <ele>6</ele>
        <time>2022-08-12T19:59:41Z</time>
      </trkpt>
      <trkpt lat="43.12299" lon="5.92924">
        <ele>7</ele>
        <time>2022-08-12T19:59:43Z</time>
      </trkpt>
      <trkpt lat="43.12302" lon="5.92936">
        <ele>7</ele>
        <time>2022-08-12T19:59:44Z</time>
      </trkpt>
      <trkpt lat="43.12298" lon="5.92941">
        <ele>8</ele>
        <time>2022-08-12T19:59:45Z</time>
      </trkpt>
      <trkpt lat="43.12295" lon="5.92951">
        <ele>8</ele>
        <time>2022-08-12T19:59:47Z</time>
      </trkpt>
      <trkpt lat="43.12417" lon="5.93052">
        <ele>18</ele>
        <time>2022-08-12T20:00:12Z</time>
      </trkpt>
      <trkpt lat="43.12518" lon="5.93103">
        <ele>17</ele>
        <time>2022-08-12T20:00:31Z</time>
      </trkpt>
      <trkpt lat="43.12446" lon="5.9347">
        <ele>21</ele>
        <time>2022-08-12T20:01:21Z</time>
      </trkpt>
      <trkpt lat="43.12419" lon="5.93605">
        <ele>19</ele>
        <time>2022-08-12T20:01:39Z</time>
      </trkpt>
      <trkpt lat="43.12414" lon="5.93624">
        <ele>19</ele>
        <time>2022-08-12T20:01:41Z</time>
      </trkpt>
      <trkpt lat="43.12404" lon="5.93624">
        <ele>18</ele>
        <time>2022-08-12T20:01:43Z</time>
      </trkpt>
      <trkpt lat="43.12391" lon="5.93655">
        <ele>18</ele>
        <time>2022-08-12T20:01:48Z</time>
      </trkpt>
      <trkpt lat="43.12263" lon="5.93896">
        <ele>14</ele>
        <time>2022-08-12T20:02:27Z</time>
      </trkpt>
      <trkpt lat="43.12248" lon="5.93913">
        <ele>14</ele>
        <time>2022-08-12T20:02:30Z</time>
      </trkpt>
      <trkpt lat="43.1217" lon="5.93913">
        <ele>11</ele>
        <time>2022-08-12T20:02:44Z</time>
      </trkpt>
      <trkpt lat="43.12158" lon="5.93915">
        <ele>11</ele>
        <time>2022-08-12T20:02:46Z</time>
      </trkpt>
      <trkpt lat="43.12149" lon="5.93919">
        <ele>11</ele>
        <time>2022-08-12T20:02:48Z</time>
      </trkpt>
      <trkpt lat="43.12143" lon="5.93928">
        <ele>10</ele>
        <time>2022-08-12T20:02:49Z</time>
      </trkpt>
      <trkpt lat="43.12139" lon="5.93943">
        <ele>10</ele>
        <time>2022-08-12T20:02:51Z</time>
      </trkpt>
      <trkpt lat="43.12136" lon="5.93967">
        <ele>10</ele>
        <time>2022-08-12T20:02:55Z</time>
      </trkpt>
      <trkpt lat="43.12129" lon="5.94049">
        <ele>12</ele>
        <time>2022-08-12T20:03:05Z</time>
      </trkpt>
      <trkpt lat="43.12115" lon="5.94061">
        <ele>12</ele>
        <time>2022-08-12T20:03:08Z</time>
      </trkpt>
      <trkpt lat="43.12111" lon="5.94068">
        <ele>12</ele>
        <time>2022-08-12T20:03:09Z</time>
      </trkpt>
      <trkpt lat="43.12111" lon="5.94084">
        <ele>13</ele>
        <time>2022-08-12T20:03:11Z</time>
      </trkpt>
      <trkpt lat="43.12104" lon="5.94105">
        <ele>13</ele>
        <time>2022-08-12T20:03:14Z</time>
      </trkpt>
      <trkpt lat="43.12104" lon="5.94115">
        <ele>12</ele>
        <time>2022-08-12T20:03:16Z</time>
      </trkpt>
      <trkpt lat="43.1211" lon="5.94134">
        <ele>12</ele>
        <time>2022-08-12T20:03:18Z</time>
      </trkpt>
      <trkpt lat="43.12108" lon="5.94149">
        <ele>11</ele>
        <time>2022-08-12T20:03:20Z</time>
      </trkpt>
      <trkpt lat="43.1209" lon="5.94193">
        <ele>9</ele>
        <time>2022-08-12T20:03:27Z</time>
      </trkpt>
      <trkpt lat="43.1209" lon="5.94201">
        <ele>9</ele>
        <time>2022-08-12T20:03:28Z</time>
      </trkpt>
      <trkpt lat="43.12087" lon="5.94206">
        <ele>9</ele>
        <time>2022-08-12T20:03:29Z</time>
      </trkpt>
      <trkpt lat="43.12102" lon="5.94206">
        <ele>10</ele>
        <time>2022-08-12T20:03:32Z</time>
      </trkpt>
      <trkpt lat="43.12106" lon="5.9421">
        <ele>10</ele>
        <time>2022-08-12T20:03:32Z</time>
      </trkpt>
      <trkpt lat="43.12108" lon="5.9422">
        <ele>10</ele>
        <time>2022-08-12T20:03:34Z</time>
      </trkpt>
      <trkpt lat="43.12107" lon="5.94237">
        <ele>10</ele>
        <time>2022-08-12T20:03:36Z</time>
      </trkpt>
      <trkpt lat="43.12088" lon="5.94309">
        <ele>8</ele>
        <time>2022-08-12T20:03:46Z</time>
      </trkpt>
      <trkpt lat="43.12038" lon="5.94542">
        <ele>6</ele>
        <time>2022-08-12T20:04:17Z</time>
      </trkpt>
      <trkpt lat="43.12022" lon="5.94608">
        <ele>5</ele>
        <time>2022-08-12T20:04:27Z</time>
      </trkpt>
      <trkpt lat="43.11999" lon="5.94665">
        <ele>4</ele>
        <time>2022-08-12T20:04:35Z</time>
      </trkpt>
      <trkpt lat="43.11977" lon="5.94702">
        <ele>5</ele>
        <time>2022-08-12T20:04:41Z</time>
      </trkpt>
      <trkpt lat="43.11967" lon="5.94716">
        <ele>6</ele>
        <time>2022-08-12T20:04:44Z</time>
      </trkpt>
      <trkpt lat="43.11959" lon="5.94746">
        <ele>7</ele>
        <time>2022-08-12T20:04:48Z</time>
      </trkpt>
      <trkpt lat="43.11958" lon="5.94754">
        <ele>7</ele>
        <time>2022-08-12T20:04:49Z</time>
      </trkpt>
      <trkpt lat="43.1196" lon="5.94773">
        <ele>8</ele>
        <time>2022-08-12T20:04:51Z</time>
      </trkpt>
      <trkpt lat="43.11966" lon="5.94803">
        <ele>9</ele>
        <time>2022-08-12T20:04:55Z</time>
      </trkpt>
      <trkpt lat="43.11992" lon="5.94865">
        <ele>9</ele>
        <time>2022-08-12T20:05:05Z</time>
      </trkpt>
      <trkpt lat="43.11995" lon="5.94885">
        <ele>9</ele>
        <time>2022-08-12T20:05:07Z</time>
      </trkpt>
      <trkpt lat="43.11991" lon="5.94908">
        <ele>8</ele>
        <time>2022-08-12T20:05:10Z</time>
      </trkpt>
      <trkpt lat="43.11994" lon="5.94948">
        <ele>9</ele>
        <time>2022-08-12T20:05:16Z</time>
      </trkpt>
      <trkpt lat="43.11995" lon="5.94979">
        <ele>9</ele>
        <time>2022-08-12T20:05:20Z</time>
      </trkpt>
      <trkpt lat="43.11997" lon="5.95002">
        <ele>9</ele>
        <time>2022-08-12T20:05:23Z</time>
      </trkpt>
      <trkpt lat="43.12014" lon="5.95081">
        <ele>7</ele>
        <time>2022-08-12T20:05:33Z</time>
      </trkpt>
      <trkpt lat="43.12033" lon="5.95129">
        <ele>8</ele>
        <time>2022-08-12T20:05:41Z</time>
      </trkpt>
      <trkpt lat="43.1204" lon="5.95152">
        <ele>8</ele>
        <time>2022-08-12T20:05:44Z</time>
      </trkpt>
      <trkpt lat="43.12053" lon="5.95229">
        <ele>8</ele>
        <time>2022-08-12T20:05:54Z</time>
      </trkpt>
      <trkpt lat="43.12063" lon="5.95265">
        <ele>8</ele>
        <time>2022-08-12T20:05:59Z</time>
      </trkpt>
      <trkpt lat="43.12077" lon="5.95301">
        <ele>7</ele>
        <time>2022-08-12T20:06:04Z</time>
      </trkpt>
      <trkpt lat="43.1213" lon="5.95416">
        <ele>9</ele>
        <time>2022-08-12T20:06:22Z</time>
      </trkpt>
      <trkpt lat="43.12164" lon="5.95517">
        <ele>10</ele>
        <time>2022-08-12T20:06:36Z</time>
      </trkpt>
    </trkseg>
  </trk>
</gpx>